Provisional Data: West Branch Susquehanna River near Milton, PA


Please select a monitoring station.
Please select start date.
Please select start date.

Toggle Unit: C/F Toggle Unit: C/F
Sample Time Temperature (C) Temperature (F) Specific Conductivity (mS/cm) pH   Turbidity (NTU+) DO (mg/L)
12/11/2021 12:00:00 AM 3.52 38.336 0.165 7.65 18.88 14.55
12/11/2021 12:15:00 AM 3.52 38.336 0.165 7.61 21.43 14.54
12/11/2021 12:30:00 AM 3.53 38.354 0.166 7.62 21.18 14.52
12/11/2021 12:45:00 AM 3.54 38.372 0.165 7.64 17.18 14.53
12/11/2021 1:00:00 AM 3.54 38.372 0.164 7.61 21.35 14.52
12/11/2021 1:15:00 AM 3.55 38.39 0.164 7.62 17.77 14.51
12/11/2021 1:30:00 AM 3.55 38.39 0.165 7.55 21.71 14.5
12/11/2021 1:45:00 AM 3.56 38.408 0.165 7.63 21.11 14.5
12/11/2021 2:00:00 AM 3.57 38.426 0.165 7.6 19.08 14.49
12/11/2021 2:15:00 AM 3.57 38.426 0.165 7.6 19.68 14.49
12/11/2021 2:30:00 AM 3.58 38.444 0.165 7.59 20.05 14.47
12/11/2021 2:45:00 AM 3.59 38.462 0.165 7.62 14.09 14.47
12/11/2021 3:00:00 AM 3.59 38.462 0.165 7.61 24.15 14.47
12/11/2021 3:15:00 AM 3.6 38.48 0.166 7.58 18.94 14.45
12/11/2021 3:30:00 AM 3.61 38.498 0.166 7.6 12.85 14.42
12/11/2021 3:45:00 AM 3.61 38.498 0.164 7.53 18.5 14.41
12/11/2021 4:00:00 AM 3.8 38.84 0.173 7.61 16.62 14.37
12/11/2021 4:15:00 AM 3.74 38.732 0.174 7.56 25.74 14.33
12/11/2021 4:30:00 AM 3.67 38.606 0.168 7.57 23.16 14.33
12/11/2021 4:45:00 AM 3.62 38.516 0.166 7.58 10.9 14.34
12/11/2021 5:00:00 AM 3.62 38.516 0.165 7.57 17.32 14.33
12/11/2021 5:15:00 AM 3.62 38.516 0.166 7.56 16.07 14.31
12/11/2021 5:30:00 AM 3.62 38.516 0.145 7.4 19.42 14.3
12/11/2021 5:45:00 AM 3.63 38.534 0.16 7.56 19.66 14.29
12/11/2021 6:00:00 AM 3.63 38.534 0.165 7.55 14.52 14.27
12/11/2021 6:15:00 AM 3.65 38.57 0.166 7.56 19.42 14.25
12/11/2021 6:30:00 AM 3.65 38.57 0.077 7.54 22.49 14.22
12/11/2021 6:45:00 AM 3.65 38.57 0.165 7.54 21.02 14.21
12/11/2021 7:00:00 AM 3.66 38.588 0.165 7.55 10.09 14.2
12/11/2021 7:15:00 AM 3.66 38.588 0.165 7.54 6.66 14.18
12/11/2021 7:30:00 AM 3.67 38.606 0.166 7.52 19.57 14.13
12/11/2021 7:45:00 AM 3.68 38.624 0.166 7.53 13.47 14.12
12/11/2021 8:00:00 AM 3.68 38.624 0.166 7.53 11.78 14.1
12/11/2021 8:15:00 AM 3.69 38.642 0.163 7.51 15.9 14.09
12/11/2021 8:30:00 AM 3.69 38.642 0.166 7.51 21.21 14.06
12/11/2021 8:45:00 AM 3.7 38.66 0.166 7.53 17.82 14.05
12/11/2021 9:00:00 AM 3.7 38.66 0.166 7.51 21.62 14.04
12/11/2021 9:15:00 AM 3.71 38.678 0.166 7.49 20.74 14.03
12/11/2021 9:30:00 AM 3.72 38.696 0.166 7.49 17.32 14.01
12/11/2021 9:45:00 AM 3.73 38.714 0.166 7.5 18.89 14.03
12/11/2021 10:00:00 AM 3.74 38.732 0.152 7.46 21.24 14.01
12/11/2021 10:15:00 AM 3.75 38.75 0.166 7.5 20.01 14
12/11/2021 10:30:00 AM 3.76 38.768 0.167 7.49 20.53 14
12/11/2021 10:45:00 AM 3.77 38.786 0.167 7.5 15.74 14.02
12/11/2021 11:00:00 AM 3.78 38.804 0.167 7.53 32.94 14.01
12/11/2021 11:15:00 AM 3.79 38.822 0.167 7.5 20.35 14
12/11/2021 11:30:00 AM 3.8 38.84 0.167 7.48 21.84 14.02
12/11/2021 11:45:00 AM 3.81 38.858 0.165 7.51 0.96 14.03
12/11/2021 12:00:00 PM 3.83 38.894 0.167 7.49 17.76 14.04
12/11/2021 12:15:00 PM 3.84 38.912 0.164 7.5 18.32 14.04
12/11/2021 12:30:00 PM 3.86 38.948 0.168 7.53 7.66 14.05
12/11/2021 12:45:00 PM 3.88 38.984 0.168 7.53 21.66 14.04
12/11/2021 1:00:00 PM 3.9 39.02 0.168 7.53 21.68 14.04
12/11/2021 1:15:00 PM 3.91 39.038 0.168 7.53 11.5 14.03
12/11/2021 1:30:00 PM 3.93 39.074 0.168 7.53 18.07 14.05
12/11/2021 1:45:00 PM 3.96 39.128 0.168 7.51 20.81 14.04
12/11/2021 2:00:00 PM 3.97 39.146 0.168 7.52 16.62 14.04
12/11/2021 2:15:00 PM 3.99 39.182 0.168 7.52 20.12 14.03
12/11/2021 2:30:00 PM 4.01 39.218 0.167 7.52 20.35 14.03
12/11/2021 2:45:00 PM 4.03 39.254 0.161 7.51 1.19 14.04
12/11/2021 3:00:00 PM 4.06 39.308 0.168 7.55 20.19 14.05
12/11/2021 3:15:00 PM 4.07 39.326 0.168 7.53 17.73 14.05
12/11/2021 3:30:00 PM 4.08 39.344 0.066 7.53 17.08 14.08
12/11/2021 3:45:00 PM 4.1 39.38 0.169 7.54 16.93 14.06
12/11/2021 4:00:00 PM 4.12 39.416 0.17 7.54 19.88 14.07
12/11/2021 4:15:00 PM 4.16 39.488 0.17 7.57 8.34 14.07
12/11/2021 4:30:00 PM 4.19 39.542 0.17 7.57 4.42 14.09
12/11/2021 4:45:00 PM 4.22 39.596 0.169 7.55 11.88 14.1
12/11/2021 5:00:00 PM 4.25 39.65 0.172 7.58 24.08 14.1
12/11/2021 5:15:00 PM 4.27 39.686 0.172 7.59 18.89 14.09
12/11/2021 5:30:00 PM 4.28 39.704 0.173 7.57 18.27 14.07
12/11/2021 5:45:00 PM 4.28 39.704 0.173 7.58 7.54 14.06
12/11/2021 6:00:00 PM 4.44 39.992 0.177 7.59 13.98 14.05
12/11/2021 6:15:00 PM 4.29 39.722 0.176 7.54 16.33 13.94
12/11/2021 6:30:00 PM 4.31 39.758 0.173 7.54 21.61 13.96
12/11/2021 6:45:00 PM 4.31 39.758 0.173 7.54 21.83 13.95
12/11/2021 7:00:00 PM 4.32 39.776 0.173 7.54 14.26 13.95
12/11/2021 7:15:00 PM 4.33 39.794 0.173 7.54 20.25 13.94
12/11/2021 7:30:00 PM 4.36 39.848 0.166 7.54 15.74 13.92
12/11/2021 7:45:00 PM 4.4 39.92 0.174 7.54 14.25 13.91
12/11/2021 8:00:00 PM 4.41 39.938 0.173 7.48 21.74 13.9
12/11/2021 8:15:00 PM 4.42 39.956 0.172 7.53 19.44 13.89
12/11/2021 8:30:00 PM 4.45 40.01 0.174 7.54 15.7 13.88
12/11/2021 8:45:00 PM 4.44 39.992 0.174 7.52 18.27 13.84
12/11/2021 9:00:00 PM 4.46 40.028 0.173 7.54 2.58 13.85
12/11/2021 9:15:00 PM 4.46 40.028 0.172 7.55 10.36 13.83
12/11/2021 9:30:00 PM 4.45 40.01 0.173 7.52 18.21 13.82
12/11/2021 9:45:00 PM 4.44 39.992 0.173 7.54 16.69 13.82
12/11/2021 10:00:00 PM 4.43 39.974 0.173 7.52 19.75 13.8
12/11/2021 10:15:00 PM 4.42 39.956 0.171 7.47 14.88 13.78
12/11/2021 10:30:00 PM 4.42 39.956 0.173 7.53 10.43 13.77
12/11/2021 10:45:00 PM 4.43 39.974 0.173 7.51 21.87 13.75
12/11/2021 11:00:00 PM 4.43 39.974 0.173 7.52 21.55 13.76
12/11/2021 11:15:00 PM 4.43 39.974 0.173 7.51 38.23 13.75
12/11/2021 11:30:00 PM 4.44 39.992 0.173 7.52 15.09 13.73
12/11/2021 11:45:00 PM 4.42 39.956 0.173 7.53 7.37 13.74
12/12/2021 12:00:00 AM 4.42 39.956 0.173 7.5 19.64 13.73
12/12/2021 12:15:00 AM 4.4 39.92 0.167 7.52 21.62 13.73
12/12/2021 12:30:00 AM 4.4 39.92 0.174 7.51 21.04 13.74
12/12/2021 12:45:00 AM 4.38 39.884 0.174 7.53 18.79 13.74
12/12/2021 1:00:00 AM 4.37 39.866 0.174 7.5 21.56 13.73
12/12/2021 1:15:00 AM 4.36 39.848 0.174 7.52 17.69 13.73
12/12/2021 1:30:00 AM 4.35 39.83 0.168 7.5 16.82 13.74
12/12/2021 1:45:00 AM 4.33 39.794 0.175 7.52 22.2 13.75
12/12/2021 2:00:00 AM 4.32 39.776 0.175 7.51 20.86 13.75
12/12/2021 2:15:00 AM 4.31 39.758 0.175 7.5 22.42 13.73
12/12/2021 2:30:00 AM 4.3 39.74 0.053 7.51 12.62 13.74
12/12/2021 2:45:00 AM 4.29 39.722 0.176 7.53 16.9 13.73
12/12/2021 3:00:00 AM 4.28 39.704 0.176 7.53 4.92 13.73
12/12/2021 3:15:00 AM 4.27 39.686 0.173 7.52 19.93 13.72
12/12/2021 3:30:00 AM 4.28 39.704 0.177 7.51 21.69 13.71
12/12/2021 3:45:00 AM 4.27 39.686 0.175 7.52 18.04 13.7
12/12/2021 4:00:00 AM 4.42 39.956 0.179 7.52 21.43 13.76
12/12/2021 4:15:00 AM 4.39 39.902 0.18 7.52 20.33 13.8
12/12/2021 4:30:00 AM 4.29 39.722 0.176 7.38 16.7 13.7
12/12/2021 4:45:00 AM 4.23 39.614 0.177 7.51 15.82 13.67
12/12/2021 5:00:00 AM 4.22 39.596 0.171 7.5 22.62 13.66
12/12/2021 5:15:00 AM 4.21 39.578 0.177 7.5 17.01 13.66
12/12/2021 5:30:00 AM 4.2 39.56 0.177 7.51 24.4 13.64
12/12/2021 5:45:00 AM 4.18 39.524 0.177 7.5 22.84 13.64
12/12/2021 6:00:00 AM 4.17 39.506 0.175 7.49 24.27 13.63
12/12/2021 6:15:00 AM 4.16 39.488 0.176 7.49 22.72 13.62
12/12/2021 6:30:00 AM 4.15 39.47 0.176 7.48 36.84 13.62
12/12/2021 6:45:00 AM 4.14 39.452 0.176 7.49 21.08 13.61
12/12/2021 7:00:00 AM 4.13 39.434 0.176 7.48 22.75 13.6
12/12/2021 7:15:00 AM 4.13 39.434 0.175 7.45 20.72 13.59
12/12/2021 7:30:00 AM 4.12 39.416 0.174 7.48 17.15 13.58
12/12/2021 7:45:00 AM 4.12 39.416 0.158 7.37 20.59 13.57
12/12/2021 8:00:00 AM 4.13 39.434 0.173 7.5 22.68 13.56
12/12/2021 8:15:00 AM 4.13 39.434 0.174 7.47 17.93 13.55
12/12/2021 8:30:00 AM 4.13 39.434 0.175 7.49 21.27 13.55
12/12/2021 8:45:00 AM 4.13 39.434 0.174 7.47 20.14 13.55
12/12/2021 9:00:00 AM 4.12 39.416 0.174 7.5 10.73 13.56
12/12/2021 9:15:00 AM 4.12 39.416 0.174 7.49 22.8 13.58
12/12/2021 9:30:00 AM 4.12 39.416 0.139 7.48 13.5 13.6
12/12/2021 9:45:00 AM 4.12 39.416 0.173 7.49 16.35 13.63
12/12/2021 10:00:00 AM 4.12 39.416 0.173 7.52 11.56 13.65
12/12/2021 10:15:00 AM 4.13 39.434 0.173 7.51 12.53 13.68
12/12/2021 10:30:00 AM 4.14 39.452 0.173 7.52 7.27 13.72
12/12/2021 10:45:00 AM 4.16 39.488 0.168 7.52 3.29 13.74
12/12/2021 11:00:00 AM 4.17 39.506 0.172 7.51 20.13 13.8
12/12/2021 11:15:00 AM 4.2 39.56 0.172 7.51 14.62 13.82
12/12/2021 11:30:00 AM 4.23 39.614 0.172 7.54 22.2 13.85
12/12/2021 11:45:00 AM 4.26 39.668 0.172 7.56 6.36 13.88
12/12/2021 12:00:00 PM 4.29 39.722 0.171 7.56 22.24 13.91
12/12/2021 12:15:00 PM 4.33 39.794 0.17 7.58 22.01 13.95
12/12/2021 12:30:00 PM 4.37 39.866 0.17 7.58 19.22 14.01
12/12/2021 12:45:00 PM 4.4 39.92 0.17 7.59 18.45 14.05
12/12/2021 1:00:00 PM 4.44 39.992 0.169 7.6 21.13 14.07
12/12/2021 1:15:00 PM 4.47 40.046 0.169 7.6 22.56 14.1
12/12/2021 1:30:00 PM 4.5 40.1 0.169 7.62 20.12 14.13
12/12/2021 1:45:00 PM 4.53 40.154 0.07 7.63 18.94 14.17
12/12/2021 2:00:00 PM 4.57 40.226 0.164 7.64 18.51 14.23
12/12/2021 2:15:00 PM 4.59 40.262 0.166 7.64 9.88 14.24
12/12/2021 2:30:00 PM 4.62 40.316 0.167 7.67 10.86 14.27
12/12/2021 2:45:00 PM 4.64 40.352 0.167 7.68 17.93 14.31
12/12/2021 3:00:00 PM 4.65 40.37 0.166 7.7 21.99 14.32
12/12/2021 3:15:00 PM 4.67 40.406 0.166 7.73 19.8 14.38
12/12/2021 3:30:00 PM 4.68 40.424 0.166 7.7 21.7 14.38
12/12/2021 3:45:00 PM 4.68 40.424 0.165 7.73 20.55 14.42
12/12/2021 4:00:00 PM 4.68 40.424 0.119 7.73 18.7 14.43
12/12/2021 4:15:00 PM 4.67 40.406 0.165 7.75 19.29 14.43
12/12/2021 4:30:00 PM 4.66 40.388 0.164 7.75 20.1 14.44
12/12/2021 4:45:00 PM 4.64 40.352 0.164 7.73 22.39 14.4
12/12/2021 5:00:00 PM 4.62 40.316 0.163 7.75 19.3 14.42
12/12/2021 5:15:00 PM 4.6 40.28 0.163 7.73 17.14 14.41
12/12/2021 5:30:00 PM 4.58 40.244 0.162 7.73 17.78 14.38
12/12/2021 5:45:00 PM 4.55 40.19 0.162 7.73 21.84 14.34
12/12/2021 6:00:00 PM 4.52 40.136 0.162 7.71 21.78 14.34
12/12/2021 6:15:00 PM 4.49 40.082 0.16 7.72 5.21 14.32
12/12/2021 6:30:00 PM 4.45 40.01 0.16 7.7 17.24 14.34
12/12/2021 6:45:00 PM 4.43 39.974 0.16 7.7 16.97 14.31
12/12/2021 7:00:00 PM 4.38 39.884 0.16 7.69 15.11 14.32
12/12/2021 7:15:00 PM 4.36 39.848 0.159 7.71 21.87 14.31
12/12/2021 7:30:00 PM 4.32 39.776 0.159 7.69 21.8 14.3
12/12/2021 7:45:00 PM 4.29 39.722 0.158 7.68 21.72 14.28
12/12/2021 8:00:00 PM 4.27 39.686 0.079 7.66 21.47 14.28
12/12/2021 8:15:00 PM 4.61 40.298 0.167 7.59 12.88 14.11
12/12/2021 8:30:00 PM 4.53 40.154 0.16 7.53 4.88 14.03
12/12/2021 8:45:00 PM 4.29 39.722 0.157 7.6 24.38 14.19
12/12/2021 9:00:00 PM 4.19 39.542 0.157 7.62 17.45 14.23
12/12/2021 9:15:00 PM 4.16 39.488 0.155 7.63 16.04 14.24
12/12/2021 9:30:00 PM 4.12 39.416 0.154 7.63 22.22 14.25
12/12/2021 9:45:00 PM 4.1 39.38 0.154 7.63 16.62 14.23
12/12/2021 10:00:00 PM 4.1 39.38 0.107 7.62 23.74 14.22
12/12/2021 10:15:00 PM 4.08 39.344 0.154 7.56 17.32 14.2
12/12/2021 10:30:00 PM 4.08 39.344 0.153 7.62 20.85 14.18
12/12/2021 10:45:00 PM 4.09 39.362 0.153 7.59 22.34 14.18
12/12/2021 11:00:00 PM 4.09 39.362 0.152 7.61 22.66 14.18
12/12/2021 11:15:00 PM 4.1 39.38 0.153 7.61 21.46 14.17
12/12/2021 11:30:00 PM 4.11 39.398 0.153 7.6 18.93 14.14
12/12/2021 11:45:00 PM 4.12 39.416 0.152 7.62 22.14 14.15
12/13/2021 12:00:00 AM 4.12 39.416 0.142 7.61 23.78 14.15
12/13/2021 12:15:00 AM 4.13 39.434 0.152 7.61 21.73 14.13
12/13/2021 12:30:00 AM 4.13 39.434 0.152 7.6 14.94 14.13
12/13/2021 12:45:00 AM 4.12 39.416 0.152 7.6 19.25 14.12
12/13/2021 1:00:00 AM 4.13 39.434 0.151 7.58 22.58 14.11
12/13/2021 1:15:00 AM 4.12 39.416 0.152 7.6 15.92 14.08
12/13/2021 1:30:00 AM 4.12 39.416 0.151 7.59 15.29 14.06
12/13/2021 1:45:00 AM 4.12 39.416 0.153 7.6 11.94 14.04
12/13/2021 2:00:00 AM 4.11 39.398 0.153 7.59 21.92 14.01
12/13/2021 2:15:00 AM 4.11 39.398 0.153 7.59 13.6 13.99
12/13/2021 2:30:00 AM 4.1 39.38 0.153 7.57 22.14 13.97
12/13/2021 2:45:00 AM 4.09 39.362 0.153 7.55 18.65 13.95
12/13/2021 3:00:00 AM 4.08 39.344 0.152 7.53 19.02 13.94
12/13/2021 3:15:00 AM 4.07 39.326 0.069 7.56 19.93 13.91
12/13/2021 3:30:00 AM 4.06 39.308 0.153 7.54 18.52 13.9
12/13/2021 3:45:00 AM 4.05 39.29 0.139 7.54 22.09 13.87
12/13/2021 4:00:00 AM 4.06 39.308 0.153 7.53 17.58 13.84
12/13/2021 4:15:00 AM 4.27 39.686 0.155 7.53 19.97 13.97
12/13/2021 4:30:00 AM 4.24 39.632 0.166 7.5 17.03 13.98
12/13/2021 4:45:00 AM 4.06 39.308 0.15 7.35 22.72 13.8
12/13/2021 5:00:00 AM 4.03 39.254 0.152 7.5 9.88 13.77
12/13/2021 5:15:00 AM 4.02 39.236 0.148 7.5 14.84 13.77
12/13/2021 5:30:00 AM 4.02 39.236 0.141 7.49 21.39 13.73
12/13/2021 5:45:00 AM 4.01 39.218 0.153 7.5 11.04 13.73
12/13/2021 6:00:00 AM 4.01 39.218 0.153 7.5 10.23 13.69
12/13/2021 6:15:00 AM 4 39.2 0.152 7.48 18.66 13.69
12/13/2021 6:30:00 AM 4 39.2 0.153 7.47 15.57 13.68
12/13/2021 6:45:00 AM 3.99 39.182 0.153 7.46 22.59 13.66
12/13/2021 7:00:00 AM 3.98 39.164 0.148 7.46 19.46 13.66
12/13/2021 7:15:00 AM 3.97 39.146 0.148 7.48 22.5 13.65
12/13/2021 7:30:00 AM 3.96 39.128 0.154 7.48 22.18 13.63
12/13/2021 7:45:00 AM 3.95 39.11 0.153 7.47 12.67 13.63
12/13/2021 8:00:00 AM 3.94 39.092 0.153 7.45 15.22 13.61
12/13/2021 8:15:00 AM 3.93 39.074 0.153 7.47 22.16 13.61
12/13/2021 8:30:00 AM 3.93 39.074 0.151 7.46 19.12 13.62
12/13/2021 8:45:00 AM 3.93 39.074 0.154 7.46 12.35 13.62
12/13/2021 9:00:00 AM 3.92 39.056 0.154 7.47 16.48 13.6
12/13/2021 9:15:00 AM 3.92 39.056 0.154 7.45 21.41 13.63
12/13/2021 9:30:00 AM 3.92 39.056 0.153 7.46 19.9 13.64
12/13/2021 9:45:00 AM 3.93 39.074 0.153 7.47 18.63 13.64
12/13/2021 10:00:00 AM 3.94 39.092 0.068 7.45 23.85 13.68
12/13/2021 10:15:00 AM 3.95 39.11 0.045 7.46 19.67 13.69
12/13/2021 10:30:00 AM 4.14 39.452 0.16 7.48 13.66 13.81
12/13/2021 10:45:00 AM 4.14 39.452 0.085 7.48 19.11 13.84
12/13/2021 11:00:00 AM 4.05 39.29 0.153 7.48 20.76 13.79
12/13/2021 11:15:00 AM 4.04 39.272 0.15 7.48 21 13.79
12/13/2021 11:30:00 AM 4.07 39.326 0.15 7.49 19.34 13.8
12/13/2021 11:45:00 AM 4.1 39.38 0.062 7.49 21.45 13.85
12/13/2021 12:00:00 PM 4.14 39.452 0.15 7.49 20.45 13.88
12/13/2021 12:15:00 PM 4.17 39.506 0.147 7.52 11.71 13.91
12/13/2021 12:30:00 PM 4.21 39.578 0.149 7.53 10.46 13.92
12/13/2021 12:45:00 PM 4.25 39.65 0.148 7.54 23.61 13.95
12/13/2021 1:00:00 PM 4.29 39.722 0.148 7.55 9.46 13.98
12/13/2021 1:15:00 PM 4.31 39.758 0.156 7.53 21.59 13.94
12/13/2021 1:30:00 PM 4.37 39.866 0.147 7.55 9.55 14.02
12/13/2021 1:45:00 PM 4.41 39.938 0.147 7.57 12.83 14.04
12/13/2021 2:00:00 PM 4.44 39.992 0.147 7.58 21.86 14.07
12/13/2021 2:15:00 PM 4.48 40.064 0.146 7.59 18.91 14.09
12/13/2021 2:30:00 PM 4.51 40.118 0.146 7.58 20.05 14.1
12/13/2021 2:45:00 PM 4.54 40.172 0.144 7.58 17.65 14.12
12/13/2021 3:00:00 PM 4.56 40.208 0.135 7.6 20.49 14.16
12/13/2021 3:15:00 PM 4.58 40.244 0.146 7.58 22.17 14.15
12/13/2021 3:30:00 PM 4.6 40.28 0.136 7.6 21.86 14.16
12/13/2021 3:45:00 PM 4.61 40.298 0.147 7.63 17.31 14.16
12/13/2021 4:00:00 PM 4.61 40.298 0.146 7.62 17.74 14.17
12/13/2021 4:15:00 PM 4.61 40.298 0.146 7.59 19.86 14.15
12/13/2021 4:30:00 PM 4.61 40.298 0.144 7.5 16.93 14.16
12/13/2021 4:45:00 PM 4.6 40.28 0.146 7.6 21.42 14.14
12/13/2021 5:00:00 PM 4.59 40.262 0.144 7.6 18.4 14.17
12/13/2021 5:15:00 PM 4.58 40.244 0.145 7.63 19.61 14.15
12/13/2021 5:30:00 PM 4.58 40.244 0.05 7.6 20.96 14.16
12/13/2021 5:45:00 PM 4.56 40.208 0.145 7.61 15.09 14.16
12/13/2021 6:00:00 PM 4.55 40.19 0.145 7.6 19.97 14.13
12/13/2021 6:15:00 PM 4.53 40.154 0.145 7.61 21.87 14.13
12/13/2021 6:30:00 PM 4.53 40.154 0.128 7.6 8.61 14.12
12/13/2021 6:45:00 PM 4.51 40.118 0.145 7.61 16.8 14.11
12/13/2021 7:00:00 PM 4.5 40.1 0.057 7.59 20.25 14.1
12/13/2021 7:15:00 PM 4.48 40.064 0.145 7.6 17.65 14.09
12/13/2021 7:30:00 PM 4.47 40.046 0.144 7.59 15.17 14.07
12/13/2021 7:45:00 PM 4.46 40.028 0.14 7.56 14.85 14.06
12/13/2021 8:00:00 PM 4.47 40.046 0.146 7.57 17.65 14.06
12/13/2021 8:15:00 PM 4.45 40.01 0.142 7.56 18.09 14.03
12/13/2021 8:30:00 PM 4.44 39.992 0.144 7.57 8.53 14.03
12/13/2021 8:45:00 PM 4.44 39.992 0.144 7.55 23.64 14.01
12/13/2021 9:00:00 PM 4.43 39.974 0.139 7.54 20.29 14
12/13/2021 9:15:00 PM 4.43 39.974 0.145 7.54 16.57 13.98
12/13/2021 9:30:00 PM 4.43 39.974 0.14 7.42 18.31 13.97
12/13/2021 9:45:00 PM 4.44 39.992 0.144 7.49 22.19 13.95
12/13/2021 10:00:00 PM 4.45 40.01 0.142 7.53 6.37 13.93
12/13/2021 10:15:00 PM 4.45 40.01 0.142 7.5 18.13 13.92
12/13/2021 10:30:00 PM 4.46 40.028 0.143 7.53 24.11 13.91
12/13/2021 10:45:00 PM 4.46 40.028 0.143 7.53 5.21 13.9
12/13/2021 11:00:00 PM 4.47 40.046 0.14 7.51 22.15 13.89
12/13/2021 11:15:00 PM 4.48 40.064 0.143 7.52 17.56 13.88
12/13/2021 11:30:00 PM 4.48 40.064 0.143 7.51 22.74 13.86
12/13/2021 11:45:00 PM 4.48 40.064 0.114 7.49 22.61 13.86
12/14/2021 12:00:00 AM 4.48 40.064 0.141 7.44 22.8 13.84
12/14/2021 12:15:00 AM 4.48 40.064 0.139 7.48 21.42 13.82
12/14/2021 12:30:00 AM 4.47 40.046 0.138 7.48 19.29 13.81
12/14/2021 12:45:00 AM 4.46 40.028 0.143 7.48 19.21 13.8
12/14/2021 1:00:00 AM 4.46 40.028 0.143 7.47 17.64 13.76
12/14/2021 1:15:00 AM 4.45 40.01 0.143 7.48 19.15 13.77
12/14/2021 1:30:00 AM 4.45 40.01 0.142 7.46 23.7 13.74
12/14/2021 1:45:00 AM 4.44 39.992 0.143 7.46 19.77 13.72
12/14/2021 2:00:00 AM 4.43 39.974 0.144 7.45 17.41 13.7
12/14/2021 2:15:00 AM 4.41 39.938 0.143 7.47 18.71 13.71
12/14/2021 2:30:00 AM 4.4 39.92 0.135 7.43 23.24 13.69
12/14/2021 2:45:00 AM 4.39 39.902 0.142 7.45 22.36 13.68
12/14/2021 3:00:00 AM 4.38 39.884 0.142 7.43 20.54 13.68
12/14/2021 3:15:00 AM 4.38 39.884 0.139 7.43 24.76 13.66
12/14/2021 3:30:00 AM 4.36 39.848 0.142 7.44 23.38 13.65
12/14/2021 3:45:00 AM 4.35 39.83 0.135 7.43 22.75 13.65
12/14/2021 4:00:00 AM 4.34 39.812 0.14 7.43 20.08 13.63
12/14/2021 4:15:00 AM 4.33 39.794 0.141 7.42 23.98 13.63
12/14/2021 4:30:00 AM 4.52 40.136 0.158 7.46 20.24 13.82
12/14/2021 4:45:00 AM 4.46 40.028 0.061 7.42 15.85 13.87
12/14/2021 5:00:00 AM 4.31 39.758 0.139 7.42 20.98 13.62
12/14/2021 5:15:00 AM 4.29 39.722 0.14 7.41 14.15 13.59
12/14/2021 5:30:00 AM 4.27 39.686 0.137 7.38 20.09 13.59
12/14/2021 5:45:00 AM 4.26 39.668 0.138 7.4 11.14 13.58
12/14/2021 6:00:00 AM 4.25 39.65 0.137 7.4 19.11 13.57
12/14/2021 6:15:00 AM 4.24 39.632 0.14 7.39 19.94 13.56
12/14/2021 6:30:00 AM 4.23 39.614 0.138 7.4 22.77 13.56
12/14/2021 6:45:00 AM 4.22 39.596 0.139 7.39 24.07 13.55
12/14/2021 7:00:00 AM 4.21 39.578 0.139 7.36 0.22 13.55
12/14/2021 7:15:00 AM 4.2 39.56 0.139 7.38 19.48 13.54
12/14/2021 7:30:00 AM 4.19 39.542 0.122 7.38 22.93 13.54
12/14/2021 7:45:00 AM 4.18 39.524 0.139 7.36 19.39 13.53
12/14/2021 8:00:00 AM 4.16 39.488 0.139 7.37 22.89 13.53
12/14/2021 8:15:00 AM 4.15 39.47 0.139 7.37 23.55 13.54
12/14/2021 8:30:00 AM 4.14 39.452 0.072 7.35 18.38 13.54
12/14/2021 8:45:00 AM 4.13 39.434 0.135 7.36 12.83 13.54
12/14/2021 9:00:00 AM 4.12 39.416 0.138 7.36 18.72 13.57
12/14/2021 9:15:00 AM 4.12 39.416 0.136 7.37 11.92 13.56
12/14/2021 9:30:00 AM 4.12 39.416 0.139 7.36 16.24 13.58
12/14/2021 9:45:00 AM 4.25 39.65 0.145 7.3 17.81 13.74
12/14/2021 10:00:00 AM 4.13 39.434 0.139 7.39 20.12 13.61
12/14/2021 10:15:00 AM 4.12 39.416 0.137 7.37 21.77 13.61
12/14/2021 10:30:00 AM 4.38 39.884 0.153 7.43 21.21 13.85
12/14/2021 10:45:00 AM 4.3 39.74 0.147 7.39 16.91 13.75
12/14/2021 11:00:00 AM 4.19 39.542 0.14 7.37 19.65 13.67
12/14/2021 11:15:00 AM 4.2 39.56 0.135 7.37 17.4 13.69
12/14/2021 11:30:00 AM 4.22 39.596 0.134 7.36 24.02 13.7
12/14/2021 11:45:00 AM 4.26 39.668 0.14 7.4 21.27 13.73
12/14/2021 12:00:00 PM 4.29 39.722 0.14 7.39 20.96 13.76
12/14/2021 12:15:00 PM 4.31 39.758 0.141 7.38 15.84 13.77
12/14/2021 12:30:00 PM 4.34 39.812 0.14 7.39 23.39 13.79
12/14/2021 12:45:00 PM 4.37 39.866 0.142 7.38 19.23 13.78
12/14/2021 1:00:00 PM 4.41 39.938 0.141 7.41 21.63 13.83
12/14/2021 1:15:00 PM 4.44 39.992 0.141 7.42 25.27 13.85
12/14/2021 1:30:00 PM 4.47 40.046 0.141 7.43 4.1 13.88
12/14/2021 1:45:00 PM 4.5 40.1 0.142 7.44 19.77 13.89
12/14/2021 2:00:00 PM 4.52 40.136 0.141 7.42 22.87 13.91
12/14/2021 2:15:00 PM 4.55 40.19 0.142 7.42 21.18 13.94
12/14/2021 2:30:00 PM 4.57 40.226 0.142 7.43 18.99 13.93
12/14/2021 2:45:00 PM 4.59 40.262 0.142 7.45 24.04 13.96
12/14/2021 3:00:00 PM 4.6 40.28 0.143 7.45 11.49 13.96
12/14/2021 3:15:00 PM 4.61 40.298 0.143 7.44 24.41 13.96
12/14/2021 3:30:00 PM 4.61 40.298 0.143 7.44 20.95 13.98
12/14/2021 3:45:00 PM 4.61 40.298 0.143 7.46 22.04 13.97
12/14/2021 4:00:00 PM 4.6 40.28 0.142 7.44 26.24 13.98
12/14/2021 4:15:00 PM 4.59 40.262 0.143 7.45 23.3 13.98
12/14/2021 4:30:00 PM 4.58 40.244 0.143 7.29 19.1 13.98
12/14/2021 4:45:00 PM 4.56 40.208 0.144 7.43 21.91 13.98
12/14/2021 5:00:00 PM 4.55 40.19 0.131 7.44 23.02 13.97
12/14/2021 5:15:00 PM 4.53 40.154 0.143 7.45 21.14 13.96
12/14/2021 5:30:00 PM 4.51 40.118 0.144 7.44 18.48 13.97
12/14/2021 5:45:00 PM 4.49 40.082 0.144 7.42 21.66 13.96
12/14/2021 6:00:00 PM 4.48 40.064 0.11 7.43 23.3 13.96
12/14/2021 6:15:00 PM 4.46 40.028 0.135 7.43 23.35 13.95
12/14/2021 6:30:00 PM 4.44 39.992 0.144 7.41 17.98 13.95
12/14/2021 6:45:00 PM 4.43 39.974 0.145 7.43 21.46 13.94
12/14/2021 7:00:00 PM 4.41 39.938 0.145 7.42 19.81 13.94
12/14/2021 7:15:00 PM 4.39 39.902 0.145 7.43 23.61 13.94
12/14/2021 7:30:00 PM 4.37 39.866 0.145 7.42 20.56 13.93
12/14/2021 7:45:00 PM 4.35 39.83 0.146 7.41 21.51 13.94
12/14/2021 8:00:00 PM 4.33 39.794 0.146 7.41 21.17 13.92
12/14/2021 8:15:00 PM 4.58 40.244 0.152 7.42 17.83 13.91
12/14/2021 8:30:00 PM 4.5 40.1 0.152 7.38 20.75 13.86
12/14/2021 8:45:00 PM 4.32 39.776 0.147 7.41 22.8 13.91
12/14/2021 9:00:00 PM 4.29 39.722 0.147 7.4 27.3 13.9
12/14/2021 9:15:00 PM 4.28 39.704 0.055 7.4 23.98 13.91
12/14/2021 9:30:00 PM 4.28 39.704 0.147 7.4 23.66 13.91
12/14/2021 9:45:00 PM 4.28 39.704 0.114 7.41 22.05 13.91
12/14/2021 10:00:00 PM 4.28 39.704 0.147 7.35 19.7 13.91
12/14/2021 10:15:00 PM 4.28 39.704 0.142 7.39 20.84 13.91
12/14/2021 10:30:00 PM 4.28 39.704 0.147 7.36 18.94 13.9
12/14/2021 10:45:00 PM 4.29 39.722 0.147 7.4 20.1 13.9
12/14/2021 11:00:00 PM 4.29 39.722 0.103 7.39 20.64 13.91
12/14/2021 11:15:00 PM 4.29 39.722 0.148 7.42 22.27 13.9
12/14/2021 11:30:00 PM 4.3 39.74 0.146 7.39 10.92 13.9
12/14/2021 11:45:00 PM 4.29 39.722 0.147 7.39 18.54 13.9
12/15/2021 12:00:00 AM 4.29 39.722 0.054 7.39 20.19 13.9
12/15/2021 12:15:00 AM 4.29 39.722 0.066 7.4 22.17 13.89
12/15/2021 12:30:00 AM 4.3 39.74 0.143 7.4 19.57 13.9
12/15/2021 12:45:00 AM 4.47 40.046 0.155 7.39 18.82 13.95
12/15/2021 1:00:00 AM 4.36 39.848 0.151 7.37 17.4 13.91
12/15/2021 1:15:00 AM 4.23 39.614 0.147 7.38 20.83 13.88
12/15/2021 1:30:00 AM 4.21 39.578 0.147 7.38 20.62 13.88
12/15/2021 1:45:00 AM 4.2 39.56 0.147 7.38 22.48 13.87
12/15/2021 2:00:00 AM 4.18 39.524 0.147 7.26 19.53 13.86
12/15/2021 2:15:00 AM 4.16 39.488 0.145 7.26 16.98 13.86
12/15/2021 2:30:00 AM 4.15 39.47 0.145 7.37 22.67 13.85
12/15/2021 2:45:00 AM 4.13 39.434 0.147 7.38 24.9 13.85
12/15/2021 3:00:00 AM 4.11 39.398 0.147 7.38 22.98 13.83
12/15/2021 3:15:00 AM 4.1 39.38 0.147 7.35 21.4 13.84
12/15/2021 3:30:00 AM 4.09 39.362 0.147 7.38 21.94 13.82
12/15/2021 3:45:00 AM 4.07 39.326 0.064 7.36 19.4 13.81
12/15/2021 4:00:00 AM 4.05 39.29 0.146 7.34 21.96 13.81
12/15/2021 4:15:00 AM 4.03 39.254 0.147 7.37 22.57 13.79
12/15/2021 4:30:00 AM 4.02 39.236 0.147 7.36 20.71 13.78
12/15/2021 4:45:00 AM 4 39.2 0.064 7.36 19.17 13.8
12/15/2021 5:00:00 AM 3.98 39.164 0.146 7.36 21 13.77
12/15/2021 5:15:00 AM 3.97 39.146 0.143 7.37 21.61 13.77
12/15/2021 5:30:00 AM 3.95 39.11 0.146 7.36 22.97 13.77
12/15/2021 5:45:00 AM 3.94 39.092 0.146 7.37 20.21 13.76
12/15/2021 6:00:00 AM 3.93 39.074 0.117 7.35 23.03 13.76
12/15/2021 6:15:00 AM 3.92 39.056 0.147 7.35 22.18 13.75
12/15/2021 6:30:00 AM 3.91 39.038 0.144 7.35 23.51 13.75
12/15/2021 6:45:00 AM 3.89 39.002 0.059 7.35 17.81 13.74
12/15/2021 7:00:00 AM 3.88 38.984 0.146 7.34 20.18 13.73
12/15/2021 7:15:00 AM 3.86 38.948 0.144 7.34 19.97 13.74
12/15/2021 7:30:00 AM 3.85 38.93 0.145 7.36 22.06 13.74
12/15/2021 7:45:00 AM 3.84 38.912 0.145 7.37 14.75 13.75
12/15/2021 8:00:00 AM 3.82 38.876 0.078 7.33 20.25 13.74
12/15/2021 8:15:00 AM 3.81 38.858 0.145 7.35 19.91 13.74
12/15/2021 8:30:00 AM 3.8 38.84 0.144 7.28 22.42 13.74
12/15/2021 8:45:00 AM 3.8 38.84 0.139 7.33 20.43 13.75
12/15/2021 9:00:00 AM 3.8 38.84 0.144 7.36 20.37 13.75
12/15/2021 9:15:00 AM 3.79 38.822 0.139 7.35 21.09 13.78
12/15/2021 9:30:00 AM 3.79 38.822 0.096 7.34 19.76 13.76
12/15/2021 9:45:00 AM 3.79 38.822 0.143 7.36 21.18 13.78
12/15/2021 10:00:00 AM 3.79 38.822 0.143 7.33 21.94 13.79
12/15/2021 10:15:00 AM 3.81 38.858 0.143 7.38 20.21 13.77
12/15/2021 10:30:00 AM 3.81 38.858 0.142 7.35 20.68 13.81
12/15/2021 10:45:00 AM 3.82 38.876 0.143 7.31 19.11 13.82
12/15/2021 11:00:00 AM 3.83 38.894 0.142 7.36 18.29 13.83
12/15/2021 11:15:00 AM 3.84 38.912 0.142 7.36 19.73 13.85
12/15/2021 11:30:00 AM 3.86 38.948 0.142 7.35 20.82 13.88
12/15/2021 11:45:00 AM 3.87 38.966 0.143 7.35 20.3 13.88
12/15/2021 12:00:00 PM 3.87 38.966 0.142 7.37 19.48 13.91
12/15/2021 12:15:00 PM 3.88 38.984 0.142 7.36 20.18 13.91
12/15/2021 12:30:00 PM 3.88 38.984 0.141 7.38 20.12 13.93
12/15/2021 12:45:00 PM 3.88 38.984 0.141 7.38 21.68 13.96
12/15/2021 1:00:00 PM 3.88 38.984 0.141 7.38 18.95 13.98
12/15/2021 1:15:00 PM 3.89 39.002 0.141 7.37 21.89 13.98
12/15/2021 1:30:00 PM 3.89 39.002 0.142 7.37 19.65 13.98
12/15/2021 1:45:00 PM 3.89 39.002 0.14 7.39 19.23 14.04
12/15/2021 2:00:00 PM 3.9 39.02 0.14 7.42 17.61 14.06
12/15/2021 2:15:00 PM 3.9 39.02 0.128 7.39 20.63 14.09
12/15/2021 2:30:00 PM 3.91 39.038 0.14 7.42 18.91 14.09
12/15/2021 2:45:00 PM 3.91 39.038 0.14 7.43 20.9 14.07
12/15/2021 3:00:00 PM 3.91 39.038 0.123 7.38 20.96 14.1
12/15/2021 3:15:00 PM 3.91 39.038 0.14 7.41 19.38 14.1
12/15/2021 3:30:00 PM 3.91 39.038 0.139 7.34 21.01 14.1
12/15/2021 3:45:00 PM 3.91 39.038 0.139 7.41 21.12 14.11
12/15/2021 4:00:00 PM 3.91 39.038 0.139 7.41 19.63 14.11
12/15/2021 4:15:00 PM 3.91 39.038 0.139 7.44 19.47 14.11
12/15/2021 4:30:00 PM 3.9 39.02 0.139 7.42 20.79 14.12
12/15/2021 4:45:00 PM 3.9 39.02 0.14 7.42 20.63 14.13
12/15/2021 5:00:00 PM 3.89 39.002 0.138 7.41 20.35 14.12
12/15/2021 5:15:00 PM 3.88 38.984 0.138 7.41 20.23 14.13
12/15/2021 5:30:00 PM 3.88 38.984 0.138 7.41 19.58 14.12
12/15/2021 5:45:00 PM 3.87 38.966 0.139 7.43 20.14 14.12
12/15/2021 6:00:00 PM 3.88 38.984 0.138 7.41 21.19 14.11
12/15/2021 6:15:00 PM 3.85 38.93 0.137 7.43 21.82 14.15
12/15/2021 6:30:00 PM 3.85 38.93 0.137 7.41 19.49 14.15
12/15/2021 6:45:00 PM 3.85 38.93 0.137 7.42 22.21 14.15
12/15/2021 7:00:00 PM 3.85 38.93 0.119 7.41 17.72 14.17
12/15/2021 7:15:00 PM 3.85 38.93 0.136 7.43 22.07 14.16
12/15/2021 7:30:00 PM 3.95 39.11 0.129 7.41 21.16 14.15
12/15/2021 7:45:00 PM 4.11 39.398 0.148 7.41 17.13 14.09
12/15/2021 8:00:00 PM 3.94 39.092 0.138 7.38 21.06 14.09
12/15/2021 8:15:00 PM 3.88 38.984 0.135 7.4 21.31 14.12
12/15/2021 8:30:00 PM 3.88 38.984 0.136 7.4 21.89 14.13
12/15/2021 8:45:00 PM 3.88 38.984 0.135 7.42 20.84 14.13
12/15/2021 9:00:00 PM 3.89 39.002 0.136 7.42 20.04 14.15
12/15/2021 9:15:00 PM 3.89 39.002 0.134 7.4 23.23 14.15
12/15/2021 9:30:00 PM 3.89 39.002 0.135 7.35 19.95 14.13
12/15/2021 9:45:00 PM 3.9 39.02 0.134 7.42 18.79 14.13
12/15/2021 10:00:00 PM 3.9 39.02 0.134 7.42 27.78 14.15
12/15/2021 10:15:00 PM 3.91 39.038 0.135 7.42 20.44 14.14
12/15/2021 10:30:00 PM 3.92 39.056 0.135 7.41 21.93 14.13
12/15/2021 10:45:00 PM 3.93 39.074 0.049 7.41 19.42 14.13
12/15/2021 11:00:00 PM 3.93 39.074 0.135 7.42 18.47 14.13
12/15/2021 11:15:00 PM 3.94 39.092 0.135 7.36 20.15 14.13
12/15/2021 11:30:00 PM 3.94 39.092 0.133 7.41 21.89 14.12
12/15/2021 11:45:00 PM 3.95 39.11 0.135 7.42 21.64 14.13
12/16/2021 12:00:00 AM 3.95 39.11 0.135 7.42 19.49 14.11
12/16/2021 12:15:00 AM 3.96 39.128 0.135 7.41 19.68 14.12
12/16/2021 12:30:00 AM 3.97 39.146 0.135 7.41 21.62 14.11
12/16/2021 12:45:00 AM 3.98 39.164 0.135 7.42 20.47 14.09
12/16/2021 1:00:00 AM 3.98 39.164 0.041 7.38 18.64 14.08
12/16/2021 1:15:00 AM 3.99 39.182 0.134 7.44 18.51 14.07
12/16/2021 1:30:00 AM 4 39.2 0.134 7.4 21.99 14.06
12/16/2021 1:45:00 AM 4.18 39.524 0.143 7.4 18.35 14.07
12/16/2021 2:00:00 AM 4.16 39.488 0.146 7.33 17.21 14.03
12/16/2021 2:15:00 AM 4.05 39.29 0.135 7.36 21.48 14.03
12/16/2021 2:30:00 AM 4.03 39.254 0.134 7.38 21.73 14.03
12/16/2021 2:45:00 AM 4.04 39.272 0.134 7.4 18.82 14.02
12/16/2021 3:00:00 AM 4.04 39.272 0.134 7.38 21.26 14.01
12/16/2021 3:15:00 AM 4.04 39.272 0.134 7.4 21.34 14.01
12/16/2021 3:30:00 AM 4.04 39.272 0.134 7.37 20.52 13.98
12/16/2021 3:45:00 AM 4.04 39.272 0.133 7.38 19.09 13.97
12/16/2021 4:00:00 AM 4.04 39.272 0.132 7.39 20.09 13.97
12/16/2021 4:15:00 AM 4.04 39.272 0.134 7.38 19.31 13.94
12/16/2021 4:30:00 AM 4.04 39.272 0.134 7.37 21.17 13.95
12/16/2021 4:45:00 AM 4.03 39.254 0.134 7.39 21.41 13.94
12/16/2021 5:00:00 AM 4.03 39.254 0.134 7.35 21.03 13.91
12/16/2021 5:15:00 AM 4.03 39.254 0.133 7.3 20.32 13.92
12/16/2021 5:30:00 AM 4.03 39.254 0.134 7.4 19.1 13.91
12/16/2021 5:45:00 AM 4.03 39.254 0.134 7.39 21.75 13.88
12/16/2021 6:00:00 AM 4.03 39.254 0.132 7.36 18.2 13.89
12/16/2021 6:15:00 AM 4.03 39.254 0.074 7.37 20.25 13.9
12/16/2021 6:30:00 AM 4.03 39.254 0.039 7.33 18.9 13.88
12/16/2021 6:45:00 AM 4.03 39.254 0.133 7.35 19.49 13.88
12/16/2021 7:00:00 AM 4.02 39.236 0.073 7.36 19.29 13.87
12/16/2021 7:15:00 AM 4.02 39.236 0.132 7.34 19.36 13.86
12/16/2021 7:30:00 AM 4.02 39.236 0.133 7.36 19.91 13.86
12/16/2021 7:45:00 AM 4.02 39.236 0.133 7.34 1.68 13.84
12/16/2021 8:00:00 AM 4.03 39.254 0.133 7.33 19.54 13.84
12/16/2021 8:15:00 AM 4.03 39.254 0.133 7.35 19.41 13.83
12/16/2021 8:30:00 AM 4.03 39.254 0.133 7.34 20.98 13.82
12/16/2021 8:45:00 AM 4.03 39.254 0.133 7.33 18.65 13.83
12/16/2021 9:00:00 AM 4.04 39.272 0.133 7.36 19.84 13.82
12/16/2021 9:15:00 AM 4.04 39.272 0.133 7.36 16.7 13.83
12/16/2021 9:30:00 AM 4.05 39.29 0.133 7.34 19.66 13.86
12/16/2021 9:45:00 AM 4.06 39.308 0.059 7.35 21.16 13.88
12/16/2021 10:00:00 AM 4.07 39.326 0.133 7.37 19.87 13.88
12/16/2021 10:15:00 AM 4.08 39.344 0.133 7.38 19.64 13.9
12/16/2021 10:30:00 AM 4.09 39.362 0.133 7.36 20.78 13.92
12/16/2021 10:45:00 AM 4.11 39.398 0.047 7.36 19.93 13.94
12/16/2021 11:00:00 AM 4.14 39.452 0.133 7.38 17.78 13.95
12/16/2021 11:15:00 AM 4.17 39.506 0.133 7.38 20.85 13.96
12/16/2021 11:30:00 AM 4.2 39.56 0.133 7.39 20.81 13.99
12/16/2021 11:45:00 AM 4.23 39.614 0.133 7.42 19.8 14.02
12/16/2021 12:00:00 PM 4.27 39.686 0.133 7.42 19.45 14.04
12/16/2021 12:15:00 PM 4.47 40.046 0.145 7.39 19.17 13.91
12/16/2021 12:30:00 PM 4.41 39.938 0.139 7.36 18.6 13.93
12/16/2021 12:45:00 PM 4.39 39.902 0.133 7.39 18.04 14.1
12/16/2021 1:00:00 PM 4.43 39.974 0.133 7.43 19.37 14.15
12/16/2021 1:15:00 PM 4.47 40.046 0.132 7.44 19.29 14.18
12/16/2021 1:30:00 PM 4.51 40.118 0.132 7.45 20.63 14.21
12/16/2021 1:45:00 PM 4.55 40.19 0.132 7.47 20.78 14.23
12/16/2021 2:00:00 PM 4.58 40.244 0.133 7.45 18.52 14.28
12/16/2021 2:15:00 PM 4.62 40.316 0.132 7.46 17.66 14.28
12/16/2021 2:30:00 PM 4.65 40.37 0.132 7.5 20.26 14.32
12/16/2021 2:45:00 PM 4.68 40.424 0.132 7.46 17.95 14.34
12/16/2021 3:00:00 PM 4.7 40.46 0.132 7.48 18.94 14.35
12/16/2021 3:15:00 PM 4.72 40.496 0.131 7.52 18.36 14.37
12/16/2021 3:30:00 PM 4.73 40.514 0.132 7.54 19.16 14.38
12/16/2021 3:45:00 PM 4.74 40.532 0.131 7.52 17.16 14.38
12/16/2021 4:00:00 PM 4.74 40.532 0.132 7.5 17.69 14.38
12/16/2021 4:15:00 PM 4.74 40.532 0.132 7.53 20.51 14.39
12/16/2021 4:30:00 PM 4.74 40.532 0.131 7.52 17.53 14.4
12/16/2021 4:45:00 PM 4.74 40.532 0.131 7.54 20.25 14.41
12/16/2021 5:00:00 PM 4.73 40.514 0.131 7.54 17.3 14.39
12/16/2021 5:15:00 PM 4.73 40.514 0.131 7.56 17.17 14.38
12/16/2021 5:30:00 PM 4.72 40.496 0.066 7.48 20.31 14.37
12/16/2021 5:45:00 PM 4.71 40.478 0.114 7.53 17.36 14.35
12/16/2021 6:00:00 PM 4.69 40.442 0.131 7.53 20.27 14.36
12/16/2021 6:15:00 PM 4.68 40.424 0.131 7.54 18.83 14.35
12/16/2021 6:30:00 PM 4.67 40.406 0.131 7.56 18.8 14.33
12/16/2021 6:45:00 PM 4.66 40.388 0.131 7.55 18.88 14.33
12/16/2021 7:00:00 PM 4.66 40.388 0.131 7.56 18.69 14.31
12/16/2021 7:15:00 PM 4.65 40.37 0.131 7.56 20.29 14.32
12/16/2021 7:30:00 PM 4.65 40.37 0.131 7.54 19.92 14.31
12/16/2021 7:45:00 PM 4.64 40.352 0.128 7.54 19.03 14.31
12/16/2021 8:00:00 PM 4.64 40.352 0.13 7.49 17.43 14.31
12/16/2021 8:15:00 PM 4.64 40.352 0.129 7.53 19.03 14.31
12/16/2021 8:30:00 PM 4.64 40.352 0.13 7.53 18.46 14.29
12/16/2021 8:45:00 PM 4.64 40.352 0.13 7.52 20.61 14.29
12/16/2021 9:00:00 PM 4.64 40.352 0.13 7.55 18.71 14.26
12/16/2021 9:15:00 PM 4.65 40.37 0.129 7.51 16.95 14.25
12/16/2021 9:30:00 PM 4.65 40.37 0.129 7.41 19.81 14.24
12/16/2021 9:45:00 PM 4.65 40.37 0.054 7.51 18.61 14.22
12/16/2021 10:00:00 PM 4.65 40.37 0.129 7.46 14.37 14.21
12/16/2021 10:15:00 PM 4.65 40.37 0.129 7.49 19.39 14.2
12/16/2021 10:30:00 PM 4.96 40.928 0.139 7.51 18.6 14.01
12/16/2021 10:45:00 PM 4.88 40.784 0.141 7.4 18.49 13.91
12/16/2021 11:00:00 PM 4.71 40.478 0.129 7.44 18.74 14.13
12/16/2021 11:15:00 PM 4.69 40.442 0.128 7.49 19.24 14.15
12/16/2021 11:30:00 PM 4.7 40.46 0.125 7.34 17.72 14.14
12/16/2021 11:45:00 PM 4.71 40.478 0.127 7.45 20.65 14.13
12/17/2021 12:00:00 AM 4.73 40.514 0.127 7.46 18.95 14.12
12/17/2021 12:15:00 AM 4.75 40.55 0.125 7.4 17.9 14.11
12/17/2021 12:30:00 AM 4.77 40.586 0.127 7.46 19.13 14.1
12/17/2021 12:45:00 AM 4.79 40.622 0.127 7.48 19.04 14.09
12/17/2021 1:00:00 AM 4.81 40.658 0.056 7.48 19.76 14.07
12/17/2021 1:15:00 AM 4.84 40.712 0.124 7.46 19.4 14.06
12/17/2021 1:30:00 AM 4.86 40.748 0.071 7.38 18.83 14.04
12/17/2021 1:45:00 AM 4.87 40.766 0.125 7.42 18.87 14.01
12/17/2021 2:00:00 AM 4.88 40.784 0.117 7.47 19 14
12/17/2021 2:15:00 AM 4.89 40.802 0.126 7.48 18.64 13.98
12/17/2021 2:30:00 AM 4.88 40.784 0.125 7.47 20.8 13.96
12/17/2021 2:45:00 AM 4.88 40.784 0.126 7.47 18.75 13.94
12/17/2021 3:00:00 AM 4.88 40.784 0.125 7.44 18.22 13.92
12/17/2021 3:15:00 AM 4.87 40.766 0.126 7.46 20.19 13.9
12/17/2021 3:30:00 AM 4.87 40.766 0.126 7.45 18.68 13.89
12/17/2021 3:45:00 AM 4.86 40.748 0.126 7.45 19.43 13.87
12/17/2021 4:00:00 AM 4.86 40.748 0.123 7.35 17.7 13.85
12/17/2021 4:15:00 AM 4.87 40.766 0.105 7.43 19.12 13.81
12/17/2021 4:30:00 AM 4.87 40.766 0.126 7.41 19.06 13.79
12/17/2021 4:45:00 AM 4.87 40.766 0.126 7.41 17.7 13.78
12/17/2021 5:00:00 AM 4.87 40.766 0.126 7.4 18.36 13.76
12/17/2021 5:15:00 AM 4.86 40.748 0.119 7.22 18.18 13.73
12/17/2021 5:30:00 AM 4.86 40.748 0.126 7.43 17.15 13.71
12/17/2021 5:45:00 AM 4.85 40.73 0.085 7.34 19.19 13.7
12/17/2021 6:00:00 AM 4.84 40.712 0.126 7.4 20.2 13.68
12/17/2021 6:15:00 AM 4.83 40.694 0.126 7.4 20.16 13.66
12/17/2021 6:30:00 AM 4.82 40.676 0.126 7.41 19.05 13.65
12/17/2021 6:45:00 AM 4.81 40.658 0.125 7.36 20.26 13.64
12/17/2021 7:00:00 AM 4.8 40.64 0.126 7.37 17.82 13.62
12/17/2021 7:15:00 AM 4.77 40.586 0.126 7.41 18.11 13.61
12/17/2021 7:30:00 AM 4.76 40.568 0.126 7.41 18.4 13.6
12/17/2021 7:45:00 AM 4.75 40.55 0.126 7.36 18.73 13.59
12/17/2021 8:00:00 AM 4.74 40.532 0.126 7.4 20.15 13.58
12/17/2021 8:15:00 AM 4.74 40.532 0.126 7.36 18.99 13.57
12/17/2021 8:30:00 AM 4.73 40.514 0.126 7.37 20.22 13.56
12/17/2021 8:45:00 AM 4.72 40.496 0.126 7.35 18.27 13.56
12/17/2021 9:00:00 AM 4.7 40.46 0.126 7.34 20.09 13.56
12/17/2021 9:15:00 AM 4.7 40.46 0.123 7.38 17.83 13.56
12/17/2021 9:30:00 AM 4.7 40.46 0.126 7.32 19.97 13.58
12/17/2021 9:45:00 AM 4.69 40.442 0.126 7.39 17.48 13.58
12/17/2021 10:00:00 AM 4.69 40.442 0.123 7.39 20.11 13.6
12/17/2021 10:15:00 AM 4.7 40.46 0.126 7.41 20.27 13.61
12/17/2021 10:30:00 AM 4.72 40.496 0.041 7.41 18.84 13.64
12/17/2021 10:45:00 AM 4.74 40.532 0.126 7.42 18.91 13.66
12/17/2021 11:00:00 AM 4.76 40.568 0.126 7.41 19.93 13.67
12/17/2021 11:15:00 AM 4.77 40.586 0.126 7.42 18.32 13.7
12/17/2021 11:30:00 AM 4.79 40.622 0.126 7.41 18.99 13.72
12/17/2021 11:45:00 AM 4.81 40.658 0.126 7.43 18.34 13.75
12/17/2021 12:00:00 PM 4.84 40.712 0.126 7.42 17.43 13.79
12/17/2021 12:15:00 PM 4.87 40.766 0.126 7.42 21.73 13.81
12/17/2021 12:30:00 PM 4.9 40.82 0.126 7.46 18.6 13.82
12/17/2021 12:45:00 PM 4.92 40.856 0.125 7.45 21.33 13.86
12/17/2021 1:00:00 PM 4.94 40.892 0.126 7.44 19.9 13.9
12/17/2021 1:15:00 PM 4.96 40.928 0.125 7.47 18.4 13.92
12/17/2021 1:30:00 PM 4.98 40.964 0.127 7.48 19.82 13.94
12/17/2021 1:45:00 PM 5 41 0.118 7.49 19.35 13.97
12/17/2021 2:00:00 PM 5.02 41.036 0.127 7.49 18.23 14
12/17/2021 2:15:00 PM 5.04 41.072 0.126 7.48 18.69 14.03
12/17/2021 2:30:00 PM 5.06 41.108 0.127 7.51 19.79 14.05
12/17/2021 2:45:00 PM 5.07 41.126 0.127 7.5 17.4 14.08
12/17/2021 3:00:00 PM 5.09 41.162 0.127 7.5 18.15 14.09
12/17/2021 3:15:00 PM 5.1 41.18 0.127 7.53 18.02 14.13
12/17/2021 3:30:00 PM 5.11 41.198 0.038 7.54 17.87 14.13
12/17/2021 3:45:00 PM 5.12 41.216 0.127 7.54 19.77 14.13
12/17/2021 4:00:00 PM 5.12 41.216 0.127 7.54 17.74 14.14
12/17/2021 4:15:00 PM 5.12 41.216 0.128 7.54 19.76 14.12
12/17/2021 4:30:00 PM 5.36 41.648 0.136 7.55 18.03 14.06
12/17/2021 4:45:00 PM 5.24 41.432 0.128 7.43 19.01 13.9
12/17/2021 5:00:00 PM 5.1 41.18 0.128 7.46 20.14 14.12
12/17/2021 5:15:00 PM 5.08 41.144 0.057 7.52 27.17 14.13
12/17/2021 5:30:00 PM 5.06 41.108 0.128 7.54 18.14 14.13
12/17/2021 5:45:00 PM 5.04 41.072 0.128 7.56 19.55 14.11
12/17/2021 6:00:00 PM 5.02 41.036 0.126 7.56 19 14.1
12/17/2021 6:15:00 PM 5 41 0.128 7.54 17.01 14.1
12/17/2021 6:30:00 PM 4.99 40.982 0.128 7.54 19.76 14.09
12/17/2021 6:45:00 PM 4.98 40.964 0.128 7.52 17.39 14.08
12/17/2021 7:00:00 PM 4.97 40.946 0.128 7.53 19.29 14.08
12/17/2021 7:15:00 PM 4.96 40.928 0.128 7.55 16.87 14.06
12/17/2021 7:30:00 PM 4.95 40.91 0.128 7.49 18.39 14.06
12/17/2021 7:45:00 PM 4.94 40.892 0.128 7.52 17.98 14.06
12/17/2021 8:00:00 PM 4.93 40.874 0.128 7.53 18.65 14.05
12/17/2021 8:15:00 PM 4.92 40.856 0.127 7.53 17.29 14.05
12/17/2021 8:30:00 PM 4.91 40.838 0.127 7.52 16.97 14.05
12/17/2021 8:45:00 PM 4.9 40.82 0.127 7.5 19.4 14.05
12/17/2021 9:00:00 PM 4.9 40.82 0.127 7.52 17.22 14.04
12/17/2021 9:15:00 PM 4.9 40.82 0.127 7.51 19.66 14.02
12/17/2021 9:30:00 PM 4.89 40.802 0.127 7.51 17.35 14.02
12/17/2021 9:45:00 PM 4.89 40.802 0.127 7.52 19.67 14
12/17/2021 10:00:00 PM 4.88 40.784 0.043 7.53 19.18 13.99
12/17/2021 10:15:00 PM 4.88 40.784 0.127 7.52 18.09 13.98
12/17/2021 10:30:00 PM 4.88 40.784 0.127 7.51 18.48 13.97
12/17/2021 10:45:00 PM 4.88 40.784 0.126 7.49 20.22 13.97
12/17/2021 11:00:00 PM 4.89 40.802 0.127 7.49 18.04 13.95
12/17/2021 11:15:00 PM 4.89 40.802 0.127 7.48 18.34 13.94
12/17/2021 11:30:00 PM 4.9 40.82 0.127 7.49 16.89 13.93
12/17/2021 11:45:00 PM 4.91 40.838 0.127 7.49 17 13.92
12/18/2021 12:00:00 AM 4.91 40.838 0.126 7.48 17.49 13.91
12/18/2021 12:15:00 AM 4.92 40.856 0.126 7.39 19.78 13.91
12/18/2021 12:30:00 AM 4.93 40.874 0.126 7.5 15.59 13.91
12/18/2021 12:45:00 AM 4.94 40.892 0.127 7.48 18.74 13.89
12/18/2021 1:00:00 AM 4.95 40.91 0.056 7.48 18.6 13.87
12/18/2021 1:15:00 AM 4.96 40.928 0.127 7.49 17.72 13.88
12/18/2021 1:30:00 AM 4.97 40.946 0.055 7.47 17.24 13.86
12/18/2021 1:45:00 AM 5.16 41.288 0.129 7.48 18.3 13.87
12/18/2021 2:00:00 AM 5.08 41.144 0.067 7.41 17.24 13.8
12/18/2021 2:15:00 AM 5.03 41.054 0.129 7.44 19.44 13.79
12/18/2021 2:30:00 AM 5.01 41.018 0.127 7.45 18.66 13.79
12/18/2021 2:45:00 AM 5 41 0.124 7.37 19.75 13.78
12/18/2021 3:00:00 AM 5.01 41.018 0.126 7.45 18.17 13.77
12/18/2021 3:15:00 AM 5.01 41.018 0.127 7.44 20.08 13.74
12/18/2021 3:30:00 AM 5.01 41.018 0.127 7.44 18.39 13.75
12/18/2021 3:45:00 AM 5.02 41.036 0.127 7.45 18.68 13.71
12/18/2021 4:00:00 AM 5.02 41.036 0.127 7.43 18.23 13.69
12/18/2021 4:15:00 AM 5.02 41.036 0.127 7.43 19.1 13.67
12/18/2021 4:30:00 AM 5.03 41.054 0.127 7.34 17.68 13.65
12/18/2021 4:45:00 AM 5.03 41.054 0.127 7.44 18.62 13.62
12/18/2021 5:00:00 AM 5.03 41.054 0.127 7.44 0.73 13.61
12/18/2021 5:15:00 AM 5.04 41.072 0.127 7.43 19.84 13.58
12/18/2021 5:30:00 AM 5.04 41.072 0.127 7.43 19.83 13.56
12/18/2021 5:45:00 AM 5.04 41.072 0.095 7.41 18.16 13.55
12/18/2021 6:00:00 AM 5.04 41.072 0.127 7.37 20.17 13.52
12/18/2021 6:15:00 AM 5.04 41.072 0.058 7.41 18.21 13.5
12/18/2021 6:30:00 AM 5.05 41.09 0.128 7.41 18.59 13.47
12/18/2021 6:45:00 AM 5.04 41.072 0.127 7.4 19.59 13.46
12/18/2021 7:00:00 AM 5.05 41.09 0.128 7.4 19.65 13.46
12/18/2021 7:15:00 AM 5.05 41.09 0.128 7.4 17.97 13.44
12/18/2021 7:30:00 AM 5.04 41.072 0.128 7.41 18.72 13.42
12/18/2021 7:45:00 AM 5.04 41.072 0.128 7.41 17.05 13.41
12/18/2021 8:00:00 AM 5.04 41.072 0.127 7.38 19.59 13.4
12/18/2021 8:15:00 AM 5.04 41.072 0.127 7.38 16.88 13.38
12/18/2021 8:30:00 AM 5.04 41.072 0.127 7.38 20.37 13.37
12/18/2021 8:45:00 AM 5.04 41.072 0.128 7.38 17.66 13.36
12/18/2021 9:00:00 AM 5.04 41.072 0.127 7.37 19.73 13.34
12/18/2021 9:15:00 AM 5.04 41.072 0.127 7.36 18.12 13.34
12/18/2021 9:30:00 AM 5.04 41.072 0.127 7.39 17.88 13.34
12/18/2021 9:45:00 AM 5.04 41.072 0.127 7.37 17.89 13.32
12/18/2021 10:00:00 AM 5.05 41.09 0.127 7.37 19.59 13.33
12/18/2021 10:15:00 AM 5.06 41.108 0.127 7.38 18.48 13.34
12/18/2021 10:30:00 AM 5.07 41.126 0.09 7.34 19.91 13.33
12/18/2021 10:45:00 AM 5.19 41.342 0.136 7.4 18.98 13.52
12/18/2021 11:00:00 AM 5.13 41.234 0.134 7.38 16.26 13.52
12/18/2021 11:15:00 AM 5.1 41.18 0.127 7.37 18.31 13.38
12/18/2021 11:30:00 AM 5.11 41.198 0.127 7.37 17.1 13.38
12/18/2021 11:45:00 AM 5.12 41.216 0.127 7.37 19.45 13.37
12/18/2021 12:00:00 PM 5.13 41.234 0.127 7.38 20.11 13.38
12/18/2021 12:15:00 PM 5.14 41.252 0.128 7.38 17.74 13.37
12/18/2021 12:30:00 PM 5.15 41.27 0.126 7.39 19.46 13.38
12/18/2021 12:45:00 PM 5.16 41.288 0.128 7.38 18.2 13.37
12/18/2021 1:00:00 PM 5.17 41.306 0.127 7.39 17.29 13.36
12/18/2021 1:15:00 PM 5.18 41.324 0.128 7.4 18.6 13.37
12/18/2021 1:30:00 PM 5.19 41.342 0.126 7.38 3.63 13.37
12/18/2021 1:45:00 PM 5.2 41.36 0.128 7.4 17.11 13.36
12/18/2021 2:00:00 PM 5.21 41.378 0.127 7.32 18.44 13.37
12/18/2021 2:15:00 PM 5.23 41.414 0.128 7.4 18.74 13.39
12/18/2021 2:30:00 PM 5.24 41.432 0.077 7.41 17.21 13.4
12/18/2021 2:45:00 PM 5.25 41.45 0.128 7.39 19.29 13.4
12/18/2021 3:00:00 PM 5.27 41.486 0.127 7.42 17.75 13.4
12/18/2021 3:15:00 PM 5.28 41.504 0.036 7.39 15.83 13.41
12/18/2021 3:30:00 PM 5.29 41.522 0.128 7.44 19.65 13.42
12/18/2021 3:45:00 PM 5.3 41.54 0.125 7.44 19.3 13.4
12/18/2021 4:00:00 PM 5.31 41.558 0.128 7.44 18.7 13.41
12/18/2021 4:15:00 PM 5.32 41.576 0.121 7.36 18.71 13.39
12/18/2021 4:30:00 PM 5.32 41.576 0.048 7.42 18.16 13.39
12/18/2021 4:45:00 PM 5.33 41.594 0.127 7.4 18.29 13.38
12/18/2021 5:00:00 PM 5.34 41.612 0.127 7.4 18.36 13.35
12/18/2021 5:15:00 PM 5.35 41.63 0.126 7.38 16.78 13.35
12/18/2021 5:30:00 PM 5.36 41.648 0.127 7.4 19.51 13.33
12/18/2021 5:45:00 PM 5.36 41.648 0.127 7.4 17.25 13.31
12/18/2021 6:00:00 PM 5.37 41.666 0.127 7.41 0.59 13.3
12/18/2021 6:15:00 PM 5.38 41.684 0.047 7.37 17.05 13.29
12/18/2021 6:30:00 PM 5.39 41.702 0.127 7.39 17.08 13.26
12/18/2021 6:45:00 PM 5.39 41.702 0.127 7.39 19.93 13.26
12/18/2021 7:00:00 PM 5.4 41.72 0.127 7.42 0.9 13.26
12/18/2021 7:15:00 PM 5.4 41.72 0.127 7.4 19.59 13.25
12/18/2021 7:30:00 PM 5.41 41.738 0.121 7.38 18.48 13.23
12/18/2021 7:45:00 PM 5.41 41.738 0.127 7.38 19.53 13.23
12/18/2021 8:00:00 PM 5.41 41.738 0.127 7.41 19.46 13.24
12/18/2021 8:15:00 PM 5.42 41.756 0.127 7.39 0.46 13.22
12/18/2021 8:30:00 PM 5.42 41.756 0.127 7.36 19.63 13.22
12/18/2021 8:45:00 PM 5.43 41.774 0.123 7.4 13.59 13.23
12/18/2021 9:00:00 PM 5.43 41.774 0.12 7.3 15.5 13.21
12/18/2021 9:15:00 PM 5.43 41.774 0.124 7.37 17.72 13.2
12/18/2021 9:30:00 PM 5.43 41.774 0.127 7.33 16.61 13.19
12/18/2021 9:45:00 PM 5.43 41.774 0.123 7.35 19.92 13.18
12/18/2021 10:00:00 PM 5.43 41.774 0.127 7.39 18.69 13.17
12/18/2021 10:15:00 PM 5.43 41.774 0.123 7.39 16.95 13.17
12/18/2021 10:30:00 PM 5.43 41.774 0.126 7.33 19.39 13.18
12/18/2021 10:45:00 PM 5.43 41.774 0.127 7.37 19.39 13.17
12/18/2021 11:00:00 PM 5.44 41.792 0.072 7.32 15.18 13.17
12/18/2021 11:15:00 PM 5.44 41.792 0.127 7.39 18.44 13.15
12/18/2021 11:30:00 PM 5.44 41.792 0.127 7.31 18.34 13.16
12/18/2021 11:45:00 PM 5.44 41.792 0.125 7.18 18.06 13.17
12/19/2021 12:00:00 AM 5.44 41.792 0.127 7.38 16.97 13.16
12/19/2021 12:15:00 AM 5.44 41.792 0.128 7.4 19.41 13.17
12/19/2021 12:30:00 AM 5.45 41.81 0.128 7.4 17.98 13.16
12/19/2021 12:45:00 AM 5.44 41.792 0.127 7.39 18.38 13.18
12/19/2021 1:00:00 AM 5.44 41.792 0.061 7.39 18.24 13.17
12/19/2021 1:15:00 AM 5.44 41.792 0.127 7.4 18.35 13.18
12/19/2021 1:30:00 AM 5.45 41.81 0.128 7.37 18.09 13.18
12/19/2021 1:45:00 AM 5.46 41.828 0.128 7.39 18.5 13.18
12/19/2021 2:00:00 AM 5.45 41.81 0.128 7.4 17 13.18
12/19/2021 2:15:00 AM 5.46 41.828 0.074 7.36 19.05 13.16
12/19/2021 2:30:00 AM 5.46 41.828 0.127 7.39 18.06 13.17
12/19/2021 2:45:00 AM 5.46 41.828 0.128 7.34 16.6 13.16
12/19/2021 3:00:00 AM 5.45 41.81 0.128 7.36 16.56 13.15
12/19/2021 3:15:00 AM 5.45 41.81 0.128 7.37 16.58 13.14
12/19/2021 3:30:00 AM 5.44 41.792 0.128 7.4 18.41 13.14
12/19/2021 3:45:00 AM 5.43 41.774 0.128 7.41 17.91 13.15
12/19/2021 4:00:00 AM 5.43 41.774 0.128 7.38 18.2 13.14
12/19/2021 4:15:00 AM 5.42 41.756 0.125 7.32 19.6 13.12
12/19/2021 4:30:00 AM 5.41 41.738 0.129 7.38 19.57 13.1
12/19/2021 4:45:00 AM 5.4 41.72 0.129 7.31 19.46 13.1
12/19/2021 5:00:00 AM 5.39 41.702 0.129 7.36 16.66 13.1
12/19/2021 5:15:00 AM 5.38 41.684 0.129 7.37 17.17 13.09
12/19/2021 5:30:00 AM 5.36 41.648 0.129 7.37 17.57 13.08
12/19/2021 5:45:00 AM 5.35 41.63 0.129 7.38 17.92 13.07
12/19/2021 6:00:00 AM 5.33 41.594 0.129 7.39 17.68 13.08
12/19/2021 6:15:00 AM 5.33 41.594 0.13 7.34 19.28 13.06
12/19/2021 6:30:00 AM 5.31 41.558 0.123 7.35 17.97 13.05
12/19/2021 6:45:00 AM 5.3 41.54 0.13 7.34 19.42 13.04
12/19/2021 7:00:00 AM 5.29 41.522 0.119 7.35 19.51 13.05
12/19/2021 7:15:00 AM 5.27 41.486 0.13 7.34 17.27 13.03
12/19/2021 7:30:00 AM 5.26 41.468 0.13 7.37 17.15 13.04
12/19/2021 7:45:00 AM 5.24 41.432 0.13 7.37 17.85 13.04
12/19/2021 8:00:00 AM 5.23 41.414 0.13 7.37 19.11 13.02
12/19/2021 8:15:00 AM 5.22 41.396 0.129 7.38 18.4 13.02
12/19/2021 8:30:00 AM 5.21 41.378 0.129 7.29 17.12 13.01
12/19/2021 8:45:00 AM 5.2 41.36 0.129 7.35 19.04 13.01
12/19/2021 9:00:00 AM 5.19 41.342 0.129 7.34 17.3 13
12/19/2021 9:15:00 AM 5.18 41.324 0.129 7.34 19.42 13.02
12/19/2021 9:30:00 AM 5.17 41.306 0.129 7.34 18.06 13.02
12/19/2021 9:45:00 AM 5.16 41.288 0.13 7.35 17.75 13.03
12/19/2021 10:00:00 AM 5.16 41.288 0.13 7.36 18.02 13.04
12/19/2021 10:15:00 AM 5.15 41.27 0.13 7.38 19.63 13.06
12/19/2021 10:30:00 AM 5.15 41.27 0.13 7.34 19.5 13.09
12/19/2021 10:45:00 AM 5.19 41.342 0.064 7.42 15.32 13.38
12/19/2021 11:00:00 AM 5.2 41.36 0.131 7.37 19.03 13.42
12/19/2021 11:15:00 AM 5.15 41.27 0.13 7.4 18.57 13.3
12/19/2021 11:30:00 AM 5.15 41.27 0.13 7.39 19.31 13.3
12/19/2021 11:45:00 AM 5.17 41.306 0.13 7.4 17.52 13.3
12/19/2021 12:00:00 PM 5.18 41.324 0.13 7.4 17.24 13.33
12/19/2021 12:15:00 PM 5.2 41.36 0.128 7.41 19.58 13.34
12/19/2021 12:30:00 PM 5.2 41.36 0.129 7.34 19.64 13.36
12/19/2021 12:45:00 PM 5.2 41.36 0.13 7.4 19.49 13.37
12/19/2021 1:00:00 PM 5.21 41.378 0.13 7.44 17.74 13.37
12/19/2021 1:15:00 PM 5.24 41.432 0.13 7.43 17.04 13.42
12/19/2021 1:30:00 PM 5.28 41.504 0.13 7.46 19.48 13.42
12/19/2021 1:45:00 PM 5.33 41.594 0.13 7.32 17.11 13.49
12/19/2021 2:00:00 PM 5.38 41.684 0.13 7.45 16.83 13.51
12/19/2021 2:15:00 PM 5.42 41.756 0.13 7.46 19.64 13.53
12/19/2021 2:30:00 PM 5.45 41.81 0.13 7.48 17.55 13.58
12/19/2021 2:45:00 PM 5.46 41.828 0.13 7.5 18.24 13.59
12/19/2021 3:00:00 PM 5.44 41.792 0.13 7.49 18.23 13.63
12/19/2021 3:15:00 PM 5.43 41.774 0.13 7.52 17.96 13.67
12/19/2021 3:30:00 PM 5.41 41.738 0.057 7.53 17.27 13.69
12/19/2021 3:45:00 PM 5.41 41.738 0.13 7.53 19.65 13.73
12/19/2021 4:00:00 PM 5.42 41.756 0.13 7.54 19.48 13.75
12/19/2021 4:15:00 PM 5.41 41.738 0.13 7.43 17.81 13.75
12/19/2021 4:30:00 PM 5.4 41.72 0.13 7.54 19.5 13.76
12/19/2021 4:45:00 PM 5.39 41.702 0.124 7.44 17.88 13.76
12/19/2021 5:00:00 PM 5.36 41.648 0.129 7.55 0.22 13.78
12/19/2021 5:15:00 PM 5.34 41.612 0.13 7.56 19.5 13.79
12/19/2021 5:30:00 PM 5.32 41.576 0.13 7.51 17.33 13.79
12/19/2021 5:45:00 PM 5.3 41.54 0.129 7.54 18.1 13.8
12/19/2021 6:00:00 PM 5.29 41.522 0.13 7.58 19.6 13.79
12/19/2021 6:15:00 PM 5.28 41.504 0.128 7.56 17.62 13.79
12/19/2021 6:30:00 PM 5.27 41.486 0.13 7.57 17.87 13.79
12/19/2021 6:45:00 PM 5.26 41.468 0.054 7.57 18.07 13.77
12/19/2021 7:00:00 PM 5.25 41.45 0.129 7.49 19.34 13.77
12/19/2021 7:15:00 PM 5.24 41.432 0.129 7.57 16.56 13.76
12/19/2021 7:30:00 PM 5.23 41.414 0.129 7.57 18.18 13.77
12/19/2021 7:45:00 PM 5.21 41.378 0.059 7.57 17.01 13.77
12/19/2021 8:00:00 PM 5.18 41.324 0.129 7.56 18.9 13.77
12/19/2021 8:15:00 PM 5.27 41.486 0.132 7.56 18.28 13.77
12/19/2021 8:30:00 PM 5.17 41.306 0.135 7.43 16.94 13.67
12/19/2021 8:45:00 PM 5.14 41.252 0.133 7.5 18.73 13.73
12/19/2021 9:00:00 PM 5.06 41.108 0.129 7.54 17.94 13.77
12/19/2021 9:15:00 PM 5.01 41.018 0.052 7.54 16.79 13.76
12/19/2021 9:30:00 PM 4.97 40.946 0.128 7.44 15.98 13.76
12/19/2021 9:45:00 PM 4.95 40.91 0.129 7.55 17.57 13.75
12/19/2021 10:00:00 PM 4.91 40.838 0.126 7.35 17.93 13.74
12/19/2021 10:15:00 PM 4.88 40.784 0.129 7.47 18.54 13.72
12/19/2021 10:30:00 PM 4.85 40.73 0.129 7.53 19.31 13.71
12/19/2021 10:45:00 PM 4.83 40.694 0.129 7.49 19.38 13.69
12/19/2021 11:00:00 PM 4.81 40.658 0.129 7.5 19.33 13.69
12/19/2021 11:15:00 PM 4.79 40.622 0.129 7.51 19.01 13.67
12/19/2021 11:30:00 PM 4.77 40.586 0.129 7.5 19.15 13.66
12/19/2021 11:45:00 PM 4.76 40.568 0.129 7.5 19.36 13.66
12/20/2021 12:00:00 AM 4.75 40.55 0.129 7.51 19.18 13.65
12/20/2021 12:15:00 AM 4.74 40.532 0.129 7.51 19.29 13.65
12/20/2021 12:30:00 AM 4.72 40.496 0.129 7.51 18.38 13.65
12/20/2021 12:45:00 AM 4.71 40.478 0.118 7.48 16.74 13.66
12/20/2021 1:00:00 AM 4.69 40.442 0.129 7.49 18.74 13.65
12/20/2021 1:15:00 AM 4.68 40.424 0.13 7.48 18.3 13.65
12/20/2021 1:30:00 AM 4.65 40.37 0.13 7.49 19.63 13.65
12/20/2021 1:45:00 AM 4.64 40.352 0.12 7.48 18.19 13.63
12/20/2021 2:00:00 AM 4.62 40.316 0.13 7.46 19.48 13.64
12/20/2021 2:15:00 AM 4.59 40.262 0.127 7.47 18.79 13.61
12/20/2021 2:30:00 AM 4.58 40.244 0.129 7.39 19.88 13.61
12/20/2021 2:45:00 AM 4.56 40.208 0.129 7.46 16.85 13.6
12/20/2021 3:00:00 AM 4.53 40.154 0.129 7.44 17.55 13.59
12/20/2021 3:15:00 AM 4.51 40.118 0.13 7.47 19.43 13.57
12/20/2021 3:30:00 AM 4.49 40.082 0.13 7.46 15.96 13.55
12/20/2021 3:45:00 AM 4.47 40.046 0.129 7.3 16.61 13.55
12/20/2021 4:00:00 AM 4.45 40.01 0.13 7.44 19.46 13.55
12/20/2021 4:15:00 AM 4.43 39.974 0.13 7.45 19.25 13.54
12/20/2021 4:30:00 AM 4.41 39.938 0.054 7.44 16.69 13.53
12/20/2021 4:45:00 AM 4.38 39.884 0.126 7.43 18.9 13.52
12/20/2021 5:00:00 AM 4.36 39.848 0.128 7.41 21.48 13.52
12/20/2021 5:15:00 AM 4.34 39.812 0.124 7.4 17.51 13.5
12/20/2021 5:30:00 AM 4.32 39.776 0.125 7.3 19.16 13.49
12/20/2021 5:45:00 AM 4.29 39.722 0.046 7.41 19.51 13.49
12/20/2021 6:00:00 AM 4.27 39.686 0.087 7.4 16.51 13.48
12/20/2021 6:15:00 AM 4.25 39.65 0.126 7.37 19.24 13.46
12/20/2021 6:30:00 AM 4.23 39.614 0.129 7.39 18.63 13.45
12/20/2021 6:45:00 AM 4.49 40.082 0.136 7.45 19.31 13.72
12/20/2021 7:00:00 AM 4.41 39.938 0.133 7.41 19.08 13.69
12/20/2021 7:15:00 AM 4.23 39.614 0.13 7.39 17.52 13.5
12/20/2021 7:30:00 AM 4.16 39.488 0.129 7.38 17.06 13.45
12/20/2021 7:45:00 AM 4.13 39.434 0.129 7.35 17.46 13.43
12/20/2021 8:00:00 AM 4.11 39.398 0.129 7.36 17.3 13.44
12/20/2021 8:15:00 AM 4.09 39.362 0.127 7.36 19.23 13.42
12/20/2021 8:30:00 AM 4.07 39.326 0.127 7.26 19.87 13.43
12/20/2021 8:45:00 AM 4.06 39.308 0.13 7.38 18.59 13.43
12/20/2021 9:00:00 AM 4.04 39.272 0.128 7.38 16.45 13.43
12/20/2021 9:15:00 AM 4.03 39.254 0.129 7.38 17.31 13.46
12/20/2021 9:30:00 AM 4.02 39.236 0.129 7.38 19.79 13.47
12/20/2021 9:45:00 AM 4.01 39.218 0.045 7.29 19.46 13.5
12/20/2021 10:00:00 AM 4.01 39.218 0.051 7.37 17.47 13.53
12/20/2021 10:15:00 AM 4.01 39.218 0.13 7.39 18.62 13.52
12/20/2021 10:30:00 AM 4.02 39.236 0.13 7.42 18.41 13.56
12/20/2021 10:45:00 AM 4.03 39.254 0.061 7.4 16.88 13.58
12/20/2021 11:00:00 AM 4.05 39.29 0.085 7.39 17.09 13.61
12/20/2021 11:15:00 AM 4.06 39.308 0.13 7.4 17.71 13.64
12/20/2021 11:30:00 AM 4.09 39.362 0.074 7.38 17.97 13.66
12/20/2021 11:45:00 AM 4.11 39.398 0.13 7.44 18.41 13.69
12/20/2021 12:00:00 PM 4.14 39.452 0.091 7.42 17.92 13.73
12/20/2021 12:15:00 PM 4.18 39.524 0.13 7.43 17.17 13.74
12/20/2021 12:30:00 PM 4.21 39.578 0.13 7.44 19.02 13.78
12/20/2021 12:45:00 PM 4.24 39.632 0.129 7.38 19.47 13.8
12/20/2021 1:00:00 PM 4.56 40.208 0.141 7.45 17.92 13.93
12/20/2021 1:15:00 PM 4.6 40.28 0.095 7.34 19.08 13.88
12/20/2021 1:30:00 PM 4.4 39.92 0.131 7.41 17.63 13.85
12/20/2021 1:45:00 PM 4.38 39.884 0.131 7.46 17.65 13.92
12/20/2021 2:00:00 PM 4.4 39.92 0.131 7.47 19.78 13.97
12/20/2021 2:15:00 PM 4.42 39.956 0.131 7.51 17.37 13.98
12/20/2021 2:30:00 PM 4.44 39.992 0.131 7.5 17.5 14.01
12/20/2021 2:45:00 PM 4.46 40.028 0.129 7.5 17.51 14.04
12/20/2021 3:00:00 PM 4.48 40.064 0.104 7.51 19.89 14.07
12/20/2021 3:15:00 PM 4.48 40.064 0.131 7.5 19.87 14.05
12/20/2021 3:30:00 PM 4.49 40.082 0.12 7.54 18.13 14.1
12/20/2021 3:45:00 PM 4.49 40.082 0.131 7.55 18.34 14.11
12/20/2021 4:00:00 PM 4.48 40.064 0.127 7.56 19.51 14.12
12/20/2021 4:15:00 PM 4.48 40.064 0.132 7.53 19.45 14.14
12/20/2021 4:30:00 PM 4.47 40.046 0.126 7.49 17.34 14.14
12/20/2021 4:45:00 PM 4.46 40.028 0.131 7.55 16.67 14.13
12/20/2021 5:00:00 PM 4.44 39.992 0.132 7.55 17.78 14.14
12/20/2021 5:15:00 PM 4.43 39.974 0.065 7.57 17.91 14.14
12/20/2021 5:30:00 PM 4.4 39.92 0.133 7.57 19.67 14.13
12/20/2021 5:45:00 PM 4.38 39.884 0.133 7.36 17.09 14.12
12/20/2021 6:00:00 PM 4.35 39.83 0.133 7.57 17.23 14.13
12/20/2021 6:15:00 PM 4.33 39.794 0.131 7.54 17.85 14.14
12/20/2021 6:30:00 PM 4.3 39.74 0.133 7.55 18.57 14.14
12/20/2021 6:45:00 PM 4.27 39.686 0.132 7.52 19.68 14.15
12/20/2021 7:00:00 PM 4.25 39.65 0.133 7.58 19.52 14.15
12/20/2021 7:15:00 PM 4.22 39.596 0.133 7.58 18.57 14.16
12/20/2021 7:30:00 PM 4.2 39.56 0.117 7.57 19.59 14.17
12/20/2021 7:45:00 PM 4.18 39.524 0.133 7.58 17.92 14.16
12/20/2021 8:00:00 PM 4.16 39.488 0.132 7.56 18.59 14.17
12/20/2021 8:15:00 PM 4.15 39.47 0.133 7.58 16.9 14.17
12/20/2021 8:30:00 PM 4.14 39.452 0.133 7.58 19.58 14.18
12/20/2021 8:45:00 PM 4.12 39.416 0.133 7.54 17.43 14.18
12/20/2021 9:00:00 PM 4.1 39.38 0.133 7.58 18.92 14.18
12/20/2021 9:15:00 PM 4.09 39.362 0.133 7.56 19.59 14.16
12/20/2021 9:30:00 PM 4.07 39.326 0.134 7.53 19.45 14.14
12/20/2021 9:45:00 PM 4.06 39.308 0.059 7.55 18.93 14.11
12/20/2021 10:00:00 PM 4.05 39.29 0.134 7.55 18.96 14.11
12/20/2021 10:15:00 PM 4.04 39.272 0.045 7.55 16.51 14.11
12/20/2021 10:30:00 PM 4.03 39.254 0.133 7.53 19.8 14.1
12/20/2021 10:45:00 PM 4.03 39.254 0.133 7.53 17.3 14.09
12/20/2021 11:00:00 PM 4.03 39.254 0.133 7.52 19.96 14.08
12/20/2021 11:15:00 PM 4.03 39.254 0.134 7.52 19.82 14.07
12/20/2021 11:30:00 PM 4.03 39.254 0.134 7.48 18.56 14.06
12/20/2021 11:45:00 PM 4.03 39.254 0.134 7.53 17.19 14.05
12/21/2021 12:00:00 AM 4.03 39.254 0.134 7.5 18.61 14.04
12/21/2021 12:15:00 AM 4.03 39.254 0.134 7.54 19.8 14.06
12/21/2021 12:30:00 AM 4.02 39.236 0.131 7.43 18.06 14.05
12/21/2021 12:45:00 AM 4.01 39.218 0.134 7.52 19.85 14.02
12/21/2021 1:00:00 AM 4 39.2 0.133 7.51 17.75 14.02
12/21/2021 1:15:00 AM 3.99 39.182 0.134 7.5 17.66 14
12/21/2021 1:30:00 AM 3.97 39.146 0.131 7.5 17.6 13.99
12/21/2021 1:45:00 AM 3.95 39.11 0.134 7.51 17.71 13.98
12/21/2021 2:00:00 AM 3.93 39.074 0.134 7.5 16.89 13.96
12/21/2021 2:15:00 AM 3.92 39.056 0.134 7.49 19.63 13.93
12/21/2021 2:30:00 AM 3.9 39.02 0.134 7.49 19.79 13.93
12/21/2021 2:45:00 AM 3.88 38.984 0.133 7.43 16.75 13.91
12/21/2021 3:00:00 AM 3.86 38.948 0.05 7.38 16.88 13.91
12/21/2021 3:15:00 AM 3.85 38.93 0.134 7.46 20.32 13.87
12/21/2021 3:30:00 AM 3.83 38.894 0.132 7.4 19.98 13.87
12/21/2021 3:45:00 AM 3.82 38.876 0.089 7.46 16.83 13.86
12/21/2021 4:00:00 AM 3.93 39.074 0.136 7.46 17.55 13.88
12/21/2021 4:15:00 AM 4.19 39.542 0.126 7.37 18.65 14.03
12/21/2021 4:30:00 AM 3.97 39.146 0.136 7.4 19.04 13.84
12/21/2021 4:45:00 AM 3.79 38.822 0.135 7.38 18 13.8
12/21/2021 5:00:00 AM 3.72 38.696 0.131 7.42 23.04 13.8
12/21/2021 5:15:00 AM 3.69 38.642 0.135 7.44 17.28 13.79
12/21/2021 5:30:00 AM 3.67 38.606 0.133 7.24 18.51 13.78
12/21/2021 5:45:00 AM 3.64 38.552 0.134 7.44 18.55 13.79
12/21/2021 6:00:00 AM 3.61 38.498 0.134 7.24 16.95 13.76
12/21/2021 6:15:00 AM 3.59 38.462 0.135 7.41 18.78 13.77
12/21/2021 6:30:00 AM 3.57 38.426 0.135 7.4 18.58 13.76
12/21/2021 6:45:00 AM 3.54 38.372 0.135 7.36 20.23 13.75
12/21/2021 7:00:00 AM 3.51 38.318 0.135 7.38 17.07 13.76
12/21/2021 7:15:00 AM 3.49 38.282 0.135 7.38 17.39 13.74
12/21/2021 7:30:00 AM 4.05 39.29 0.138 7.39 17.24 13.73
12/21/2021 7:45:00 AM 3.58 38.444 0.057 7.39 13.85 13.73
12/21/2021 8:00:00 AM 3.46 38.228 0.135 7.37 17.24 13.73
12/21/2021 8:15:00 AM 3.43 38.174 0.136 7.4 20.1 13.74
12/21/2021 8:30:00 AM 3.4 38.12 0.135 7.37 19.91 13.73
12/21/2021 8:45:00 AM 3.39 38.102 0.136 7.38 17.08 13.73
12/21/2021 9:00:00 AM 3.38 38.084 0.136 7.37 19.6 13.76
12/21/2021 9:15:00 AM 3.37 38.066 0.135 7.38 16.7 13.76
12/21/2021 9:30:00 AM 3.37 38.066 0.134 7.39 17.34 13.77
12/21/2021 9:45:00 AM 3.37 38.066 0.048 7.36 16.54 13.81
12/21/2021 10:00:00 AM 3.37 38.066 0.099 7.31 16.68 13.83
12/21/2021 10:15:00 AM 3.38 38.084 0.136 7.41 15.3 13.84
12/21/2021 10:30:00 AM 3.39 38.102 0.133 7.38 17.8 13.87
12/21/2021 10:45:00 AM 3.4 38.12 0.136 7.41 20.12 13.9
12/21/2021 11:00:00 AM 3.4 38.12 0.136 7.41 17.69 13.91
12/21/2021 11:15:00 AM 3.41 38.138 0.136 7.42 20.01 13.94
12/21/2021 11:30:00 AM 3.42 38.156 0.136 7.41 19.46 13.95
12/21/2021 11:45:00 AM 3.44 38.192 0.136 7.42 17.61 13.97
12/21/2021 12:00:00 PM 3.45 38.21 0.135 7.43 17.41 14
12/21/2021 12:15:00 PM 3.47 38.246 0.137 7.42 19.87 14.01
12/21/2021 12:30:00 PM 3.48 38.264 0.137 7.42 18.05 14.03
12/21/2021 12:45:00 PM 3.49 38.282 0.136 7.42 17.5 14.06
12/21/2021 1:00:00 PM 3.51 38.318 0.137 7.46 21.63 14.1
12/21/2021 1:15:00 PM 3.53 38.354 0.137 7.44 18.55 14.1
12/21/2021 1:30:00 PM 3.56 38.408 0.137 7.42 20 14.12
12/21/2021 1:45:00 PM 3.86 38.948 0.143 7.37 17.96 14.02
12/21/2021 2:00:00 PM 3.78 38.804 0.141 7.43 19.12 14
12/21/2021 2:15:00 PM 3.64 38.552 0.138 7.45 18.63 14.18
12/21/2021 2:30:00 PM 3.63 38.534 0.138 7.43 19.86 14.24
12/21/2021 2:45:00 PM 3.63 38.534 0.138 7.47 17.16 14.25
12/21/2021 3:00:00 PM 3.64 38.552 0.096 7.49 16.92 14.28
12/21/2021 3:15:00 PM 3.64 38.552 0.063 7.5 18.5 14.33
12/21/2021 3:30:00 PM 3.64 38.552 0.139 7.51 17.56 14.34
12/21/2021 3:45:00 PM 3.64 38.552 0.139 7.5 17.79 14.36
12/21/2021 4:00:00 PM 3.63 38.534 0.139 7.51 18.04 14.39
12/21/2021 4:15:00 PM 3.63 38.534 0.139 7.4 18.8 14.4
12/21/2021 4:30:00 PM 3.62 38.516 0.139 7.53 18.84 14.41
12/21/2021 4:45:00 PM 3.62 38.516 0.14 7.53 18.58 14.41
12/21/2021 5:00:00 PM 3.6 38.48 0.041 7.54 17.79 14.43
12/21/2021 5:15:00 PM 3.59 38.462 0.14 7.54 20.38 14.43
12/21/2021 5:30:00 PM 3.57 38.426 0.14 7.55 17.76 14.43
12/21/2021 5:45:00 PM 3.56 38.408 0.141 7.54 18.61 14.43
12/21/2021 6:00:00 PM 3.54 38.372 0.119 7.48 18.81 14.44
12/21/2021 6:15:00 PM 3.53 38.354 0.141 7.45 17.66 14.44
12/21/2021 6:30:00 PM 3.52 38.336 0.142 7.47 21.12 14.45
12/21/2021 6:45:00 PM 3.49 38.282 0.142 7.54 18.23 14.44
12/21/2021 7:00:00 PM 3.47 38.246 0.143 7.52 20.43 14.43
12/21/2021 7:15:00 PM 3.44 38.192 0.143 7.53 20.35 14.42
12/21/2021 7:30:00 PM 3.42 38.156 0.143 7.53 20.03 14.43
12/21/2021 7:45:00 PM 3.39 38.102 0.143 7.53 18.6 14.43
12/21/2021 8:00:00 PM 3.36 38.048 0.143 7.54 18.26 14.43
12/21/2021 8:15:00 PM 3.33 37.994 0.143 7.49 18.64 14.42
12/21/2021 8:30:00 PM 3.31 37.958 0.144 7.53 18.86 14.44
12/21/2021 8:45:00 PM 3.28 37.904 0.056 7.52 13.44 14.42
12/21/2021 9:00:00 PM 3.26 37.868 0.144 7.51 17.99 14.42
12/21/2021 9:15:00 PM 3.24 37.832 0.137 7.48 18.99 14.41
12/21/2021 9:30:00 PM 3.23 37.814 0.144 7.51 17.34 14.42
12/21/2021 9:45:00 PM 3.21 37.778 0.144 7.52 18.59 14.4
12/21/2021 10:00:00 PM 3.19 37.742 0.144 7.51 19.11 14.39
12/21/2021 10:15:00 PM 3.18 37.724 0.144 7.5 18.33 14.38
12/21/2021 10:30:00 PM 3.18 37.724 0.145 7.49 20.22 14.36
12/21/2021 10:45:00 PM 3.68 38.624 0.15 7.46 19.3 14.24
12/21/2021 11:00:00 PM 3.61 38.498 0.148 7.37 16.76 14.09
12/21/2021 11:15:00 PM 3.24 37.832 0.145 7.45 18.55 14.26
12/21/2021 11:30:00 PM 3.16 37.688 0.145 7.47 18.41 14.32
12/21/2021 11:45:00 PM 3.13 37.634 0.145 7.48 18.58 14.34
12/22/2021 12:00:00 AM 3.12 37.616 0.145 7.47 17.69 14.33
12/22/2021 12:15:00 AM 3.1 37.58 0.146 7.48 19.67 14.34
12/22/2021 12:30:00 AM 3.09 37.562 0.146 7.46 19.7 14.34
12/22/2021 12:45:00 AM 3.08 37.544 0.146 7.44 20.5 14.33
12/22/2021 1:00:00 AM 3.07 37.526 0.146 7.47 20.79 14.32
12/22/2021 1:15:00 AM 3.05 37.49 0.146 7.47 18.22 14.31
12/22/2021 1:30:00 AM 3.04 37.472 0.146 7.46 17.75 14.3
12/22/2021 1:45:00 AM 3.02 37.436 0.147 7.47 20.51 14.29
12/22/2021 2:00:00 AM 3 37.4 0.147 7.46 17.52 14.28
12/22/2021 2:15:00 AM 2.99 37.382 0.051 7.46 17.64 14.28
12/22/2021 2:30:00 AM 2.97 37.346 0.147 7.45 18.51 14.25
12/22/2021 2:45:00 AM 2.95 37.31 0.145 7.44 18.08 14.25
12/22/2021 3:00:00 AM 2.94 37.292 0.148 7.45 17.51 14.24
12/22/2021 3:15:00 AM 2.92 37.256 0.044 7.45 17.97 14.23
12/22/2021 3:30:00 AM 2.91 37.238 0.148 7.45 20.48 14.22
12/22/2021 3:45:00 AM 2.89 37.202 0.148 7.44 17.96 14.19
12/22/2021 4:00:00 AM 2.88 37.184 0.147 7.42 18.35 14.18
12/22/2021 4:15:00 AM 2.86 37.148 0.133 7.43 17.84 14.18
12/22/2021 4:30:00 AM 2.84 37.112 0.148 7.4 18.03 14.16
12/22/2021 4:45:00 AM 2.82 37.076 0.149 7.42 17.58 14.15
12/22/2021 5:00:00 AM 2.8 37.04 0.147 7.39 17.56 14.15
12/22/2021 5:15:00 AM 2.78 37.004 0.149 7.41 19.5 14.13
12/22/2021 5:30:00 AM 2.76 36.968 0.149 7.39 17.41 14.12
12/22/2021 5:45:00 AM 2.74 36.932 0.149 7.38 17.74 14.1
12/22/2021 6:00:00 AM 2.72 36.896 0.149 7.42 19.39 14.1
12/22/2021 6:15:00 AM 2.71 36.878 0.074 7.41 19.16 14.09
12/22/2021 6:30:00 AM 2.69 36.842 0.15 7.39 18.13 14.08
12/22/2021 6:45:00 AM 2.68 36.824 0.058 7.39 19.07 14.08
12/22/2021 7:00:00 AM 2.67 36.806 0.149 7.39 21.18 14.06
12/22/2021 7:15:00 AM 2.65 36.77 0.15 7.39 19.24 14.07
12/22/2021 7:30:00 AM 3.36 38.048 0.15 7.42 19.13 13.93
12/22/2021 7:45:00 AM 2.73 36.914 0.15 7.4 14.79 14
12/22/2021 8:00:00 AM 2.64 36.752 0.15 7.39 20.49 14.03
12/22/2021 8:15:00 AM 2.61 36.698 0.15 7.39 20.87 14.03
12/22/2021 8:30:00 AM 2.59 36.662 0.151 7.34 19.26 14.04
12/22/2021 8:45:00 AM 2.57 36.626 0.151 7.38 19.59 14.03
12/22/2021 9:00:00 AM 2.56 36.608 0.151 7.38 19.94 14.04
12/22/2021 9:15:00 AM 2.56 36.608 0.151 7.38 17.6 14.05
12/22/2021 9:30:00 AM 2.55 36.59 0.151 7.38 19.71 14.06
12/22/2021 9:45:00 AM 2.55 36.59 0.151 7.39 20.56 14.09
12/22/2021 10:00:00 AM 2.56 36.608 0.151 7.37 18.79 14.08
12/22/2021 10:15:00 AM 2.57 36.626 0.151 7.39 19.58 14.11
12/22/2021 10:30:00 AM 2.58 36.644 0.152 7.4 17.84 14.14
12/22/2021 10:45:00 AM 2.59 36.662 0.152 7.39 17.88 14.14
12/22/2021 11:00:00 AM 2.6 36.68 0.152 7.4 19.33 14.14
12/22/2021 11:15:00 AM 2.6 36.68 0.152 7.41 19.48 14.16
12/22/2021 11:30:00 AM 2.6 36.68 0.152 7.41 19.09 14.17
12/22/2021 11:45:00 AM 2.59 36.662 0.152 7.41 18.62 14.17
12/22/2021 12:00:00 PM 2.6 36.68 0.152 7.39 20.82 14.18
12/22/2021 12:15:00 PM 2.6 36.68 0.152 7.41 19.47 14.19
12/22/2021 12:30:00 PM 2.62 36.716 0.152 7.41 20.79 14.21
12/22/2021 12:45:00 PM 2.64 36.752 0.153 7.42 20.26 14.23
12/22/2021 1:00:00 PM 2.65 36.77 0.152 7.42 18.19 14.25
12/22/2021 1:15:00 PM 2.67 36.806 0.153 7.42 19.73 14.27
12/22/2021 1:30:00 PM 2.68 36.824 0.153 7.43 18.47 14.3
12/22/2021 1:45:00 PM 2.69 36.842 0.153 7.44 19.65 14.32
12/22/2021 2:00:00 PM 2.69 36.842 0.15 7.32 19.49 14.32
12/22/2021 2:15:00 PM 2.72 36.896 0.149 7.45 20.56 14.35
12/22/2021 2:30:00 PM 2.74 36.932 0.153 7.45 20.05 14.36
12/22/2021 2:45:00 PM 2.75 36.95 0.153 7.46 21.11 14.39
12/22/2021 3:00:00 PM 2.78 37.004 0.153 7.47 21.25 14.42
12/22/2021 3:15:00 PM 2.81 37.058 0.153 7.47 17.93 14.44
12/22/2021 3:30:00 PM 2.82 37.076 0.153 7.48 18.09 14.44
12/22/2021 3:45:00 PM 2.82 37.076 0.153 7.48 17.99 14.46
12/22/2021 4:00:00 PM 2.82 37.076 0.153 7.48 20.02 14.47
12/22/2021 4:15:00 PM 2.82 37.076 0.153 7.49 18.74 14.49
12/22/2021 4:30:00 PM 2.81 37.058 0.153 7.48 21.24 14.49
12/22/2021 4:45:00 PM 2.8 37.04 0.153 7.48 21.4 14.52
12/22/2021 5:00:00 PM 2.78 37.004 0.152 7.5 19.78 14.52
12/22/2021 5:15:00 PM 2.76 36.968 0.154 7.51 20.74 14.53
12/22/2021 5:30:00 PM 2.75 36.95 0.153 7.51 20.12 14.52
12/22/2021 5:45:00 PM 2.75 36.95 0.154 7.51 21.55 14.55
12/22/2021 6:00:00 PM 2.73 36.914 0.154 7.51 20.01 14.56
12/22/2021 6:15:00 PM 2.72 36.896 0.154 7.52 20.1 14.57
12/22/2021 6:30:00 PM 2.7 36.86 0.044 7.5 19.11 14.57
12/22/2021 6:45:00 PM 2.68 36.824 0.154 7.52 19.44 14.57
12/22/2021 7:00:00 PM 2.65 36.77 0.154 7.51 18.55 14.55
12/22/2021 7:15:00 PM 2.99 37.382 0.156 7.5 20.79 14.55
12/22/2021 7:30:00 PM 3.04 37.472 0.158 7.39 18.02 14.4
12/22/2021 7:45:00 PM 2.73 36.914 0.155 7.42 19.23 14.42
12/22/2021 8:00:00 PM 2.58 36.644 0.154 7.47 18.8 14.5
12/22/2021 8:15:00 PM 2.51 36.518 0.154 7.5 19.51 14.55
12/22/2021 8:30:00 PM 2.48 36.464 0.154 7.5 20.3 14.56
12/22/2021 8:45:00 PM 2.46 36.428 0.154 7.48 19.82 14.57
12/22/2021 9:00:00 PM 2.44 36.392 0.154 7.49 20.15 14.58
12/22/2021 9:15:00 PM 2.42 36.356 0.154 7.5 18.99 14.57
12/22/2021 9:30:00 PM 2.4 36.32 0.08 7.49 21.51 14.57
12/22/2021 9:45:00 PM 2.39 36.302 0.152 7.5 21.19 14.56
12/22/2021 10:00:00 PM 2.36 36.248 0.127 7.49 20.14 14.56
12/22/2021 10:15:00 PM 2.34 36.212 0.155 7.49 20.24 14.54
12/22/2021 10:30:00 PM 2.32 36.176 0.155 7.49 18.79 14.54
12/22/2021 10:45:00 PM 2.31 36.158 0.155 7.48 20.18 14.54
12/22/2021 11:00:00 PM 2.3 36.14 0.155 7.49 20.09 14.53
12/22/2021 11:15:00 PM 2.29 36.122 0.154 7.45 20.19 14.52
12/22/2021 11:30:00 PM 2.29 36.122 0.155 7.48 21.59 14.52
12/22/2021 11:45:00 PM 2.28 36.104 0.155 7.48 18.86 14.53
12/23/2021 12:00:00 AM 2.28 36.104 0.155 7.46 22.05 14.54
12/23/2021 12:15:00 AM 2.29 36.122 0.155 7.46 19.69 14.53
12/23/2021 12:30:00 AM 2.56 36.608 0.156 7.49 19.96 14.55
12/23/2021 12:45:00 AM 2.62 36.716 0.158 7.43 19.43 14.45
12/23/2021 1:00:00 AM 2.44 36.392 0.05 7.43 18.76 14.43
12/23/2021 1:15:00 AM 2.3 36.14 0.154 7.43 20.13 14.42
12/23/2021 1:30:00 AM 2.26 36.068 0.154 7.44 21.58 14.48
12/23/2021 1:45:00 AM 2.23 36.014 0.153 7.47 18.52 14.51
12/23/2021 2:00:00 AM 2.21 35.978 0.154 7.45 21.11 14.5
12/23/2021 2:15:00 AM 2.19 35.942 0.062 7.46 18.14 14.49
12/23/2021 2:30:00 AM 2.17 35.906 0.062 7.46 19.62 14.5
12/23/2021 2:45:00 AM 2.15 35.87 0.154 7.45 20.32 14.48
12/23/2021 3:00:00 AM 2.14 35.852 0.154 7.45 22.27 14.47
12/23/2021 3:15:00 AM 2.12 35.816 0.154 7.45 20.08 14.47
12/23/2021 3:30:00 AM 2.11 35.798 0.15 7.45 23.7 14.47
12/23/2021 3:45:00 AM 2.1 35.78 0.154 7.45 20.49 14.47
12/23/2021 4:00:00 AM 2.08 35.744 0.154 7.43 20.51 14.44
12/23/2021 4:15:00 AM 2.08 35.744 0.153 7.45 20.28 14.45
12/23/2021 4:30:00 AM 2.07 35.726 0.154 7.44 22.49 14.44
12/23/2021 4:45:00 AM 2.05 35.69 0.154 7.43 22.09 14.43
12/23/2021 5:00:00 AM 2.04 35.672 0.153 7.44 25.12 14.43
12/23/2021 5:15:00 AM 2.02 35.636 0.114 7.31 20.7 14.43
12/23/2021 5:30:00 AM 2 35.6 0.081 7.44 20.28 14.42
12/23/2021 5:45:00 AM 1.98 35.564 0.155 7.39 22 14.41
12/23/2021 6:00:00 AM 1.97 35.546 0.153 7.38 20.24 14.4
12/23/2021 6:15:00 AM 1.96 35.528 0.155 7.41 22.38 14.38
12/23/2021 6:30:00 AM 1.93 35.474 0.155 7.41 22.25 14.39
12/23/2021 6:45:00 AM 1.91 35.438 0.148 7.36 20.09 14.4
12/23/2021 7:00:00 AM 1.89 35.402 0.155 7.41 22.06 14.38
12/23/2021 7:15:00 AM 1.87 35.366 0.141 7.4 22.15 14.38
12/23/2021 7:30:00 AM 1.85 35.33 0.155 7.41 20.1 14.38
12/23/2021 7:45:00 AM 1.83 35.294 0.155 7.42 19.33 14.38
12/23/2021 8:00:00 AM 1.81 35.258 0.156 7.42 20.89 14.39
12/23/2021 8:15:00 AM 1.8 35.24 0.156 7.41 21.95 14.38
12/23/2021 8:30:00 AM 1.78 35.204 0.156 7.43 21.89 14.4
12/23/2021 8:45:00 AM 1.77 35.186 0.156 7.41 22.01 14.39
12/23/2021 9:00:00 AM 1.75 35.15 0.155 7.4 21.95 14.4
12/23/2021 9:15:00 AM 1.75 35.15 0.154 7.39 20.22 14.41
12/23/2021 9:30:00 AM 1.74 35.132 0.156 7.42 20.56 14.43
12/23/2021 9:45:00 AM 1.73 35.114 0.153 7.41 23.17 14.43
12/23/2021 10:00:00 AM 1.73 35.114 0.156 7.41 22.94 14.43
12/23/2021 10:15:00 AM 1.72 35.096 0.156 7.43 19.71 14.46
12/23/2021 10:30:00 AM 2.28 36.104 0.16 7.46 19.8 14.55
12/23/2021 10:45:00 AM 2 35.6 0.158 7.44 21.67 14.61
12/23/2021 11:00:00 AM 1.82 35.276 0.156 7.41 19.23 14.52
12/23/2021 11:15:00 AM 1.78 35.204 0.157 7.42 20.99 14.56
12/23/2021 11:30:00 AM 1.79 35.222 0.074 7.43 20.81 14.58
12/23/2021 11:45:00 AM 1.81 35.258 0.157 7.45 19.57 14.6
12/23/2021 12:00:00 PM 1.84 35.312 0.156 7.46 20.04 14.62
12/23/2021 12:15:00 PM 1.87 35.366 0.156 7.46 19.78 14.64
12/23/2021 12:30:00 PM 1.89 35.402 0.156 7.45 20.66 14.65
12/23/2021 12:45:00 PM 1.93 35.474 0.156 7.45 19.48 14.67
12/23/2021 1:00:00 PM 1.96 35.528 0.156 7.47 22.53 14.69
12/23/2021 1:15:00 PM 2 35.6 0.134 7.46 22.98 14.72
12/23/2021 1:30:00 PM 2.03 35.654 0.156 7.47 22.49 14.74
12/23/2021 1:45:00 PM 2.07 35.726 0.156 7.48 19.57 14.75
12/23/2021 2:00:00 PM 2.11 35.798 0.063 7.38 18.51 14.78
12/23/2021 2:15:00 PM 2.14 35.852 0.156 7.47 20.7 14.79
12/23/2021 2:30:00 PM 2.17 35.906 0.065 7.41 20.23 14.8
12/23/2021 2:45:00 PM 2.2 35.96 0.156 7.47 20.33 14.83
12/23/2021 3:00:00 PM 2.22 35.996 0.156 7.53 20.65 14.84
12/23/2021 3:15:00 PM 2.24 36.032 0.156 7.51 20.76 14.86
12/23/2021 3:30:00 PM 2.25 36.05 0.156 7.54 20.32 14.88
12/23/2021 3:45:00 PM 2.25 36.05 0.156 7.51 22.19 14.88
12/23/2021 4:00:00 PM 2.26 36.068 0.063 7.46 20.33 14.91
12/23/2021 4:15:00 PM 2.26 36.068 0.156 7.53 19.31 14.91
12/23/2021 4:30:00 PM 2.26 36.068 0.156 7.54 21.06 14.93
12/23/2021 4:45:00 PM 2.25 36.05 0.155 7.53 20.32 14.94
12/23/2021 5:00:00 PM 2.24 36.032 0.156 7.54 21.78 14.94
12/23/2021 5:15:00 PM 2.23 36.014 0.156 7.55 20.25 14.93
12/23/2021 5:30:00 PM 2.22 35.996 0.138 7.52 22.04 14.95
12/23/2021 5:45:00 PM 2.2 35.96 0.156 7.53 24.29 14.94
12/23/2021 6:00:00 PM 2.19 35.942 0.156 7.56 19.61 14.93
12/23/2021 6:15:00 PM 2.18 35.924 0.156 7.54 22.18 14.92
12/23/2021 6:30:00 PM 2.16 35.888 0.063 7.54 19.22 14.93
12/23/2021 6:45:00 PM 2.15 35.87 0.156 7.55 19.44 14.95
12/23/2021 7:00:00 PM 2.13 35.834 0.055 7.54 19.99 14.93
12/23/2021 7:15:00 PM 2.11 35.798 0.156 7.53 20.53 14.94
12/23/2021 7:30:00 PM 2.09 35.762 0.152 7.55 22.17 14.93
12/23/2021 7:45:00 PM 2.08 35.744 0.156 7.56 20.6 14.94
12/23/2021 8:00:00 PM 2.05 35.69 0.155 7.54 20.61 14.95
12/23/2021 8:15:00 PM 2.03 35.654 0.155 7.54 20.13 14.95
12/23/2021 8:30:00 PM 2.01 35.618 0.156 7.56 20.76 14.95
12/23/2021 8:45:00 PM 1.99 35.582 0.053 7.55 19.99 14.94
12/23/2021 9:00:00 PM 1.96 35.528 0.155 7.54 20.38 14.94
12/23/2021 9:15:00 PM 1.94 35.492 0.068 7.53 20.53 14.94
12/23/2021 9:30:00 PM 1.92 35.456 0.154 7.54 22.6 14.93
12/23/2021 9:45:00 PM 1.9 35.42 0.155 7.54 20.64 14.93
12/23/2021 10:00:00 PM 1.89 35.402 0.155 7.53 20.03 14.93
12/23/2021 10:15:00 PM 1.89 35.402 0.155 7.51 20.84 14.91
12/23/2021 10:30:00 PM 1.89 35.402 0.155 7.54 20.73 14.9
12/23/2021 10:45:00 PM 1.9 35.42 0.075 7.52 19.85 14.89
12/23/2021 11:00:00 PM 1.91 35.438 0.155 7.47 20.9 14.88
12/23/2021 11:15:00 PM 1.91 35.438 0.155 7.53 20.29 14.87
12/23/2021 11:30:00 PM 1.92 35.456 0.144 7.44 18.66 14.87
12/23/2021 11:45:00 PM 1.92 35.456 0.155 7.51 22.16 14.86
12/24/2021 12:00:00 AM 1.93 35.474 0.155 7.51 19.96 14.86
12/24/2021 12:15:00 AM 1.94 35.492 0.155 7.52 20.06 14.85
12/24/2021 12:30:00 AM 1.95 35.51 0.155 7.51 21.71 14.84
12/24/2021 12:45:00 AM 1.96 35.528 0.155 7.52 20.61 14.83
12/24/2021 1:00:00 AM 1.96 35.528 0.155 7.51 20.44 14.82
12/24/2021 1:15:00 AM 1.95 35.51 0.155 7.5 21.42 14.82
12/24/2021 1:30:00 AM 1.94 35.492 0.053 7.49 18.61 14.81
12/24/2021 1:45:00 AM 1.93 35.474 0.155 7.51 21.35 14.79
12/24/2021 2:00:00 AM 1.92 35.456 0.153 7.41 19.37 14.78
12/24/2021 2:15:00 AM 1.92 35.456 0.154 7.47 19.51 14.76
12/24/2021 2:30:00 AM 1.92 35.456 0.144 7.47 18.2 14.77
12/24/2021 2:45:00 AM 1.92 35.456 0.154 7.48 21.72 14.76
12/24/2021 3:00:00 AM 1.92 35.456 0.153 7.49 18.99 14.74
12/24/2021 3:15:00 AM 1.92 35.456 0.149 7.35 22.09 14.74
12/24/2021 3:30:00 AM 1.93 35.474 0.102 7.49 22.71 14.74
12/24/2021 3:45:00 AM 1.93 35.474 0.153 7.48 21.63 14.71
12/24/2021 4:00:00 AM 1.93 35.474 0.139 7.47 20.31 14.7
12/24/2021 4:15:00 AM 1.93 35.474 0.153 7.5 18.73 14.69
12/24/2021 4:30:00 AM 1.93 35.474 0.15 7.46 19.61 14.68
12/24/2021 4:45:00 AM 1.92 35.456 0.153 7.47 21.82 14.67
12/24/2021 5:00:00 AM 1.92 35.456 0.153 7.44 17.43 14.66
12/24/2021 5:15:00 AM 1.91 35.438 0.153 7.48 21.68 14.64
12/24/2021 5:30:00 AM 1.9 35.42 0.153 7.45 21.82 14.64
12/24/2021 5:45:00 AM 1.89 35.402 0.152 7.41 21.91 14.61
12/24/2021 6:00:00 AM 1.88 35.384 0.152 7.39 19.78 14.61
12/24/2021 6:15:00 AM 1.88 35.384 0.15 7.42 19.34 14.6
12/24/2021 6:30:00 AM 1.87 35.366 0.145 7.28 21.85 14.59
12/24/2021 6:45:00 AM 1.88 35.384 0.152 7.44 22.1 14.56
12/24/2021 7:00:00 AM 1.87 35.366 0.152 7.34 21.91 14.56
12/24/2021 7:15:00 AM 1.87 35.366 0.152 7.43 19.86 14.56
12/24/2021 7:30:00 AM 1.87 35.366 0.152 7.44 21.92 14.54
12/24/2021 7:45:00 AM 1.87 35.366 0.063 7.42 20.2 14.54
12/24/2021 8:00:00 AM 1.87 35.366 0.086 7.4 22.25 14.52
12/24/2021 8:15:00 AM 1.87 35.366 0.152 7.4 21.52 14.52
12/24/2021 8:30:00 AM 1.86 35.348 0.152 7.44 22.05 14.52
12/24/2021 8:45:00 AM 1.86 35.348 0.152 7.45 21.95 14.51
12/24/2021 9:00:00 AM 1.87 35.366 0.152 7.37 21.83 14.52
12/24/2021 9:15:00 AM 1.87 35.366 0.152 7.44 21.83 14.51
12/24/2021 9:30:00 AM 1.88 35.384 0.152 7.39 22.04 14.51
12/24/2021 9:45:00 AM 1.89 35.402 0.152 7.39 19.12 14.53
12/24/2021 10:00:00 AM 1.89 35.402 0.152 7.43 20.6 14.53
12/24/2021 10:15:00 AM 1.9 35.42 0.114 7.36 18.6 14.57
12/24/2021 10:30:00 AM 1.91 35.438 0.152 7.45 19.43 14.59
12/24/2021 10:45:00 AM 1.92 35.456 0.148 7.44 21.76 14.58
12/24/2021 11:00:00 AM 1.93 35.474 0.152 7.45 22.26 14.61
12/24/2021 11:15:00 AM 1.94 35.492 0.062 7.45 18.16 14.64
12/24/2021 11:30:00 AM 1.97 35.546 0.151 7.38 19.12 14.66
12/24/2021 11:45:00 AM 2 35.6 0.151 7.44 17.71 14.66
12/24/2021 12:00:00 PM 2.03 35.654 0.151 7.46 21.81 14.67
12/24/2021 12:15:00 PM 2.06 35.708 0.149 7.47 18.93 14.7
12/24/2021 12:30:00 PM 2.09 35.762 0.062 7.46 17.61 14.73
12/24/2021 12:45:00 PM 2.12 35.816 0.061 7.47 20.98 14.74
12/24/2021 1:00:00 PM 2.14 35.852 0.151 7.46 22.12 14.76
12/24/2021 1:15:00 PM 2.18 35.924 0.091 7.4 17.51 14.78
12/24/2021 1:30:00 PM 2.21 35.978 0.149 7.47 21.93 14.78
12/24/2021 1:45:00 PM 2.24 36.032 0.151 7.5 19.9 14.8
12/24/2021 2:00:00 PM 2.27 36.086 0.15 7.5 21.94 14.81
12/24/2021 2:15:00 PM 2.3 36.14 0.147 7.48 22.08 14.85
12/24/2021 2:30:00 PM 2.64 36.752 0.161 7.44 17.43 14.71
12/24/2021 2:45:00 PM 2.48 36.464 0.157 7.38 21.22 14.62
12/24/2021 3:00:00 PM 2.4 36.32 0.061 7.47 19.77 14.82
12/24/2021 3:15:00 PM 2.4 36.32 0.151 7.45 21.79 14.87
12/24/2021 3:30:00 PM 2.42 36.356 0.146 7.5 24.19 14.89
12/24/2021 3:45:00 PM 2.44 36.392 0.151 7.52 19.7 14.89
12/24/2021 4:00:00 PM 2.45 36.41 0.11 7.5 18.59 14.94
12/24/2021 4:15:00 PM 2.47 36.446 0.149 7.48 21.22 14.92
12/24/2021 4:30:00 PM 2.48 36.464 0.15 7.52 21.41 14.94
12/24/2021 4:45:00 PM 2.49 36.482 0.15 7.49 20.63 14.95
12/24/2021 5:00:00 PM 2.49 36.482 0.15 7.53 21.64 14.96
12/24/2021 5:15:00 PM 2.49 36.482 0.089 7.53 18.97 14.95
12/24/2021 5:30:00 PM 2.49 36.482 0.149 7.51 21.21 14.95
12/24/2021 5:45:00 PM 2.49 36.482 0.149 7.5 21.82 14.96
12/24/2021 6:00:00 PM 2.49 36.482 0.15 7.49 17.26 14.96
12/24/2021 6:15:00 PM 2.48 36.464 0.149 7.55 25.31 14.95
12/24/2021 6:30:00 PM 2.47 36.446 0.15 7.55 20.36 14.95
12/24/2021 6:45:00 PM 2.46 36.428 0.149 7.52 21.38 14.95
12/24/2021 7:00:00 PM 2.45 36.41 0.071 7.54 18.49 14.92
12/24/2021 7:15:00 PM 2.44 36.392 0.148 7.49 21.18 14.92
12/24/2021 7:30:00 PM 2.42 36.356 0.15 7.53 21.28 14.95
12/24/2021 7:45:00 PM 2.41 36.338 0.15 7.55 20.61 14.93
12/24/2021 8:00:00 PM 2.39 36.302 0.145 7.52 21.7 14.92
12/24/2021 8:15:00 PM 2.38 36.284 0.149 7.53 20.05 14.91
12/24/2021 8:30:00 PM 2.36 36.248 0.148 7.46 19.14 14.91
12/24/2021 8:45:00 PM 2.34 36.212 0.136 7.37 20.23 14.91
12/24/2021 9:00:00 PM 2.33 36.194 0.15 7.52 19.38 14.92
12/24/2021 9:15:00 PM 2.32 36.176 0.15 7.54 19.94 14.9
12/24/2021 9:30:00 PM 2.31 36.158 0.15 7.51 21.91 14.9
12/24/2021 9:45:00 PM 2.31 36.158 0.15 7.54 19.48 14.89
12/24/2021 10:00:00 PM 2.31 36.158 0.15 7.48 19.95 14.88
12/24/2021 10:15:00 PM 2.31 36.158 0.149 7.44 20.61 14.87
12/24/2021 10:30:00 PM 2.3 36.14 0.15 7.51 20.55 14.86
12/24/2021 10:45:00 PM 2.31 36.158 0.15 7.52 21.8 14.85
12/24/2021 11:00:00 PM 2.32 36.176 0.15 7.5 19.47 14.83
12/24/2021 11:15:00 PM 2.33 36.194 0.15 7.5 22.55 14.82
12/24/2021 11:30:00 PM 2.33 36.194 0.15 7.53 0.47 14.82
12/24/2021 11:45:00 PM 2.35 36.23 0.15 7.5 19.71 14.8
12/25/2021 12:00:00 AM 2.36 36.248 0.15 7.49 18.48 14.79
12/25/2021 12:15:00 AM 2.37 36.266 0.148 7.48 21.74 14.78
12/25/2021 12:30:00 AM 2.38 36.284 0.058 7.48 20 14.77
12/25/2021 12:45:00 AM 2.39 36.302 0.073 7.42 21.74 14.76
12/25/2021 1:00:00 AM 2.4 36.32 0.149 7.48 21.95 14.75
12/25/2021 1:15:00 AM 2.41 36.338 0.149 7.49 21.91 14.74
12/25/2021 1:30:00 AM 2.42 36.356 0.143 7.49 18.89 14.74
12/25/2021 1:45:00 AM 2.42 36.356 0.148 7.46 18.82 14.73
12/25/2021 2:00:00 AM 2.43 36.374 0.139 7.41 21.95 14.74
12/25/2021 2:15:00 AM 2.44 36.392 0.147 7.45 20.02 14.71
12/25/2021 2:30:00 AM 2.45 36.41 0.147 7.46 20.37 14.7
12/25/2021 2:45:00 AM 2.45 36.41 0.148 7.47 19.12 14.7
12/25/2021 3:00:00 AM 2.46 36.428 0.124 7.48 20.48 14.67
12/25/2021 3:15:00 AM 2.46 36.428 0.148 7.47 20.28 14.67
12/25/2021 3:30:00 AM 2.46 36.428 0.147 7.47 20.53 14.66
12/25/2021 3:45:00 AM 2.47 36.446 0.147 7.47 19.12 14.64
12/25/2021 4:00:00 AM 2.47 36.446 0.147 7.47 18.84 14.62
12/25/2021 4:15:00 AM 2.48 36.464 0.148 7.45 20.85 14.62
12/25/2021 4:30:00 AM 2.48 36.464 0.147 7.46 22.16 14.61
12/25/2021 4:45:00 AM 2.48 36.464 0.148 7.42 20.33 14.59
12/25/2021 5:00:00 AM 2.49 36.482 0.091 7.46 18.46 14.58
12/25/2021 5:15:00 AM 2.49 36.482 0.147 7.45 20.63 14.56
12/25/2021 5:30:00 AM 2.49 36.482 0.11 7.46 19.06 14.55
12/25/2021 5:45:00 AM 2.49 36.482 0.147 7.45 22.22 14.53
12/25/2021 6:00:00 AM 2.49 36.482 0.147 7.46 22.13 14.53
12/25/2021 6:15:00 AM 2.49 36.482 0.147 7.44 18.97 14.49
12/25/2021 6:30:00 AM 2.49 36.482 0.147 7.44 18.13 14.48
12/25/2021 6:45:00 AM 2.49 36.482 0.147 7.43 19.58 14.46
12/25/2021 7:00:00 AM 2.5 36.5 0.142 7.43 21.87 14.45
12/25/2021 7:15:00 AM 2.5 36.5 0.147 7.43 18.95 14.44
12/25/2021 7:30:00 AM 2.5 36.5 0.147 7.42 18.84 14.43
12/25/2021 7:45:00 AM 2.57 36.626 0.156 7.43 18.19 14.44
12/25/2021 8:00:00 AM 2.57 36.626 0.156 7.37 18.46 14.34
12/25/2021 8:15:00 AM 2.52 36.536 0.149 7.4 18.72 14.37
12/25/2021 8:30:00 AM 2.51 36.518 0.147 7.41 17.36 14.35
12/25/2021 8:45:00 AM 2.51 36.518 0.148 7.42 19.15 14.34
12/25/2021 9:00:00 AM 2.52 36.536 0.147 7.41 19.15 14.33
12/25/2021 9:15:00 AM 2.52 36.536 0.104 7.41 18.69 14.35
12/25/2021 9:30:00 AM 2.52 36.536 0.147 7.38 18.5 14.33
12/25/2021 9:45:00 AM 2.53 36.554 0.06 7.41 21.68 14.34
12/25/2021 10:00:00 AM 2.53 36.554 0.145 7.4 17.95 14.32
12/25/2021 10:15:00 AM 2.54 36.572 0.147 7.38 20.38 14.34
12/25/2021 10:30:00 AM 2.54 36.572 0.147 7.39 21.91 14.33
12/25/2021 10:45:00 AM 2.55 36.59 0.146 7.4 22.14 14.34
12/25/2021 11:00:00 AM 2.56 36.608 0.147 7.34 22.11 14.35
12/25/2021 11:15:00 AM 2.57 36.626 0.146 7.42 21.71 14.37
12/25/2021 11:30:00 AM 2.59 36.662 0.146 7.39 20.1 14.36
12/25/2021 11:45:00 AM 2.6 36.68 0.145 7.44 21.48 14.38
12/25/2021 12:00:00 PM 2.62 36.716 0.147 7.42 19.33 14.39
12/25/2021 12:15:00 PM 2.64 36.752 0.145 7.41 22.28 14.39
12/25/2021 12:30:00 PM 2.66 36.788 0.146 7.42 22.13 14.41
12/25/2021 12:45:00 PM 2.68 36.824 0.146 7.42 19.43 14.42
12/25/2021 1:00:00 PM 2.7 36.86 0.146 7.42 22.13 14.43
12/25/2021 1:15:00 PM 2.73 36.914 0.146 7.17 20.28 14.45
12/25/2021 1:30:00 PM 2.75 36.95 0.146 7.44 20.72 14.47
12/25/2021 1:45:00 PM 2.78 37.004 0.145 7.43 19.61 14.47
12/25/2021 2:00:00 PM 2.8 37.04 0.146 7.44 19.63 14.48
12/25/2021 2:15:00 PM 2.82 37.076 0.145 7.45 19.06 14.49
12/25/2021 2:30:00 PM 2.85 37.13 0.145 7.46 18.5 14.5
12/25/2021 2:45:00 PM 2.87 37.166 0.139 7.4 19.22 14.52
12/25/2021 3:00:00 PM 2.89 37.202 0.106 7.41 22.06 14.52
12/25/2021 3:15:00 PM 2.9 37.22 0.145 7.46 19.64 14.52
12/25/2021 3:30:00 PM 2.92 37.256 0.145 7.45 21.9 14.52
12/25/2021 3:45:00 PM 3.03 37.454 0.138 7.4 19.71 14.55
12/25/2021 4:00:00 PM 2.93 37.274 0.048 7.43 18.75 14.44
12/25/2021 4:15:00 PM 2.94 37.292 0.148 7.41 21.59 14.46
12/25/2021 4:30:00 PM 2.96 37.328 0.145 7.45 20 14.55
12/25/2021 4:45:00 PM 2.97 37.346 0.145 7.47 21.9 14.55
12/25/2021 5:00:00 PM 2.97 37.346 0.117 7.47 21.72 14.57
12/25/2021 5:15:00 PM 2.97 37.346 0.144 7.47 22.1 14.57
12/25/2021 5:30:00 PM 2.98 37.364 0.143 7.49 22.11 14.57
12/25/2021 5:45:00 PM 2.99 37.382 0.145 7.48 18.59 14.56
12/25/2021 6:00:00 PM 2.99 37.382 0.144 7.49 19.11 14.55
12/25/2021 6:15:00 PM 3 37.4 0.142 7.46 21.95 14.55
12/25/2021 6:30:00 PM 3.01 37.418 0.143 7.48 21.82 14.54
12/25/2021 6:45:00 PM 3.02 37.436 0.144 7.47 21.96 14.54
12/25/2021 7:00:00 PM 3.03 37.454 0.118 7.49 18.61 14.53
12/25/2021 7:15:00 PM 3.04 37.472 0.144 7.49 19.42 14.54
12/25/2021 7:30:00 PM 3.04 37.472 0.145 7.49 21.93 14.52
12/25/2021 7:45:00 PM 3.05 37.49 0.145 7.48 18.77 14.5
12/25/2021 8:00:00 PM 3.05 37.49 0.07 7.5 19.25 14.49
12/25/2021 8:15:00 PM 3.05 37.49 0.063 7.48 20.34 14.47
12/25/2021 8:30:00 PM 3.04 37.472 0.066 7.49 15.35 14.47
12/25/2021 8:45:00 PM 3.05 37.49 0.145 7.48 22.03 14.46
12/25/2021 9:00:00 PM 3.05 37.49 0.145 7.48 20.11 14.46
12/25/2021 9:15:00 PM 3.05 37.49 0.077 7.49 19.38 14.45
12/25/2021 9:30:00 PM 3.05 37.49 0.143 7.47 22.15 14.44
12/25/2021 9:45:00 PM 3.05 37.49 0.145 7.46 21.91 14.43
12/25/2021 10:00:00 PM 3.06 37.508 0.145 7.47 18.77 14.41
12/25/2021 10:15:00 PM 3.06 37.508 0.094 7.46 21.85 14.4
12/25/2021 10:30:00 PM 3.07 37.526 0.145 7.47 18.49 14.39
12/25/2021 10:45:00 PM 3.07 37.526 0.142 7.47 18.85 14.38
12/25/2021 11:00:00 PM 3.07 37.526 0.145 7.46 21.98 14.36
12/25/2021 11:15:00 PM 3.08 37.544 0.06 7.46 18.76 14.36
12/25/2021 11:30:00 PM 3.07 37.526 0.132 7.45 22 14.34
12/25/2021 11:45:00 PM 3.07 37.526 0.144 7.44 18.92 14.33
12/26/2021 12:00:00 AM 3.08 37.544 0.141 7.44 19.87 14.31
12/26/2021 12:15:00 AM 3.07 37.526 0.144 7.44 22.19 14.32
12/26/2021 12:30:00 AM 3.08 37.544 0.06 7.46 18.84 14.3
12/26/2021 12:45:00 AM 3.08 37.544 0.144 7.44 19.6 14.3
12/26/2021 1:00:00 AM 3.09 37.562 0.129 7.45 22.75 14.3
12/26/2021 1:15:00 AM 3.1 37.58 0.144 7.45 19.63 14.29
12/26/2021 1:30:00 AM 3.1 37.58 0.144 7.45 18.13 14.28
12/26/2021 1:45:00 AM 3.11 37.598 0.144 7.44 19.2 14.28
12/26/2021 2:00:00 AM 3.12 37.616 0.144 7.43 19.24 14.27
12/26/2021 2:15:00 AM 3.12 37.616 0.142 7.4 21.77 14.28
12/26/2021 2:30:00 AM 3.13 37.634 0.142 7.43 20.65 14.26
12/26/2021 2:45:00 AM 3.12 37.616 0.042 7.44 20.01 14.24
12/26/2021 3:00:00 AM 3.13 37.634 0.144 7.45 20.27 14.24
12/26/2021 3:15:00 AM 3.13 37.634 0.086 7.44 20.09 14.25
12/26/2021 3:30:00 AM 3.13 37.634 0.107 7.45 20.55 14.23
12/26/2021 3:45:00 AM 3.13 37.634 0.141 7.44 22.07 14.22
12/26/2021 4:00:00 AM 3.14 37.652 0.144 7.44 21.84 14.22
12/26/2021 4:15:00 AM 3.15 37.67 0.144 7.41 20.67 14.21
12/26/2021 4:30:00 AM 3.15 37.67 0.144 7.42 20.78 14.21
12/26/2021 4:45:00 AM 3.15 37.67 0.108 7.43 22.37 14.2
12/26/2021 5:00:00 AM 3.15 37.67 0.137 7.45 19.53 14.18
12/26/2021 5:15:00 AM 3.15 37.67 0.144 7.43 20.64 14.17
12/26/2021 5:30:00 AM 3.15 37.67 0.142 7.44 20.7 14.16
12/26/2021 5:45:00 AM 3.16 37.688 0.052 7.44 20.65 14.15
12/26/2021 6:00:00 AM 3.16 37.688 0.144 7.42 22.11 14.14
12/26/2021 6:15:00 AM 3.16 37.688 0.144 7.43 19.58 14.13
12/26/2021 6:30:00 AM 3.16 37.688 0.144 7.44 22 14.13
12/26/2021 6:45:00 AM 3.16 37.688 0.133 7.42 20.54 14.11
12/26/2021 7:00:00 AM 3.15 37.67 0.06 7.44 18.39 14.1
12/26/2021 7:15:00 AM 3.14 37.652 0.145 7.43 19.62 14.09
12/26/2021 7:30:00 AM 3.13 37.634 0.144 7.42 19.13 14.08
12/26/2021 7:45:00 AM 3.12 37.616 0.144 7.41 22.02 14.07
12/26/2021 8:00:00 AM 3.11 37.598 0.144 7.44 21.85 14.06
12/26/2021 8:15:00 AM 3.1 37.58 0.144 7.4 21.92 14.06
12/26/2021 8:30:00 AM 3.09 37.562 0.145 7.4 22.02 14.06
12/26/2021 8:45:00 AM 3.07 37.526 0.141 7.41 18.61 14.06
12/26/2021 9:00:00 AM 3.06 37.508 0.059 7.42 19.49 14.05
12/26/2021 9:15:00 AM 3.05 37.49 0.12 7.4 18.67 14.06
12/26/2021 9:30:00 AM 3.05 37.49 0.144 7.4 19.05 14.06
12/26/2021 9:45:00 AM 3.05 37.49 0.143 7.41 20.68 14.09
12/26/2021 10:00:00 AM 3.05 37.49 0.144 7.42 20.07 14.09
12/26/2021 10:15:00 AM 3.07 37.526 0.144 7.42 22.13 14.11
12/26/2021 10:30:00 AM 3.09 37.562 0.143 7.35 19.9 14.13
12/26/2021 10:45:00 AM 3.12 37.616 0.129 7.42 18.95 14.15
12/26/2021 11:00:00 AM 3.15 37.67 0.144 7.43 19.44 14.16
12/26/2021 11:15:00 AM 3.18 37.724 0.144 7.43 19.41 14.18
12/26/2021 11:30:00 AM 3.22 37.796 0.056 7.45 19.01 14.21
12/26/2021 11:45:00 AM 3.26 37.868 0.144 7.45 19.15 14.23
12/26/2021 12:00:00 PM 3.3 37.94 0.144 7.44 21.95 14.24
12/26/2021 12:15:00 PM 3.35 38.03 0.144 7.43 19.51 14.26
12/26/2021 12:30:00 PM 3.4 38.12 0.139 7.46 21 14.29
12/26/2021 12:45:00 PM 3.45 38.21 0.144 7.44 19.65 14.3
12/26/2021 1:00:00 PM 3.5 38.3 0.144 7.46 20.06 14.34
12/26/2021 1:15:00 PM 3.55 38.39 0.144 7.46 22 14.35
12/26/2021 1:30:00 PM 3.6 38.48 0.144 7.47 22.11 14.36
12/26/2021 1:45:00 PM 3.65 38.57 0.143 7.47 23.4 14.4
12/26/2021 2:00:00 PM 3.69 38.642 0.143 7.49 19.36 14.42
12/26/2021 2:15:00 PM 3.75 38.75 0.135 7.48 21.99 14.45
12/26/2021 2:30:00 PM 3.8 38.84 0.143 7.51 18.64 14.45
12/26/2021 2:45:00 PM 3.83 38.894 0.123 7.51 22.02 14.47
12/26/2021 3:00:00 PM 3.87 38.966 0.143 7.51 19.26 14.5
12/26/2021 3:15:00 PM 3.89 39.002 0.144 7.51 20 14.5
12/26/2021 3:30:00 PM 3.91 39.038 0.144 7.52 21.99 14.52
12/26/2021 3:45:00 PM 3.92 39.056 0.144 7.52 22.14 14.53
12/26/2021 4:00:00 PM 3.93 39.074 0.144 7.54 22 14.57
12/26/2021 4:15:00 PM 4.03 39.254 0.148 7.54 22.26 14.53
12/26/2021 4:30:00 PM 3.84 38.912 0.153 7.5 16.85 14.42
12/26/2021 4:45:00 PM 3.85 38.93 0.147 7.46 20.06 14.42
12/26/2021 5:00:00 PM 3.9 39.02 0.098 7.54 20.27 14.55
12/26/2021 5:15:00 PM 3.87 38.966 0.143 7.54 17.42 14.56
12/26/2021 5:30:00 PM 3.82 38.876 0.144 7.55 18.8 14.54
12/26/2021 5:45:00 PM 3.78 38.804 0.143 7.56 17.91 14.55
12/26/2021 6:00:00 PM 3.77 38.786 0.143 7.57 20.1 14.53
12/26/2021 6:15:00 PM 3.78 38.804 0.142 7.54 18.55 14.52
12/26/2021 6:30:00 PM 3.78 38.804 0.143 7.54 19.13 14.54
12/26/2021 6:45:00 PM 3.77 38.786 0.142 7.55 13.23 14.53
12/26/2021 7:00:00 PM 3.74 38.732 0.142 7.54 17.03 14.52
12/26/2021 7:15:00 PM 3.7 38.66 0.097 7.55 20.53 14.53
12/26/2021 7:30:00 PM 3.66 38.588 0.142 7.53 18.03 14.52
12/26/2021 7:45:00 PM 3.62 38.516 0.142 7.53 20.06 14.51
12/26/2021 8:00:00 PM 3.59 38.462 0.142 7.55 17.44 14.5
12/26/2021 8:15:00 PM 3.56 38.408 0.074 7.54 19.69 14.51
12/26/2021 8:30:00 PM 3.54 38.372 0.142 7.54 17.5 14.52
12/26/2021 8:45:00 PM 3.51 38.318 0.142 7.55 19.67 14.51
12/26/2021 9:00:00 PM 3.49 38.282 0.051 7.5 16.74 14.52
12/26/2021 9:15:00 PM 3.48 38.264 0.065 7.54 20.3 14.52
12/26/2021 9:30:00 PM 3.46 38.228 0.081 7.53 19.8 14.51
12/26/2021 9:45:00 PM 3.45 38.21 0.141 7.5 17.24 14.51
12/26/2021 10:00:00 PM 3.44 38.192 0.142 7.53 19.92 14.5
12/26/2021 10:15:00 PM 3.43 38.174 0.142 7.53 17.85 14.48
12/26/2021 10:30:00 PM 3.43 38.174 0.053 7.52 16.67 14.48
12/26/2021 10:45:00 PM 3.42 38.156 0.141 7.54 0.23 14.45
12/26/2021 11:00:00 PM 3.41 38.138 0.14 7.53 14.12 14.44
12/26/2021 11:15:00 PM 3.4 38.12 0.047 7.52 12.36 14.41
12/26/2021 11:30:00 PM 3.39 38.102 0.054 7.5 16.73 14.4
12/26/2021 11:45:00 PM 3.39 38.102 0.074 7.5 16.62 14.38
12/27/2021 12:00:00 AM 3.4 38.12 0.141 7.5 17.21 14.37
12/27/2021 12:15:00 AM 3.41 38.138 0.142 7.49 19.97 14.35
12/27/2021 12:30:00 AM 3.43 38.174 0.142 7.51 20.05 14.35
12/27/2021 12:45:00 AM 3.44 38.192 0.14 7.5 20.05 14.33
12/27/2021 1:00:00 AM 3.45 38.21 0.142 7.5 15.59 14.33
12/27/2021 1:15:00 AM 3.47 38.246 0.086 7.5 19.73 14.32
12/27/2021 1:30:00 AM 3.47 38.246 0.142 7.5 17.35 14.31
12/27/2021 1:45:00 AM 3.48 38.264 0.141 7.48 17.89 14.29
12/27/2021 2:00:00 AM 3.48 38.264 0.14 7.5 16.79 14.28
12/27/2021 2:15:00 AM 3.48 38.264 0.141 7.49 19.94 14.27
12/27/2021 2:30:00 AM 3.48 38.264 0.142 7.48 18.21 14.25
12/27/2021 2:45:00 AM 3.48 38.264 0.141 7.48 19.95 14.25
12/27/2021 3:00:00 AM 3.48 38.264 0.142 7.47 16.91 14.24
12/27/2021 3:15:00 AM 3.48 38.264 0.142 7.49 17.96 14.22
12/27/2021 3:30:00 AM 3.47 38.246 0.142 7.48 17.63 14.2
12/27/2021 3:45:00 AM 3.46 38.228 0.14 7.34 18.46 14.19
12/27/2021 4:00:00 AM 3.46 38.228 0.142 7.48 20.05 14.18
12/27/2021 4:15:00 AM 3.45 38.21 0.076 7.46 18.02 14.15
12/27/2021 4:30:00 AM 3.45 38.21 0.142 7.43 17.67 14.14
12/27/2021 4:45:00 AM 3.45 38.21 0.143 7.45 17.56 14.12
12/27/2021 5:00:00 AM 3.45 38.21 0.121 7.42 16.86 14.11
12/27/2021 5:15:00 AM 3.45 38.21 0.143 7.45 19.65 14.1
12/27/2021 5:30:00 AM 3.44 38.192 0.143 7.44 17.55 14.08
12/27/2021 5:45:00 AM 3.44 38.192 0.138 7.43 18.53 14.06
12/27/2021 6:00:00 AM 3.44 38.192 0.142 7.42 17.53 14.05
12/27/2021 6:15:00 AM 3.43 38.174 0.142 7.43 -0.13 14.02
12/27/2021 6:30:00 AM 3.43 38.174 0.142 7.43 17.13 14.02
12/27/2021 6:45:00 AM 3.43 38.174 0.142 7.42 17.21 14
12/27/2021 7:00:00 AM 3.42 38.156 0.142 7.45 19.28 13.99
12/27/2021 7:15:00 AM 3.42 38.156 0.069 7.33 17.62 13.99
12/27/2021 7:30:00 AM 3.41 38.138 0.142 7.41 17.52 13.97
12/27/2021 7:45:00 AM 3.4 38.12 0.138 7.27 12.23 13.96
12/27/2021 8:00:00 AM 3.4 38.12 0.142 7.41 17.68 13.94
12/27/2021 8:15:00 AM 3.39 38.102 0.141 7.39 16.76 13.92
12/27/2021 8:30:00 AM 3.39 38.102 0.142 7.42 17.76 13.92
12/27/2021 8:45:00 AM 3.39 38.102 0.142 7.38 17.41 13.9
12/27/2021 9:00:00 AM 3.39 38.102 0.14 7.41 1.35 13.91
12/27/2021 9:15:00 AM 3.39 38.102 0.142 7.38 17.45 13.9
12/27/2021 9:30:00 AM 3.39 38.102 0.142 7.41 17.23 13.9
12/27/2021 9:45:00 AM 3.39 38.102 0.14 7.39 16.99 13.9
12/27/2021 10:00:00 AM 3.39 38.102 0.142 7.4 19.48 13.89
12/27/2021 10:15:00 AM 3.46 38.228 0.15 7.34 17.62 14.13
12/27/2021 10:30:00 AM 3.45 38.21 0.149 7.4 19.1 14.09
12/27/2021 10:45:00 AM 3.42 38.156 0.143 7.38 19.47 13.95
12/27/2021 11:00:00 AM 3.41 38.138 0.142 7.41 17.77 13.93
12/27/2021 11:15:00 AM 3.42 38.156 0.142 7.42 14.95 13.94
12/27/2021 11:30:00 AM 3.43 38.174 0.142 7.4 19.69 13.95
12/27/2021 11:45:00 AM 3.45 38.21 0.142 7.4 16.82 13.98
12/27/2021 12:00:00 PM 3.46 38.228 0.045 7.39 17.16 13.99
12/27/2021 12:15:00 PM 3.48 38.264 0.139 7.42 18.15 14.01
12/27/2021 12:30:00 PM 3.49 38.282 0.142 7.43 17.72 14.02
12/27/2021 12:45:00 PM 3.51 38.318 0.142 7.36 19.17 14.03
12/27/2021 1:00:00 PM 3.51 38.318 0.055 7.43 18.82 14.06
12/27/2021 1:15:00 PM 3.52 38.336 0.142 7.4 18.03 14.07
12/27/2021 1:30:00 PM 3.52 38.336 0.142 7.46 19.78 14.08
12/27/2021 1:45:00 PM 3.53 38.354 0.142 7.44 19.71 14.08
12/27/2021 2:00:00 PM 3.53 38.354 0.142 7.45 19.72 14.08
12/27/2021 2:15:00 PM 3.54 38.372 0.142 7.45 17.9 14.08
12/27/2021 2:30:00 PM 3.54 38.372 0.143 7.46 18.1 14.07
12/27/2021 2:45:00 PM 3.55 38.39 0.143 7.45 17.71 14.08
12/27/2021 3:00:00 PM 3.55 38.39 0.142 7.46 19.69 14.08
12/27/2021 3:15:00 PM 3.55 38.39 0.142 7.44 19.61 14.08
12/27/2021 3:30:00 PM 3.55 38.39 0.142 7.47 18.01 14.09
12/27/2021 3:45:00 PM 3.55 38.39 0.142 7.45 19.98 14.11
12/27/2021 4:00:00 PM 3.55 38.39 0.142 7.46 18.23 14.11
12/27/2021 4:15:00 PM 3.55 38.39 0.142 7.46 19.97 14.1
12/27/2021 4:30:00 PM 3.56 38.408 0.141 7.46 19.87 14.11
12/27/2021 4:45:00 PM 3.56 38.408 0.116 7.45 17.44 14.12
12/27/2021 5:00:00 PM 3.55 38.39 0.141 7.46 16.88 14.13
12/27/2021 5:15:00 PM 3.54 38.372 0.093 7.48 20.84 14.13
12/27/2021 5:30:00 PM 3.54 38.372 0.142 7.47 17.41 14.13
12/27/2021 5:45:00 PM 3.53 38.354 0.142 7.46 17.43 14.13
12/27/2021 6:00:00 PM 3.53 38.354 0.06 7.46 17.79 14.15
12/27/2021 6:15:00 PM 3.53 38.354 0.142 7.49 16.99 14.14
12/27/2021 6:30:00 PM 3.53 38.354 0.139 7.45 19.74 14.14
12/27/2021 6:45:00 PM 3.53 38.354 0.142 7.45 18.75 14.13
12/27/2021 7:00:00 PM 3.53 38.354 0.148 7.45 19.35 14.16
12/27/2021 7:15:00 PM 3.55 38.39 0.147 7.42 17.88 14.1
12/27/2021 7:30:00 PM 3.53 38.354 0.142 7.46 19.27 14.1
12/27/2021 7:45:00 PM 3.52 38.336 0.075 7.45 18.06 14.1
12/27/2021 8:00:00 PM 3.52 38.336 0.142 7.44 19.98 14.08
12/27/2021 8:15:00 PM 3.52 38.336 0.138 7.45 18.63 14.06
12/27/2021 8:30:00 PM 3.51 38.318 0.142 7.45 17.01 14.06
12/27/2021 8:45:00 PM 3.51 38.318 0.053 7.45 18.44 14.05
12/27/2021 9:00:00 PM 3.52 38.336 0.142 7.43 17.93 14.04
12/27/2021 9:15:00 PM 3.52 38.336 0.142 7.47 18.95 14.04
12/27/2021 9:30:00 PM 3.53 38.354 0.142 7.46 17.8 14.03
12/27/2021 9:45:00 PM 3.53 38.354 0.141 7.38 19.42 14.02
12/27/2021 10:00:00 PM 3.54 38.372 0.142 7.42 20.04 14.01
12/27/2021 10:15:00 PM 3.55 38.39 0.142 7.42 19.89 14.01
12/27/2021 10:30:00 PM 3.55 38.39 0.142 7.44 20.2 14
12/27/2021 10:45:00 PM 3.56 38.408 0.142 7.42 18.69 14
12/27/2021 11:00:00 PM 3.56 38.408 0.13 7.27 17.68 13.99
12/27/2021 11:15:00 PM 3.57 38.426 0.142 7.47 17.87 13.98
12/27/2021 11:30:00 PM 3.57 38.426 0.142 7.44 18.06 13.98
12/27/2021 11:45:00 PM 3.57 38.426 0.128 7.43 17.06 13.97
12/28/2021 12:00:00 AM 3.58 38.444 0.123 7.45 18.11 13.96
12/28/2021 12:15:00 AM 3.58 38.444 0.143 7.44 19.94 13.96
12/28/2021 12:30:00 AM 3.59 38.462 0.143 7.45 19.96 13.96
12/28/2021 12:45:00 AM 3.59 38.462 0.142 7.39 19.51 13.96
12/28/2021 1:00:00 AM 3.59 38.462 0.082 7.43 19.93 13.95
12/28/2021 1:15:00 AM 3.59 38.462 0.143 7.45 19.71 13.96
12/28/2021 1:30:00 AM 3.59 38.462 0.142 7.45 20.06 13.95
12/28/2021 1:45:00 AM 3.59 38.462 0.139 7.44 17.51 13.94
12/28/2021 2:00:00 AM 3.59 38.462 0.136 7.43 19.22 13.94
12/28/2021 2:15:00 AM 3.59 38.462 0.143 7.41 18.35 13.93
12/28/2021 2:30:00 AM 3.59 38.462 0.143 7.43 17.55 13.93
12/28/2021 2:45:00 AM 3.64 38.552 0.126 7.45 17.48 14.08
12/28/2021 3:00:00 AM 3.6 38.48 0.149 7.4 18.71 14.07
12/28/2021 3:15:00 AM 3.61 38.498 0.14 7.39 20.12 13.93
12/28/2021 3:30:00 AM 3.59 38.462 0.143 7.41 20.22 13.9
12/28/2021 3:45:00 AM 3.58 38.444 0.143 7.45 18.65 13.89
12/28/2021 4:00:00 AM 3.58 38.444 0.143 7.43 18.7 13.88
12/28/2021 4:15:00 AM 3.59 38.462 0.143 7.42 17.91 13.87
12/28/2021 4:30:00 AM 3.59 38.462 0.144 7.43 19.68 13.87
12/28/2021 4:45:00 AM 3.59 38.462 0.143 7.43 20.1 13.86
12/28/2021 5:00:00 AM 3.59 38.462 0.139 7.4 19.88 13.85
12/28/2021 5:15:00 AM 3.59 38.462 0.144 7.36 19.54 13.84
12/28/2021 5:30:00 AM 3.59 38.462 0.143 7.41 17.69 13.83
12/28/2021 5:45:00 AM 3.59 38.462 0.144 7.43 19.99 13.82
12/28/2021 6:00:00 AM 3.58 38.444 0.144 7.42 19.66 13.81
12/28/2021 6:15:00 AM 3.57 38.426 0.144 7.43 20.01 13.8
12/28/2021 6:30:00 AM 3.56 38.408 0.144 7.4 19.98 13.79
12/28/2021 6:45:00 AM 3.55 38.39 0.13 7.4 18.05 13.79
12/28/2021 7:00:00 AM 3.54 38.372 0.144 7.4 20.19 13.77
12/28/2021 7:15:00 AM 3.54 38.372 0.145 7.42 17.62 13.77
12/28/2021 7:30:00 AM 3.53 38.354 0.137 7.34 19.61 13.76
12/28/2021 7:45:00 AM 3.52 38.336 0.115 7.39 18.31 13.76
12/28/2021 8:00:00 AM 3.52 38.336 0.145 7.38 17.16 13.75
12/28/2021 8:15:00 AM 3.52 38.336 0.145 7.41 20.02 13.74
12/28/2021 8:30:00 AM 3.53 38.354 0.147 7.45 20.35 13.74
12/28/2021 8:45:00 AM 3.53 38.354 0.147 7.41 20.18 13.74
12/28/2021 9:00:00 AM 3.54 38.372 0.054 7.4 17.56 13.75
12/28/2021 9:15:00 AM 3.55 38.39 0.148 7.41 20.16 13.75
12/28/2021 9:30:00 AM 3.56 38.408 0.148 7.44 18.34 13.77
12/28/2021 9:45:00 AM 3.57 38.426 0.072 7.43 18 13.79
12/28/2021 10:00:00 AM 3.57 38.426 0.149 7.43 19.73 13.8
12/28/2021 10:15:00 AM 3.58 38.444 0.148 7.43 21.98 13.82
12/28/2021 10:30:00 AM 3.6 38.48 0.149 7.43 17.56 13.85
12/28/2021 10:45:00 AM 3.62 38.516 0.084 7.43 18.53 13.86
12/28/2021 11:00:00 AM 3.63 38.534 0.149 7.44 18.69 13.88
12/28/2021 11:15:00 AM 3.65 38.57 0.146 7.3 16.73 13.9
12/28/2021 11:30:00 AM 3.66 38.588 0.05 7.44 16.3 13.91
12/28/2021 11:45:00 AM 3.67 38.606 0.149 7.44 20.05 13.94
12/28/2021 12:00:00 PM 3.69 38.642 0.15 7.46 19.71 13.96
12/28/2021 12:15:00 PM 3.7 38.66 0.15 7.48 18.59 13.97
12/28/2021 12:30:00 PM 3.71 38.678 0.149 7.44 18.12 13.97
12/28/2021 12:45:00 PM 3.72 38.696 0.149 7.47 20.18 13.99
12/28/2021 1:00:00 PM 3.73 38.714 0.149 7.48 19.92 14
12/28/2021 1:15:00 PM 3.74 38.732 0.149 7.49 19.01 14.02
12/28/2021 1:30:00 PM 3.75 38.75 0.149 7.46 19.36 14.02
12/28/2021 1:45:00 PM 3.76 38.768 0.149 7.48 18.16 14.04
12/28/2021 2:00:00 PM 3.77 38.786 0.149 7.47 18.42 14.05
12/28/2021 2:15:00 PM 3.77 38.786 0.144 7.4 18.13 14.06
12/28/2021 2:30:00 PM 3.78 38.804 0.149 7.48 18.16 14.05
12/28/2021 2:45:00 PM 3.78 38.804 0.149 7.49 17.52 14.07
12/28/2021 3:00:00 PM 3.79 38.822 0.149 7.48 19.73 14.07
12/28/2021 3:15:00 PM 3.79 38.822 0.147 7.34 17.35 14.09
12/28/2021 3:30:00 PM 3.79 38.822 0.15 7.37 19.85 14.09
12/28/2021 3:45:00 PM 3.79 38.822 0.15 7.5 19.8 14.09
12/28/2021 4:00:00 PM 3.8 38.84 0.125 7.49 16.97 14.11
12/28/2021 4:15:00 PM 3.8 38.84 0.148 7.48 19.54 14.1
12/28/2021 4:30:00 PM 3.8 38.84 0.15 7.42 16.47 14.11
12/28/2021 4:45:00 PM 3.81 38.858 0.15 7.46 19.61 14.11
12/28/2021 5:00:00 PM 3.81 38.858 0.14 7.47 19.89 14.12
12/28/2021 5:15:00 PM 3.82 38.876 0.151 7.49 17.2 14.1
12/28/2021 5:30:00 PM 3.82 38.876 0.148 7.5 17.33 14.1
12/28/2021 5:45:00 PM 3.83 38.894 0.068 7.5 16.33 14.11
12/28/2021 6:00:00 PM 3.83 38.894 0.151 7.52 18.15 14.1
12/28/2021 6:15:00 PM 3.84 38.912 0.151 7.5 18.84 14.08
12/28/2021 6:30:00 PM 3.84 38.912 0.151 7.51 17.61 14.08
12/28/2021 6:45:00 PM 3.85 38.93 0.151 7.49 19.04 14.07
12/28/2021 7:00:00 PM 3.85 38.93 0.14 7.5 17.77 14.09
12/28/2021 7:15:00 PM 3.85 38.93 0.059 7.5 16.25 14.08
12/28/2021 7:30:00 PM 3.85 38.93 0.151 7.49 16.64 14.06
12/28/2021 7:45:00 PM 3.86 38.948 0.151 7.51 19.57 14.07
12/28/2021 8:00:00 PM 3.87 38.966 0.152 7.51 19.45 14.04
12/28/2021 8:15:00 PM 3.87 38.966 0.067 7.49 17.92 14.04
12/28/2021 8:30:00 PM 3.87 38.966 0.152 7.49 19.23 14.02
12/28/2021 8:45:00 PM 3.82 38.876 0.052 7.45 16.97 14.03
12/28/2021 9:00:00 PM 3.86 38.948 0.097 7.43 18.54 14.02
12/28/2021 9:15:00 PM 3.88 38.984 0.144 7.45 18.22 13.99
12/28/2021 9:30:00 PM 3.88 38.984 0.152 7.47 19.37 13.98
12/28/2021 9:45:00 PM 3.88 38.984 0.152 7.45 15.65 13.99
12/28/2021 10:00:00 PM 3.88 38.984 0.152 7.47 19.79 13.98
12/28/2021 10:15:00 PM 3.88 38.984 0.152 7.37 19.82 13.98
12/28/2021 10:30:00 PM 3.88 38.984 0.151 7.41 19.88 13.97
12/28/2021 10:45:00 PM 3.88 38.984 0.152 7.38 19.55 13.97
12/28/2021 11:00:00 PM 3.88 38.984 0.152 7.47 20.61 13.96
12/28/2021 11:15:00 PM 3.88 38.984 0.152 7.41 19.99 13.93
12/28/2021 11:30:00 PM 3.88 38.984 0.152 7.44 20.02 13.94
12/28/2021 11:45:00 PM 3.89 39.002 0.152 7.4 19.94 13.95
12/29/2021 12:00:00 AM 3.89 39.002 0.151 7.45 14.98 13.94
12/29/2021 12:15:00 AM 3.89 39.002 0.151 7.48 15.87 13.92
12/29/2021 12:30:00 AM 3.89 39.002 0.151 7.39 19.88 13.94
12/29/2021 12:45:00 AM 3.89 39.002 0.151 7.47 20.08 13.94
12/29/2021 1:00:00 AM 3.9 39.02 0.15 7.46 20.31 13.93
12/29/2021 1:15:00 AM 3.9 39.02 0.151 7.45 19.9 13.91
12/29/2021 1:30:00 AM 3.9 39.02 0.126 7.42 19.46 13.91
12/29/2021 1:45:00 AM 3.9 39.02 0.151 7.46 19.89 13.9
12/29/2021 2:00:00 AM 3.91 39.038 0.151 7.44 18.33 13.9
12/29/2021 2:15:00 AM 3.94 39.092 0.152 7.4 6.33 13.94
12/29/2021 2:30:00 AM 3.89 39.002 0.156 7.42 19.28 13.98
12/29/2021 2:45:00 AM 3.91 39.038 0.141 7.4 0.75 13.88
12/29/2021 3:00:00 AM 3.91 39.038 0.151 7.46 16.24 13.85
12/29/2021 3:15:00 AM 3.92 39.056 0.151 7.4 20.14 13.83
12/29/2021 3:30:00 AM 3.92 39.056 0.148 7.41 20.02 13.82
12/29/2021 3:45:00 AM 3.92 39.056 0.126 7.44 13.97 13.82
12/29/2021 4:00:00 AM 3.92 39.056 0.152 7.44 20.12 13.79
12/29/2021 4:15:00 AM 3.92 39.056 0.152 7.43 17.86 13.79
12/29/2021 4:30:00 AM 3.92 39.056 0.153 7.45 19.2 13.78
12/29/2021 4:45:00 AM 3.92 39.056 0.153 7.46 20.63 13.76
12/29/2021 5:00:00 AM 3.92 39.056 0.153 7.45 20.33 13.76
12/29/2021 5:15:00 AM 3.92 39.056 0.153 7.41 20.65 13.75
12/29/2021 5:30:00 AM 3.91 39.038 0.153 7.45 15.64 13.74
12/29/2021 5:45:00 AM 3.92 39.056 0.153 7.4 20.37 13.73
12/29/2021 6:00:00 AM 3.91 39.038 0.153 7.43 20.68 13.72
12/29/2021 6:15:00 AM 3.91 39.038 0.154 7.44 7.96 13.7
12/29/2021 6:30:00 AM 3.92 39.056 0.154 7.34 15.4 13.69
12/29/2021 6:45:00 AM 3.92 39.056 0.138 7.43 1.58 13.67
12/29/2021 7:00:00 AM 3.93 39.074 0.159 7.4 21.68 13.65
12/29/2021 7:15:00 AM 3.93 39.074 0.16 7.43 22.16 13.62
12/29/2021 7:30:00 AM 3.93 39.074 0.162 7.46 22.29 13.61
12/29/2021 7:45:00 AM 3.94 39.092 0.162 7.42 24.01 13.61
12/29/2021 8:00:00 AM 3.93 39.074 0.162 7.46 9.63 13.59
12/29/2021 8:15:00 AM 3.93 39.074 0.162 7.47 20.96 13.59
12/29/2021 8:30:00 AM 3.92 39.056 0.162 7.46 15.83 13.59
12/29/2021 8:45:00 AM 3.92 39.056 0.161 7.46 16.56 13.57
12/29/2021 9:00:00 AM 3.91 39.038 0.16 7.47 26.56 13.58
12/29/2021 9:15:00 AM 3.91 39.038 0.159 7.44 15.28 13.59
12/29/2021 9:30:00 AM 3.91 39.038 0.159 7.46 27.59 13.59
12/29/2021 9:45:00 AM 3.91 39.038 0.159 7.45 12.97 13.58
12/29/2021 10:00:00 AM 3.91 39.038 0.152 7.41 6.32 13.57
12/29/2021 10:15:00 AM 3.92 39.056 0.158 7.45 27.88 13.6
12/29/2021 10:30:00 AM 3.93 39.074 0.157 7.44 27.88 13.6
12/29/2021 10:45:00 AM 4.06 39.308 0.157 7.5 12.94 13.87
12/29/2021 11:00:00 AM 3.97 39.146 0.16 7.44 12.94 13.79
12/29/2021 11:15:00 AM 3.98 39.164 0.157 7.4 27.58 13.69
12/29/2021 11:30:00 AM 3.98 39.164 0.157 7.4 26.98 13.64
12/29/2021 11:45:00 AM 4 39.2 0.157 7.43 27.33 13.66
12/29/2021 12:00:00 PM 4.02 39.236 0.157 7.41 26.29 13.66
12/29/2021 12:15:00 PM 4.04 39.272 0.157 7.39 24.82 13.68
12/29/2021 12:30:00 PM 4.06 39.308 0.155 7.45 19.6 13.69
12/29/2021 12:45:00 PM 4.08 39.344 0.141 7.38 26.92 13.69
12/29/2021 1:00:00 PM 4.1 39.38 0.157 7.39 27.09 13.73
12/29/2021 1:15:00 PM 4.12 39.416 0.136 7.42 4.75 13.75
12/29/2021 1:30:00 PM 4.14 39.452 0.156 7.45 13.95 13.74
12/29/2021 1:45:00 PM 4.16 39.488 0.157 7.46 9.46 13.77
12/29/2021 2:00:00 PM 4.18 39.524 0.157 7.43 26.4 13.81
12/29/2021 2:15:00 PM 4.2 39.56 0.157 7.47 25.17 13.8
12/29/2021 2:30:00 PM 4.22 39.596 0.149 7.39 18.68 13.83
12/29/2021 2:45:00 PM 4.23 39.614 0.157 7.43 24.57 13.85
12/29/2021 3:00:00 PM 4.25 39.65 0.157 7.42 25.84 13.86
12/29/2021 3:15:00 PM 4.25 39.65 0.157 7.49 24.82 13.88
12/29/2021 3:30:00 PM 4.26 39.668 0.157 7.49 24.46 13.9
12/29/2021 3:45:00 PM 4.26 39.668 0.154 7.47 22.72 13.91
12/29/2021 4:00:00 PM 4.26 39.668 0.157 7.46 23.73 13.94
12/29/2021 4:15:00 PM 4.27 39.686 0.157 7.44 22.71 13.94
12/29/2021 4:30:00 PM 4.27 39.686 0.157 7.5 23.96 13.95
12/29/2021 4:45:00 PM 4.27 39.686 0.157 7.51 23.74 13.96
12/29/2021 5:00:00 PM 4.27 39.686 0.157 7.51 21.58 13.97
12/29/2021 5:15:00 PM 4.27 39.686 0.157 7.51 19.75 13.98
12/29/2021 5:30:00 PM 4.28 39.704 0.157 7.51 23.1 13.97
12/29/2021 5:45:00 PM 4.28 39.704 0.157 7.51 23.54 13.99
12/29/2021 6:00:00 PM 4.28 39.704 0.157 7.5 23.01 13.97
12/29/2021 6:15:00 PM 4.28 39.704 0.157 7.4 22.65 13.98
12/29/2021 6:30:00 PM 4.28 39.704 0.157 7.51 21.63 13.98
12/29/2021 6:45:00 PM 4.27 39.686 0.158 7.51 22.88 13.98
12/29/2021 7:00:00 PM 4.27 39.686 0.158 7.5 20.9 13.98
12/29/2021 7:15:00 PM 4.27 39.686 0.157 7.5 22.32 13.98
12/29/2021 7:30:00 PM 4.27 39.686 0.155 7.24 14.05 13.98
12/29/2021 7:45:00 PM 4.27 39.686 0.158 7.51 22.42 13.97
12/29/2021 8:00:00 PM 4.26 39.668 0.158 7.5 20.04 13.97
12/29/2021 8:15:00 PM 4.26 39.668 0.071 7.51 19.51 13.96
12/29/2021 8:30:00 PM 4.26 39.668 0.158 7.51 19.55 13.95
12/29/2021 8:45:00 PM 4.25 39.65 0.158 7.51 21.02 13.93
12/29/2021 9:00:00 PM 4.25 39.65 0.15 7.5 22.24 13.92
12/29/2021 9:15:00 PM 4.24 39.632 0.157 7.5 20.98 13.91
12/29/2021 9:30:00 PM 4.24 39.632 0.158 7.51 22.58 13.9
12/29/2021 9:45:00 PM 4.24 39.632 0.146 7.49 19.31 13.91
12/29/2021 10:00:00 PM 4.23 39.614 0.157 7.47 22.54 13.9
12/29/2021 10:15:00 PM 4.23 39.614 0.158 7.49 19.52 13.89
12/29/2021 10:30:00 PM 4.24 39.632 0.157 7.42 21.88 13.88
12/29/2021 10:45:00 PM 4.23 39.614 0.153 7.47 19.19 13.88
12/29/2021 11:00:00 PM 4.24 39.632 0.158 7.49 9.76 13.88
12/29/2021 11:15:00 PM 4.23 39.614 0.15 7.47 20.1 13.87
12/29/2021 11:30:00 PM 4.23 39.614 0.158 7.48 19.69 13.87
12/29/2021 11:45:00 PM 4.23 39.614 0.129 7.48 17.89 13.86
12/30/2021 12:00:00 AM 4.23 39.614 0.156 7.48 18.1 13.86
12/30/2021 12:15:00 AM 4.23 39.614 0.154 7.46 22.14 13.85
12/30/2021 12:30:00 AM 4.23 39.614 0.158 7.47 19.74 13.85
12/30/2021 12:45:00 AM 4.23 39.614 0.066 7.46 17.02 13.83
12/30/2021 1:00:00 AM 4.23 39.614 0.057 7.44 18.67 13.84
12/30/2021 1:15:00 AM 4.23 39.614 0.156 7.38 20.18 13.83
12/30/2021 1:30:00 AM 4.23 39.614 0.158 7.47 20.68 13.83
12/30/2021 1:45:00 AM 4.23 39.614 0.159 7.43 19.88 13.82
12/30/2021 2:00:00 AM 4.3 39.74 0.16 7.47 21.16 13.85
12/30/2021 2:15:00 AM 4.26 39.668 0.069 7.4 17.7 13.86
12/30/2021 2:30:00 AM 4.26 39.668 0.161 7.4 20.67 13.76
12/30/2021 2:45:00 AM 4.24 39.632 0.159 7.44 21.8 13.78
12/30/2021 3:00:00 AM 4.24 39.632 0.159 7.4 19.38 13.77
12/30/2021 3:15:00 AM 4.24 39.632 0.159 7.43 17.77 13.78
12/30/2021 3:30:00 AM 4.24 39.632 0.157 7.34 20.79 13.77
12/30/2021 3:45:00 AM 4.24 39.632 0.16 7.43 21.72 13.76
12/30/2021 4:00:00 AM 4.24 39.632 0.16 7.42 21.88 13.74
12/30/2021 4:15:00 AM 4.24 39.632 0.16 7.41 21.9 13.73
12/30/2021 4:30:00 AM 4.24 39.632 0.161 7.44 19.57 13.72
12/30/2021 4:45:00 AM 4.25 39.65 0.161 7.42 21.75 13.7
12/30/2021 5:00:00 AM 4.25 39.65 0.162 7.44 21.47 13.7
12/30/2021 5:15:00 AM 4.25 39.65 0.162 7.44 21.71 13.68
12/30/2021 5:30:00 AM 4.25 39.65 0.076 7.42 17.42 13.68
12/30/2021 5:45:00 AM 4.25 39.65 0.163 7.44 20.85 13.67
12/30/2021 6:00:00 AM 4.25 39.65 0.16 7.43 17.89 13.65
12/30/2021 6:15:00 AM 4.26 39.668 0.163 7.41 21.26 13.64
12/30/2021 6:30:00 AM 4.25 39.65 0.163 7.37 21.19 13.64
12/30/2021 6:45:00 AM 4.26 39.668 0.089 7.36 17.71 13.62
12/30/2021 7:00:00 AM 4.26 39.668 0.163 7.42 19.88 13.61
12/30/2021 7:15:00 AM 4.26 39.668 0.165 7.42 21.81 13.61
12/30/2021 7:30:00 AM 4.26 39.668 0.165 7.39 20.72 13.59
12/30/2021 7:45:00 AM 4.26 39.668 0.165 7.41 20.49 13.59
12/30/2021 8:00:00 AM 4.26 39.668 0.165 7.38 19.38 13.57
12/30/2021 8:15:00 AM 4.27 39.686 0.065 7.4 18.73 13.58
12/30/2021 8:30:00 AM 4.27 39.686 0.084 7.41 18.94 13.57
12/30/2021 8:45:00 AM 4.27 39.686 0.166 7.39 21.67 13.56
12/30/2021 9:00:00 AM 4.27 39.686 0.101 7.41 22.22 13.55
12/30/2021 9:15:00 AM 4.28 39.704 0.163 7.4 25.93 13.55
12/30/2021 9:30:00 AM 4.28 39.704 0.166 7.39 19.9 13.54
12/30/2021 9:45:00 AM 4.28 39.704 0.165 7.39 18.62 13.53
12/30/2021 10:00:00 AM 4.29 39.722 0.144 7.38 21.26 13.54
12/30/2021 10:15:00 AM 4.29 39.722 0.166 7.39 21.29 13.53
12/30/2021 10:30:00 AM 4.3 39.74 0.166 7.4 21.52 13.52
12/30/2021 10:45:00 AM 4.31 39.758 0.166 7.36 20.22 13.53
12/30/2021 11:00:00 AM 4.31 39.758 0.166 7.41 17.24 13.54
12/30/2021 11:15:00 AM 4.37 39.866 0.162 7.38 17.38 13.66
12/30/2021 11:30:00 AM 4.36 39.848 0.167 7.37 21.24 13.59
12/30/2021 11:45:00 AM 4.35 39.83 0.102 7.38 19.67 13.57
12/30/2021 12:00:00 PM 4.36 39.848 0.165 7.38 21.78 13.56
12/30/2021 12:15:00 PM 4.37 39.866 0.162 7.21 17.79 13.57
12/30/2021 12:30:00 PM 4.38 39.884 0.149 7.29 18.76 13.59
12/30/2021 12:45:00 PM 4.4 39.92 0.167 7.38 20.46 13.59
12/30/2021 1:00:00 PM 4.42 39.956 0.063 7.42 17.57 13.61
12/30/2021 1:15:00 PM 4.43 39.974 0.106 7.41 21.22 13.62
12/30/2021 1:30:00 PM 4.44 39.992 0.167 7.44 21.74 13.61
12/30/2021 1:45:00 PM 4.45 40.01 0.063 7.42 19.77 13.63
12/30/2021 2:00:00 PM 4.46 40.028 0.166 7.43 20.35 13.63
12/30/2021 2:15:00 PM 4.48 40.064 0.168 7.43 22.29 13.63
12/30/2021 2:30:00 PM 4.49 40.082 0.168 7.42 21.17 13.65
12/30/2021 2:45:00 PM 4.5 40.1 0.167 7.43 21.94 13.64
12/30/2021 3:00:00 PM 4.51 40.118 0.167 7.45 21.98 13.65
12/30/2021 3:15:00 PM 4.52 40.136 0.104 7.44 19.99 13.68
12/30/2021 3:30:00 PM 4.53 40.154 0.166 7.44 18.01 13.66
12/30/2021 3:45:00 PM 4.54 40.172 0.168 7.42 21.64 13.67
12/30/2021 4:00:00 PM 4.54 40.172 0.169 7.45 21.8 13.67
12/30/2021 4:15:00 PM 4.55 40.19 0.169 7.44 21.93 13.67
12/30/2021 4:30:00 PM 4.55 40.19 0.169 7.43 19.82 13.67
12/30/2021 4:45:00 PM 4.55 40.19 0.17 7.46 21.95 13.65
12/30/2021 5:00:00 PM 4.55 40.19 0.169 7.45 19.01 13.66
12/30/2021 5:15:00 PM 4.55 40.19 0.17 7.45 21.13 13.66
12/30/2021 5:30:00 PM 4.55 40.19 0.169 7.46 22.28 13.66
12/30/2021 5:45:00 PM 4.55 40.19 0.17 7.46 22.67 13.66
12/30/2021 6:00:00 PM 4.55 40.19 0.166 7.46 22.48 13.65
12/30/2021 6:15:00 PM 4.55 40.19 0.162 7.44 23.01 13.64
12/30/2021 6:30:00 PM 4.55 40.19 0.09 7.47 16.97 13.64
12/30/2021 6:45:00 PM 4.62 40.316 0.171 7.48 21.7 13.67
12/30/2021 7:00:00 PM 4.59 40.262 0.171 7.38 17.52 13.62
12/30/2021 7:15:00 PM 4.57 40.226 0.169 7.41 18.3 13.63
12/30/2021 7:30:00 PM 4.56 40.208 0.17 7.45 21.41 13.61
12/30/2021 7:45:00 PM 4.56 40.208 0.17 7.45 20.32 13.6
12/30/2021 8:00:00 PM 4.55 40.19 0.17 7.47 22.21 13.6
12/30/2021 8:15:00 PM 4.56 40.208 0.17 7.45 21.29 13.6
12/30/2021 8:30:00 PM 4.56 40.208 0.168 7.46 23.65 13.59
12/30/2021 8:45:00 PM 4.56 40.208 0.168 7.47 19.59 13.59
12/30/2021 9:00:00 PM 4.57 40.226 0.165 7.45 21.83 13.59
12/30/2021 9:15:00 PM 4.58 40.244 0.168 7.46 23.91 13.59
12/30/2021 9:30:00 PM 4.58 40.244 0.169 7.47 25.16 13.58
12/30/2021 9:45:00 PM 4.59 40.262 0.169 7.46 20.57 13.58
12/30/2021 10:00:00 PM 4.59 40.262 0.169 7.44 22.12 13.57
12/30/2021 10:15:00 PM 4.6 40.28 0.166 7.41 22.41 13.58
12/30/2021 10:30:00 PM 4.61 40.298 0.053 7.45 21.86 13.58
12/30/2021 10:45:00 PM 4.62 40.316 0.168 7.48 22.92 13.58
12/30/2021 11:00:00 PM 4.62 40.316 0.167 7.37 22.38 13.57
12/30/2021 11:15:00 PM 4.63 40.334 0.168 7.47 25.33 13.57
12/30/2021 11:30:00 PM 4.64 40.352 0.151 7.45 22.37 13.56
12/30/2021 11:45:00 PM 4.65 40.37 0.089 7.45 24.42 13.54
12/31/2021 12:00:00 AM 4.66 40.388 0.167 7.47 26.27 13.54
12/31/2021 12:15:00 AM 4.67 40.406 0.162 7.26 26.93 13.53
12/31/2021 12:30:00 AM 4.67 40.406 0.162 7.44 26.55 13.52
12/31/2021 12:45:00 AM 4.68 40.424 0.166 7.38 25.95 13.51
12/31/2021 1:00:00 AM 4.69 40.442 0.156 7.42 23.82 13.51
12/31/2021 1:15:00 AM 4.69 40.442 0.165 7.43 22.78 13.49
12/31/2021 1:30:00 AM 4.69 40.442 0.165 7.41 27.42 13.49
12/31/2021 1:45:00 AM 4.7 40.46 0.166 7.45 23.19 13.47
12/31/2021 2:00:00 AM 4.7 40.46 0.163 7.47 27.81 13.48
12/31/2021 2:15:00 AM 4.72 40.496 0.166 7.45 26.8 13.47
12/31/2021 2:30:00 AM 4.75 40.55 0.1 7.43 20.39 13.62
12/31/2021 2:45:00 AM 4.72 40.496 0.168 7.39 22.76 13.5
12/31/2021 3:00:00 AM 4.72 40.496 0.165 7.45 27.21 13.46
12/31/2021 3:15:00 AM 4.72 40.496 0.162 7.43 25.54 13.45
12/31/2021 3:30:00 AM 4.73 40.514 0.168 7.43 25.07 13.44
12/31/2021 3:45:00 AM 4.72 40.496 0.169 7.48 26.26 13.45
12/31/2021 4:00:00 AM 4.73 40.514 0.167 7.43 25.44 13.45
12/31/2021 4:15:00 AM 4.73 40.514 0.169 7.47 30.5 13.44
12/31/2021 4:30:00 AM 4.73 40.514 0.17 7.48 26.64 13.44
12/31/2021 4:45:00 AM 4.74 40.532 0.171 7.32 23.41 13.43
12/31/2021 5:00:00 AM 4.74 40.532 0.171 7.47 28.81 13.43
12/31/2021 5:15:00 AM 4.74 40.532 0.172 7.48 27.53 13.42
12/31/2021 5:30:00 AM 4.75 40.55 0.172 7.47 27.9 13.42
12/31/2021 5:45:00 AM 4.75 40.55 0.068 7.46 25.67 13.42
12/31/2021 6:00:00 AM 4.75 40.55 0.085 7.48 25.19 13.41
12/31/2021 6:15:00 AM 4.75 40.55 0.167 7.35 24.16 13.41
12/31/2021 6:30:00 AM 4.75 40.55 0.174 7.48 26.15 13.39
12/31/2021 6:45:00 AM 4.76 40.568 0.175 7.44 26.53 13.38
12/31/2021 7:00:00 AM 4.76 40.568 0.175 7.47 28.41 13.38
12/31/2021 7:15:00 AM 4.76 40.568 0.174 7.32 27.58 13.39
12/31/2021 7:30:00 AM 4.77 40.586 0.176 7.49 19.94 13.36
12/31/2021 7:45:00 AM 4.78 40.604 0.176 7.48 26 13.36
12/31/2021 8:00:00 AM 4.78 40.604 0.177 7.48 26.26 13.36
12/31/2021 8:15:00 AM 4.79 40.622 0.169 7.44 26.5 13.36
12/31/2021 8:30:00 AM 4.8 40.64 0.177 7.5 24.84 13.35
12/31/2021 8:45:00 AM 4.8 40.64 0.177 7.5 21.66 13.34
12/31/2021 9:00:00 AM 4.81 40.658 0.177 7.48 26.19 13.33
12/31/2021 9:15:00 AM 4.81 40.658 0.071 7.48 25.77 13.33
12/31/2021 9:30:00 AM 4.82 40.676 0.178 7.49 23.5 13.33
12/31/2021 9:45:00 AM 4.83 40.694 0.179 7.5 22.3 13.33
12/31/2021 10:00:00 AM 4.84 40.712 0.177 7.46 27.7 13.32
12/31/2021 10:15:00 AM 4.85 40.73 0.179 7.48 25.6 13.32
12/31/2021 10:30:00 AM 4.86 40.748 0.167 7.46 20.39 13.31
12/31/2021 10:45:00 AM 4.88 40.784 0.093 7.45 23.8 13.31
12/31/2021 11:00:00 AM 4.89 40.802 0.18 7.45 23.41 13.3
12/31/2021 11:15:00 AM 4.91 40.838 0.18 7.48 0.03 13.3
12/31/2021 11:30:00 AM 4.93 40.874 0.181 7.44 25.91 13.29
12/31/2021 11:45:00 AM 4.95 40.91 0.182 7.46 25.84 13.3
12/31/2021 12:00:00 PM 4.97 40.946 0.181 7.28 6.23 13.3
12/31/2021 12:15:00 PM 5 41 0.182 7.46 25.9 13.29
12/31/2021 12:30:00 PM 5.04 41.072 0.18 7.46 23.14 13.29
12/31/2021 12:45:00 PM 5.08 41.144 0.116 7.46 38.59 13.3
12/31/2021 1:00:00 PM 5.12 41.216 0.182 7.42 27.92 13.28
12/31/2021 1:15:00 PM 5.14 41.252 0.181 7.39 38.87 13.29
12/31/2021 1:30:00 PM 5.18 41.324 0.182 7.44 25.66 13.28
12/31/2021 1:45:00 PM 5.21 41.378 0.183 7.47 30.14 13.28
12/31/2021 2:00:00 PM 5.22 41.396 0.183 7.45 28.24 13.27
12/31/2021 2:15:00 PM 5.24 41.432 0.183 7.47 31.06 13.27
12/31/2021 2:30:00 PM 5.26 41.468 0.183 7.45 28.06 13.26
12/31/2021 2:45:00 PM 5.28 41.504 0.114 7.45 27.88 13.26
12/31/2021 3:00:00 PM 5.31 41.558 0.181 7.45 25.57 13.24
12/31/2021 3:15:00 PM 5.33 41.594 0.182 7.45 28.57 13.24
12/31/2021 3:30:00 PM 5.35 41.63 0.179 7.34 26.71 13.24
12/31/2021 3:45:00 PM 5.37 41.666 0.18 7.46 30.35 13.24
12/31/2021 4:00:00 PM 5.39 41.702 0.179 7.35 27.31 13.21
12/31/2021 4:15:00 PM 5.4 41.72 0.118 7.45 23.47 13.22
12/31/2021 4:30:00 PM 5.41 41.738 0.182 7.45 27.51 13.2
12/31/2021 4:45:00 PM 5.42 41.756 0.182 7.46 29 13.2
12/31/2021 5:00:00 PM 5.42 41.756 0.182 7.43 25.15 13.19
12/31/2021 5:15:00 PM 5.41 41.738 0.182 7.45 26.49 13.19
12/31/2021 5:30:00 PM 5.41 41.738 0.059 7.43 27.92 13.18
12/31/2021 5:45:00 PM 5.41 41.738 0.182 7.46 27.07 13.17
12/31/2021 6:00:00 PM 5.41 41.738 0.182 7.42 34.29 13.17
12/31/2021 6:15:00 PM 5.4 41.72 0.105 7.44 28.79 13.17
12/31/2021 6:30:00 PM 5.41 41.738 0.182 7.41 32.47 13.16
12/31/2021 6:45:00 PM 5.41 41.738 0.181 7.43 21.16 13.15
12/31/2021 7:00:00 PM 5.41 41.738 0.178 7.29 26.68 13.15
12/31/2021 7:15:00 PM 5.42 41.756 0.183 7.45 28.77 13.14
12/31/2021 7:30:00 PM 5.42 41.756 0.182 7.43 32.67 13.14
12/31/2021 7:45:00 PM 5.43 41.774 0.176 7.2 29.12 13.13
12/31/2021 8:00:00 PM 5.43 41.774 0.183 7.45 32.58 13.12
12/31/2021 8:15:00 PM 5.43 41.774 0.183 7.44 29.65 13.12
12/31/2021 8:30:00 PM 5.5 41.9 0.182 7.45 35.84 13.2
12/31/2021 8:45:00 PM 5.41 41.738 0.183 7.41 19.81 13.31
12/31/2021 9:00:00 PM 5.41 41.738 0.184 7.4 26.97 13.2
12/31/2021 9:15:00 PM 5.43 41.774 0.184 7.41 31.75 13.12
12/31/2021 9:30:00 PM 5.44 41.792 0.172 7.43 29.64 13.1
12/31/2021 9:45:00 PM 5.45 41.81 0.184 7.44 33.08 13.09
12/31/2021 10:00:00 PM 5.45 41.81 0.181 7.43 28.47 13.09
12/31/2021 10:15:00 PM 5.46 41.828 0.112 7.44 29.24 13.09
12/31/2021 10:30:00 PM 5.46 41.828 0.184 7.41 29.05 13.08
12/31/2021 10:45:00 PM 5.47 41.846 0.182 7.44 33.16 13.07
12/31/2021 11:00:00 PM 5.48 41.864 0.158 7.43 29.6 13.08
12/31/2021 11:15:00 PM 5.49 41.882 0.183 7.44 32.4 13.06
12/31/2021 11:30:00 PM 5.5 41.9 0.183 7.44 31.97 13.07
12/31/2021 11:45:00 PM 5.51 41.918 0.183 7.44 32.91 13.06
1/1/2022 12:00:00 AM 5.52 41.936 0.11 7.44 34.96 13.06
1/1/2022 12:15:00 AM 5.53 41.954 0.183 7.44 3.77 13.04
1/1/2022 12:30:00 AM 5.54 41.972 0.177 7.37 33.94 13.04
1/1/2022 12:45:00 AM 5.55 41.99 0.182 7.45 34.37 13.03
1/1/2022 1:00:00 AM 5.56 42.008 0.181 7.44 34.71 13.03
1/1/2022 1:15:00 AM 5.57 42.026 0.18 7.4 31.26 13.02
1/1/2022 1:30:00 AM 5.58 42.044 0.176 7.43 42.69 13.02
1/1/2022 1:45:00 AM 5.58 42.044 0.18 7.4 34.47 13.01
1/1/2022 2:00:00 AM 5.59 42.062 0.179 7.43 35.37 13
1/1/2022 2:15:00 AM 5.6 42.08 0.179 7.42 40.17 13
1/1/2022 2:30:00 AM 5.61 42.098 0.178 7.42 33.07 12.99
1/1/2022 2:45:00 AM 5.61 42.098 0.176 7.35 37.65 13
1/1/2022 3:00:00 AM 5.62 42.116 0.174 7.38 36.04 12.98
1/1/2022 3:15:00 AM 5.63 42.134 0.063 7.43 34.65 12.98
1/1/2022 3:30:00 AM 5.64 42.152 0.176 7.43 32.87 12.98
1/1/2022 3:45:00 AM 5.65 42.17 0.176 7.43 37.4 12.97
1/1/2022 4:00:00 AM 5.65 42.17 0.172 7.43 31.45 12.97
1/1/2022 4:15:00 AM 5.66 42.188 0.173 7.43 36.24 12.96
1/1/2022 4:30:00 AM 5.67 42.206 0.174 7.4 38.01 12.95
1/1/2022 4:45:00 AM 5.67 42.206 0.173 7.42 38.61 12.95
1/1/2022 5:00:00 AM 5.68 42.224 0.17 7.42 40.11 12.94
1/1/2022 5:15:00 AM 5.69 42.242 0.172 7.42 39.41 12.94
1/1/2022 5:30:00 AM 5.7 42.26 0.171 7.4 37.36 12.93
1/1/2022 5:45:00 AM 5.71 42.278 0.171 7.4 37.6 12.92
1/1/2022 6:00:00 AM 5.72 42.296 0.17 7.38 33.75 12.9
1/1/2022 6:15:00 AM 5.73 42.314 0.167 7.4 30.22 12.91
1/1/2022 6:30:00 AM 5.74 42.332 0.169 7.4 36.51 12.89
1/1/2022 6:45:00 AM 5.75 42.35 0.168 7.4 35.92 12.89
1/1/2022 7:00:00 AM 5.77 42.386 0.168 7.4 40.53 12.89
1/1/2022 7:15:00 AM 5.78 42.404 0.167 7.4 33.88 12.88
1/1/2022 7:30:00 AM 5.79 42.422 0.166 7.39 36.62 12.88
1/1/2022 7:45:00 AM 5.8 42.44 0.161 7.41 38.37 12.87
1/1/2022 8:00:00 AM 5.81 42.458 0.164 7.4 27.99 12.86
1/1/2022 8:15:00 AM 5.82 42.476 0.164 7.39 36.96 12.86
1/1/2022 8:30:00 AM 5.82 42.476 0.164 7.4 39.95 12.87
1/1/2022 8:45:00 AM 5.83 42.494 0.163 7.37 39.26 12.85
1/1/2022 9:00:00 AM 5.84 42.512 0.163 7.4 41.61 12.85
1/1/2022 9:15:00 AM 5.85 42.53 0.158 7.39 30.24 12.84
1/1/2022 9:30:00 AM 5.86 42.548 0.158 7.39 35.09 12.84
1/1/2022 9:45:00 AM 5.88 42.584 0.073 7.38 36.66 12.83
1/1/2022 10:00:00 AM 5.89 42.602 0.161 7.38 38.24 12.83
1/1/2022 10:15:00 AM 5.91 42.638 0.161 7.38 37.01 12.83
1/1/2022 10:30:00 AM 5.92 42.656 0.16 7.36 40.06 12.82
1/1/2022 10:45:00 AM 5.93 42.674 0.16 7.39 36.35 12.83
1/1/2022 11:00:00 AM 5.95 42.71 0.159 7.37 35.66 12.81
1/1/2022 11:15:00 AM 5.99 42.782 0.062 7.42 33.61 13
1/1/2022 11:30:00 AM 5.88 42.584 0.176 7.33 24.34 13.07
1/1/2022 11:45:00 AM 5.96 42.728 0.164 7.34 42.95 12.91
1/1/2022 12:00:00 PM 6.01 42.818 0.158 7.36 41.34 12.82
1/1/2022 12:15:00 PM 6.03 42.854 0.154 7.21 36.64 12.81
1/1/2022 12:30:00 PM 6.05 42.89 0.156 7.31 42.38 12.8
1/1/2022 12:45:00 PM 6.06 42.908 0.157 7.21 31.66 12.78
1/1/2022 1:00:00 PM 6.08 42.944 0.157 7.36 37.47 12.78
1/1/2022 1:15:00 PM 6.1 42.98 0.153 7.36 33.63 12.77
1/1/2022 1:30:00 PM 6.12 43.016 0.155 7.34 37.28 12.77
1/1/2022 1:45:00 PM 6.14 43.052 0.156 7.28 38.95 12.78
1/1/2022 2:00:00 PM 6.16 43.088 0.068 7.36 34.92 12.78
1/1/2022 2:15:00 PM 6.18 43.124 0.155 7.38 33.74 12.77
1/1/2022 2:30:00 PM 6.2 43.16 0.154 7.37 34.16 12.76
1/1/2022 2:45:00 PM 6.22 43.196 0.155 7.39 40.37 12.75
1/1/2022 3:00:00 PM 6.24 43.232 0.154 7.35 35.18 12.76
1/1/2022 3:15:00 PM 6.25 43.25 0.154 7.39 27.7 12.76
1/1/2022 3:30:00 PM 6.26 43.268 0.154 7.38 28.54 12.75
1/1/2022 3:45:00 PM 6.28 43.304 0.154 7.37 37.73 12.72
1/1/2022 4:00:00 PM 6.29 43.322 0.153 7.38 29.8 12.75
1/1/2022 4:15:00 PM 6.3 43.34 0.153 7.38 24.59 12.72
1/1/2022 4:30:00 PM 6.31 43.358 0.153 7.38 36.75 12.74
1/1/2022 4:45:00 PM 6.32 43.376 0.152 7.31 39.84 12.72
1/1/2022 5:00:00 PM 6.33 43.394 0.152 7.35 39.66 12.72
1/1/2022 5:15:00 PM 6.34 43.412 0.152 7.35 38.28 12.71
1/1/2022 5:30:00 PM 6.35 43.43 0.151 7.33 37.14 12.73
1/1/2022 5:45:00 PM 6.36 43.448 0.147 7.17 35.03 12.73
1/1/2022 6:00:00 PM 6.37 43.466 0.061 7.37 32.71 12.73
1/1/2022 6:15:00 PM 6.38 43.484 0.15 7.36 35.56 12.7
1/1/2022 6:30:00 PM 6.38 43.484 0.147 7.35 32.14 12.7
1/1/2022 6:45:00 PM 6.39 43.502 0.06 7.35 37.09 12.71
1/1/2022 7:00:00 PM 6.4 43.52 0.147 7.33 36.04 12.69
1/1/2022 7:15:00 PM 6.41 43.538 0.148 7.28 35.93 12.71
1/1/2022 7:30:00 PM 6.42 43.556 0.149 7.37 38.41 12.68
1/1/2022 7:45:00 PM 6.42 43.556 0.149 7.36 33.5 12.68
1/1/2022 8:00:00 PM 6.43 43.574 0.148 7.32 35.92 12.69
1/1/2022 8:15:00 PM 6.43 43.574 0.148 7.33 42.06 12.67
1/1/2022 8:30:00 PM 6.44 43.592 0.165 7.37 32.63 12.91
1/1/2022 8:45:00 PM 6.32 43.376 0.17 7.32 23.59 13.02
1/1/2022 9:00:00 PM 6.4 43.52 0.154 7.33 30.67 12.77
1/1/2022 9:15:00 PM 6.45 43.61 0.147 7.34 38.26 12.7
1/1/2022 9:30:00 PM 6.47 43.646 0.147 7.33 34.25 12.69
1/1/2022 9:45:00 PM 6.48 43.664 0.147 7.37 36.32 12.67
1/1/2022 10:00:00 PM 6.48 43.664 0.146 7.33 35.62 12.67
1/1/2022 10:15:00 PM 6.49 43.682 0.146 7.37 37.88 12.65
1/1/2022 10:30:00 PM 6.51 43.718 0.146 7.34 39.86 12.65
1/1/2022 10:45:00 PM 6.51 43.718 0.146 7.37 0.23 12.66
1/1/2022 11:00:00 PM 6.52 43.736 0.146 7.37 37.85 12.65
1/1/2022 11:15:00 PM 6.53 43.754 0.145 7.31 32.98 12.63
1/1/2022 11:30:00 PM 6.54 43.772 0.146 7.36 36.84 12.64
1/1/2022 11:45:00 PM 6.55 43.79 0.146 7.35 35.82 12.64
1/2/2022 12:00:00 AM 6.56 43.808 0.146 7.37 37.98 12.64
1/2/2022 12:15:00 AM 6.56 43.808 0.146 7.32 37.58 12.62
1/2/2022 12:30:00 AM 6.57 43.826 0.145 7.34 34.72 12.61
1/2/2022 12:45:00 AM 6.58 43.844 0.144 7.36 36.03 12.61
1/2/2022 1:00:00 AM 6.58 43.844 0.145 7.35 34.6 12.62
1/2/2022 1:15:00 AM 6.59 43.862 0.145 7.35 39.8 12.6
1/2/2022 1:30:00 AM 6.6 43.88 0.145 7.36 33.93 12.59
1/2/2022 1:45:00 AM 6.6 43.88 0.075 7.34 37.89 12.59
1/2/2022 2:00:00 AM 6.6 43.88 0.126 7.33 32.33 12.6
1/2/2022 2:15:00 AM 6.61 43.898 0.145 7.34 38.15 12.59
1/2/2022 2:30:00 AM 6.62 43.916 0.144 7.35 35.28 12.58
1/2/2022 2:45:00 AM 6.62 43.916 0.144 7.35 34.66 12.58
1/2/2022 3:00:00 AM 6.63 43.934 0.077 7.37 35.63 12.56
1/2/2022 3:15:00 AM 6.64 43.952 0.144 7.33 34.42 12.55
1/2/2022 3:30:00 AM 6.65 43.97 0.145 7.37 35.3 12.54
1/2/2022 3:45:00 AM 6.66 43.988 0.144 7.37 38.64 12.52
1/2/2022 4:00:00 AM 6.67 44.006 0.145 7.38 37.06 12.54
1/2/2022 4:15:00 AM 6.68 44.024 0.144 7.37 40.52 12.53
1/2/2022 4:30:00 AM 6.69 44.042 0.145 7.31 35.13 12.52
1/2/2022 4:45:00 AM 6.69 44.042 0.142 7.36 33.25 12.51
1/2/2022 5:00:00 AM 6.7 44.06 0.144 7.26 38.98 12.51
1/2/2022 5:15:00 AM 6.7 44.06 0.144 7.37 34.42 12.49
1/2/2022 5:30:00 AM 6.71 44.078 0.144 7.37 39.7 12.5
1/2/2022 5:45:00 AM 6.71 44.078 0.144 7.34 38.91 12.48
1/2/2022 6:00:00 AM 6.72 44.096 0.062 7.37 34.94 12.48
1/2/2022 6:15:00 AM 6.72 44.096 0.143 7.36 37.97 12.48
1/2/2022 6:30:00 AM 6.73 44.114 0.142 7.34 38.62 12.48
1/2/2022 6:45:00 AM 6.73 44.114 0.128 7.28 38.92 12.47
1/2/2022 7:00:00 AM 6.73 44.114 0.142 7.37 33.92 12.47
1/2/2022 7:15:00 AM 6.74 44.132 0.142 7.34 36.35 12.45
1/2/2022 7:30:00 AM 6.74 44.132 0.142 7.36 34.53 12.45
1/2/2022 7:45:00 AM 6.75 44.15 0.141 7.36 38.27 12.45
1/2/2022 8:00:00 AM 6.75 44.15 0.075 7.34 33.68 12.45
1/2/2022 8:15:00 AM 6.75 44.15 0.141 7.34 34.15 12.45
1/2/2022 8:30:00 AM 6.76 44.168 0.141 7.35 35.47 12.43
1/2/2022 8:45:00 AM 6.76 44.168 0.05 7.36 34.98 12.45
1/2/2022 9:00:00 AM 6.77 44.186 0.141 7.34 34.55 12.44
1/2/2022 9:15:00 AM 6.77 44.186 0.141 7.24 37.51 12.44
1/2/2022 9:30:00 AM 6.78 44.204 0.141 7.35 35.9 12.44
1/2/2022 9:45:00 AM 6.79 44.222 0.138 7.35 35.58 12.43
1/2/2022 10:00:00 AM 6.79 44.222 0.141 7.35 38.9 12.42
1/2/2022 10:15:00 AM 6.8 44.24 0.138 7.34 33.95 12.41
1/2/2022 10:30:00 AM 6.81 44.258 0.141 7.36 35.64 12.41
1/2/2022 10:45:00 AM 6.83 44.294 0.046 7.33 39.68 12.4
1/2/2022 11:00:00 AM 6.83 44.294 0.054 7.35 34.21 12.41
1/2/2022 11:15:00 AM 6.83 44.294 0.138 7.33 37.12 12.4
1/2/2022 11:30:00 AM 6.84 44.312 0.139 7.24 37.29 12.39
1/2/2022 11:45:00 AM 6.85 44.33 0.141 7.36 34.35 12.4
1/2/2022 12:00:00 PM 6.86 44.348 0.141 7.29 37.16 12.38
1/2/2022 12:15:00 PM 6.87 44.366 0.048 7.34 34.91 12.4
1/2/2022 12:30:00 PM 6.89 44.402 0.094 7.32 40.21 12.39
1/2/2022 12:45:00 PM 6.92 44.456 0.062 7.32 32.9 12.39
1/2/2022 1:00:00 PM 6.93 44.474 0.074 7.33 32.09 12.38
1/2/2022 1:15:00 PM 6.94 44.492 0.065 7.35 35.57 12.38
1/2/2022 1:30:00 PM 6.95 44.51 0.14 7.34 37.95 12.38
1/2/2022 1:45:00 PM 6.95 44.51 0.137 7.34 33.99 12.39
1/2/2022 2:00:00 PM 6.96 44.528 0.14 7.35 37.25 12.37
1/2/2022 2:15:00 PM 6.96 44.528 0.14 7.35 39.06 12.38
1/2/2022 2:30:00 PM 6.96 44.528 0.139 7.35 32.05 12.38
1/2/2022 2:45:00 PM 6.96 44.528 0.139 7.37 32.89 12.39
1/2/2022 3:00:00 PM 6.97 44.546 0.14 7.34 37.13 12.39
1/2/2022 3:15:00 PM 6.98 44.564 0.14 7.35 35.07 12.38
1/2/2022 3:30:00 PM 6.98 44.564 0.138 7.35 36.99 12.39
1/2/2022 3:45:00 PM 6.97 44.546 0.047 7.35 32.91 12.39
1/2/2022 4:00:00 PM 6.97 44.546 0.139 7.34 31.74 12.39
1/2/2022 4:15:00 PM 6.96 44.528 0.137 7.35 30.92 12.39
1/2/2022 4:30:00 PM 6.96 44.528 0.05 7.34 29.06 12.41
1/2/2022 4:45:00 PM 6.95 44.51 0.1 7.34 31.41 12.4
1/2/2022 5:00:00 PM 6.95 44.51 0.139 7.38 35.51 12.42
1/2/2022 5:15:00 PM 6.94 44.492 0.139 7.34 36.99 12.39
1/2/2022 5:30:00 PM 6.93 44.474 0.14 7.35 33.7 12.4
1/2/2022 5:45:00 PM 6.92 44.456 0.139 7.36 31.34 12.4
1/2/2022 6:00:00 PM 6.91 44.438 0.139 7.35 34.9 12.41
1/2/2022 6:15:00 PM 6.9 44.42 0.131 7.35 34.45 12.4
1/2/2022 6:30:00 PM 6.89 44.402 0.127 7.36 32.58 12.41
1/2/2022 6:45:00 PM 6.88 44.384 0.138 7.35 31.44 12.41
1/2/2022 7:00:00 PM 6.87 44.366 0.139 7.37 34.71 12.42
1/2/2022 7:15:00 PM 6.85 44.33 0.139 7.35 37.91 12.42
1/2/2022 7:30:00 PM 6.84 44.312 0.139 7.34 33.33 12.41
1/2/2022 7:45:00 PM 6.83 44.294 0.139 7.35 31.06 12.43
1/2/2022 8:00:00 PM 6.82 44.276 0.138 7.36 6.37 12.41
1/2/2022 8:15:00 PM 6.73 44.114 0.155 7.37 29.93 12.71
1/2/2022 8:30:00 PM 6.71 44.078 0.152 7.32 26.78 12.71
1/2/2022 8:45:00 PM 6.75 44.15 0.142 7.33 29.77 12.5
1/2/2022 9:00:00 PM 6.74 44.132 0.139 7.34 32.1 12.45
1/2/2022 9:15:00 PM 6.72 44.096 0.139 7.35 31.05 12.46
1/2/2022 9:30:00 PM 6.71 44.078 0.138 7.35 32.69 12.46
1/2/2022 9:45:00 PM 6.69 44.042 0.138 7.34 35.7 12.46
1/2/2022 10:00:00 PM 6.68 44.024 0.106 7.36 37.72 12.47
1/2/2022 10:15:00 PM 6.66 43.988 0.138 7.35 33.17 12.47
1/2/2022 10:30:00 PM 6.65 43.97 0.138 7.36 28.12 12.47
1/2/2022 10:45:00 PM 6.63 43.934 0.138 7.35 35.39 12.48
1/2/2022 11:00:00 PM 6.61 43.898 0.138 7.36 33.51 12.5
1/2/2022 11:15:00 PM 6.6 43.88 0.076 7.37 30.18 12.48
1/2/2022 11:30:00 PM 6.58 43.844 0.101 7.37 33.89 12.49
1/2/2022 11:45:00 PM 6.57 43.826 0.138 7.36 36.46 12.51
1/3/2022 12:00:00 AM 6.56 43.808 0.138 7.37 33.47 12.52
1/3/2022 12:15:00 AM 6.54 43.772 0.065 7.37 35.5 12.52
1/3/2022 12:30:00 AM 6.53 43.754 0.137 7.36 30.87 12.51
1/3/2022 12:45:00 AM 6.51 43.718 0.138 7.37 32.65 12.53
1/3/2022 1:00:00 AM 6.48 43.664 0.137 7.37 32.56 12.53
1/3/2022 1:15:00 AM 6.48 43.664 0.138 7.36 33 12.54
1/3/2022 1:30:00 AM 6.51 43.718 0.149 7.37 31.27 12.68
1/3/2022 1:45:00 AM 6.5 43.7 0.156 7.28 22.8 12.89
1/3/2022 2:00:00 AM 6.46 43.628 0.14 7.32 26.83 12.58
1/3/2022 2:15:00 AM 6.44 43.592 0.137 7.36 28.8 12.55
1/3/2022 2:30:00 AM 6.43 43.574 0.137 7.36 33.09 12.52
1/3/2022 2:45:00 AM 6.43 43.574 0.136 7.23 26.41 12.52
1/3/2022 3:00:00 AM 6.42 43.556 0.138 7.37 28.35 12.54
1/3/2022 3:15:00 AM 6.41 43.538 0.135 7.31 33.1 12.54
1/3/2022 3:30:00 AM 6.4 43.52 0.099 7.33 27.31 12.52
1/3/2022 3:45:00 AM 6.39 43.502 0.137 7.35 26.78 12.51
1/3/2022 4:00:00 AM 6.38 43.484 0.137 7.36 27.45 12.53
1/3/2022 4:15:00 AM 6.36 43.448 0.137 7.37 30.91 12.55
1/3/2022 4:30:00 AM 6.34 43.412 0.049 7.36 26.22 12.53
1/3/2022 4:45:00 AM 6.33 43.394 0.043 7.35 27.42 12.54
1/3/2022 5:00:00 AM 6.31 43.358 0.051 7.3 28.59 12.54
1/3/2022 5:15:00 AM 6.3 43.34 0.137 7.36 30.04 12.54
1/3/2022 5:30:00 AM 6.29 43.322 0.137 7.36 31.15 12.55
1/3/2022 5:45:00 AM 6.27 43.286 0.137 7.35 24.82 12.55
1/3/2022 6:00:00 AM 6.25 43.25 0.137 7.37 28.32 12.56
1/3/2022 6:15:00 AM 6.24 43.232 0.136 7.36 24.84 12.55
1/3/2022 6:30:00 AM 6.23 43.214 0.136 7.35 28.61 12.54
1/3/2022 6:45:00 AM 6.22 43.196 0.137 7.38 31.45 12.57
1/3/2022 7:00:00 AM 6.2 43.16 0.137 7.37 28.98 12.57
1/3/2022 7:15:00 AM 6.18 43.124 0.124 7.35 29.82 12.56
1/3/2022 7:30:00 AM 6.16 43.088 0.096 7.34 28.66 12.57
1/3/2022 7:45:00 AM 6.13 43.034 0.136 7.35 28.41 12.57
1/3/2022 8:00:00 AM 6.11 42.998 0.136 7.37 27.3 12.57
1/3/2022 8:15:00 AM 6.09 42.962 0.135 7.33 31.75 12.59
1/3/2022 8:30:00 AM 6.07 42.926 0.039 7.36 26.47 12.59
1/3/2022 8:45:00 AM 6.06 42.908 0.123 7.34 30.73 12.59
1/3/2022 9:00:00 AM 6.03 42.854 0.114 7.36 23.6 12.6
1/3/2022 9:15:00 AM 6.01 42.818 0.136 7.37 27.91 12.59
1/3/2022 9:30:00 AM 5.99 42.782 0.13 7.29 30.04 12.61
1/3/2022 9:45:00 AM 5.97 42.746 0.134 7.22 26.38 12.6
1/3/2022 10:00:00 AM 5.96 42.728 0.135 7.31 24.74 12.62
1/3/2022 10:15:00 AM 5.95 42.71 0.134 7.25 26.58 12.61
1/3/2022 10:30:00 AM 5.94 42.692 0.136 7.37 27.82 12.62
1/3/2022 10:45:00 AM 5.92 42.656 0.135 7.39 30.86 12.62
1/3/2022 11:00:00 AM 5.92 42.656 0.136 7.36 25.56 12.63
1/3/2022 11:15:00 AM 5.91 42.638 0.043 7.35 29.5 12.64
1/3/2022 11:30:00 AM 5.91 42.638 0.136 7.37 29.81 12.64
1/3/2022 11:45:00 AM 5.9 42.62 0.135 7.38 30.97 12.65
1/3/2022 12:00:00 PM 5.88 42.584 0.136 7.36 25.12 12.65
1/3/2022 12:15:00 PM 5.87 42.566 0.114 7.36 29.2 12.66
1/3/2022 12:30:00 PM 5.85 42.53 0.06 7.38 24.36 12.68
1/3/2022 12:45:00 PM 5.84 42.512 0.135 7.39 29.54 12.68
1/3/2022 1:00:00 PM 5.83 42.494 0.135 7.38 1.31 12.69
1/3/2022 1:15:00 PM 5.82 42.476 0.129 7.36 30.31 12.7
1/3/2022 1:30:00 PM 5.82 42.476 0.131 7.36 29.89 12.71
1/3/2022 1:45:00 PM 5.81 42.458 0.135 7.37 25.1 12.71
1/3/2022 2:00:00 PM 5.81 42.458 0.134 7.34 29.86 12.73
1/3/2022 2:15:00 PM 5.82 42.476 0.134 7.37 30.93 12.72
1/3/2022 2:30:00 PM 5.81 42.458 0.13 7.37 35.88 12.74
1/3/2022 2:45:00 PM 5.8 42.44 0.135 7.31 28.42 12.76
1/3/2022 3:00:00 PM 5.81 42.458 0.135 7.39 26.89 12.76
1/3/2022 3:15:00 PM 5.81 42.458 0.134 7.31 30.29 12.78
1/3/2022 3:30:00 PM 5.8 42.44 0.135 7.41 29.58 12.78
1/3/2022 3:45:00 PM 5.79 42.422 0.135 7.38 28.78 12.79
1/3/2022 4:00:00 PM 5.78 42.404 0.133 7.38 23.6 12.79
1/3/2022 4:15:00 PM 5.77 42.386 0.135 7.39 25.91 12.8
1/3/2022 4:30:00 PM 5.76 42.368 0.135 7.39 29.74 12.82
1/3/2022 4:45:00 PM 5.75 42.35 0.132 7.37 25.15 12.82
1/3/2022 5:00:00 PM 5.74 42.332 0.135 7.4 26.11 12.83
1/3/2022 5:15:00 PM 5.72 42.296 0.133 7.4 27.57 12.84
1/3/2022 5:30:00 PM 5.7 42.26 0.127 7.42 29.11 12.84
1/3/2022 5:45:00 PM 5.68 42.224 0.135 7.42 27.25 12.85
1/3/2022 6:00:00 PM 5.66 42.188 0.13 7.38 30.09 12.86
1/3/2022 6:15:00 PM 5.63 42.134 0.134 7.41 31.29 12.88
1/3/2022 6:30:00 PM 5.6 42.08 0.134 7.39 24.38 12.89
1/3/2022 6:45:00 PM 5.58 42.044 0.057 7.39 66.71 12.9
1/3/2022 7:00:00 PM 5.56 42.008 0.134 7.38 28.26 12.9
1/3/2022 7:15:00 PM 5.56 42.008 0.148 7.41 25.38 13.12
1/3/2022 7:30:00 PM 5.62 42.116 0.146 7.33 3.21 13.14
1/3/2022 7:45:00 PM 5.52 41.936 0.133 7.37 29.44 12.94
1/3/2022 8:00:00 PM 5.48 41.864 0.048 7.4 24.14 12.93
1/3/2022 8:15:00 PM 5.44 41.792 0.134 7.4 25.76 12.93
1/3/2022 8:30:00 PM 5.41 41.738 0.131 7.31 28.59 12.93
1/3/2022 8:45:00 PM 5.38 41.684 0.135 7.41 29.64 12.94
1/3/2022 9:00:00 PM 5.35 41.63 0.128 7.4 29.23 12.95
1/3/2022 9:15:00 PM 5.32 41.576 0.052 7.41 24.47 12.96
1/3/2022 9:30:00 PM 5.3 41.54 0.134 7.41 29.4 12.96
1/3/2022 9:45:00 PM 5.28 41.504 0.131 7.38 23.13 12.98
1/3/2022 10:00:00 PM 5.27 41.486 0.133 7.28 23.23 12.97
1/3/2022 10:15:00 PM 5.25 41.45 0.135 7.41 25.96 12.98
1/3/2022 10:30:00 PM 5.24 41.432 0.133 7.3 30.32 12.98
1/3/2022 10:45:00 PM 5.23 41.414 0.134 7.39 30.07 12.99
1/3/2022 11:00:00 PM 5.21 41.378 0.123 7.2 28.24 13.02
1/3/2022 11:15:00 PM 5.2 41.36 0.134 7.42 24.18 13.02
1/3/2022 11:30:00 PM 5.18 41.324 0.128 7.3 29.57 13.03
1/3/2022 11:45:00 PM 5.16 41.288 0.129 7.41 28.52 13.03
1/4/2022 12:00:00 AM 5.15 41.27 0.134 7.42 28.18 13.02
1/4/2022 12:15:00 AM 5.13 41.234 0.132 7.4 20.78 13.04
1/4/2022 12:30:00 AM 5.11 41.198 0.133 7.27 28.33 13.04
1/4/2022 12:45:00 AM 5.09 41.162 0.133 7.43 28.09 13.04
1/4/2022 1:00:00 AM 5.07 41.126 0.134 7.4 27.67 13.04
1/4/2022 1:15:00 AM 5.05 41.09 0.132 7.36 27.85 13.06
1/4/2022 1:30:00 AM 5.03 41.054 0.135 7.43 28.28 13.05
1/4/2022 1:45:00 AM 5 41 0.04 7.4 24.66 13.07
1/4/2022 2:00:00 AM 4.98 40.964 0.13 7.43 24.55 13.07
1/4/2022 2:15:00 AM 5.02 41.036 0.139 7.43 28.75 13.19
1/4/2022 2:30:00 AM 5.11 41.198 0.15 7.35 19.32 13.43
1/4/2022 2:45:00 AM 4.98 40.964 0.138 7.35 26.92 13.16
1/4/2022 3:00:00 AM 4.9 40.82 0.135 7.42 29.65 13.09
1/4/2022 3:15:00 AM 4.87 40.766 0.135 7.42 29.01 13.1
1/4/2022 3:30:00 AM 4.84 40.712 0.128 7.39 26.19 13.1
1/4/2022 3:45:00 AM 4.82 40.676 0.134 7.4 31.01 13.09
1/4/2022 4:00:00 AM 4.8 40.64 0.136 7.42 29.5 13.1
1/4/2022 4:15:00 AM 4.79 40.622 0.131 7.4 23.42 13.11
1/4/2022 4:30:00 AM 4.76 40.568 0.136 7.4 25.83 13.12
1/4/2022 4:45:00 AM 4.73 40.514 0.136 7.41 26.64 13.12
1/4/2022 5:00:00 AM 4.71 40.478 0.136 7.4 26.97 13.12
1/4/2022 5:15:00 AM 4.68 40.424 0.136 7.36 24.65 13.13
1/4/2022 5:30:00 AM 4.66 40.388 0.136 7.39 27.49 13.13
1/4/2022 5:45:00 AM 4.63 40.334 0.136 7.4 27.49 13.14
1/4/2022 6:00:00 AM 4.61 40.298 0.136 7.4 24.81 13.15
1/4/2022 6:15:00 AM 4.59 40.262 0.131 7.36 26.92 13.12
1/4/2022 6:30:00 AM 4.56 40.208 0.136 7.4 16.48 13.15
1/4/2022 6:45:00 AM 4.53 40.154 0.137 7.32 27.76 13.15
1/4/2022 7:00:00 AM 4.51 40.118 0.055 7.4 19.84 13.17
1/4/2022 7:15:00 AM 4.49 40.082 0.137 7.4 26.81 13.14
1/4/2022 7:30:00 AM 4.47 40.046 0.136 7.41 23.73 13.17
1/4/2022 7:45:00 AM 4.44 39.992 0.134 7.4 23.26 13.18
1/4/2022 8:00:00 AM 4.42 39.956 0.127 7.4 8.16 1